<?xml version="1.0" encoding="UTF-8" standalone="no" ?>
<gpx xmlns="http://www.topografix.com/GPX/1/1" xmlns:xsi="http://www.w3.org/2001/XMLSchema-instance" xsi:schemaLocation="http://www.topografix.com/GPX/1/1 http://www.topografix.com/GPX/1/1/gpx.xsd" version="1.1" creator="VisuGPX - https://www.visugpx.com">
  <metadata>
    <name>Les lacs de Pétarel et le pont des Oules</name>
    <desc><![CDATA[Prudence sur les 3 premiers km (et les 3 derniers puisque AR) car sentier étroit et exposé sur la plus grande partie ; quelques passages équipés d'une main courante.]]></desc>
  </metadata>
  <trk>
    <name><![CDATA[01/09/2021 08:22:14  les lacs de Pétarel et le pont des Oules]]></name>
    <extensions>
      <line xmlns="http://www.topografix.com/GPX/gpx_style/0/2">
        <color>0000FF</color>
        <width>4</width>
      </line>
    </extensions>
    <trkseg>
      <trkpt lat="44.81199" lon="6.19652">
        <ele>1281.1999511719</ele>
        <time>2021-09-01T06:22:14Z</time>
      </trkpt>
      <trkpt lat="44.81199" lon="6.19652">
        <ele>1281.1999511719</ele>
        <time>2021-09-01T06:22:15Z</time>
      </trkpt>
      <trkpt lat="44.81202" lon="6.19658">
        <ele>1281</ele>
        <time>2021-09-01T06:22:50Z</time>
      </trkpt>
      <trkpt lat="44.81196" lon="6.19659">
        <ele>1281.1999511719</ele>
        <time>2021-09-01T06:23:24Z</time>
      </trkpt>
      <trkpt lat="44.81191" lon="6.1965">
        <ele>1281</ele>
        <time>2021-09-01T06:23:34Z</time>
      </trkpt>
      <trkpt lat="44.81186" lon="6.19636">
        <ele>1280.5999755859</ele>
        <time>2021-09-01T06:23:54Z</time>
      </trkpt>
      <trkpt lat="44.81176" lon="6.19623">
        <ele>1280.5999755859</ele>
        <time>2021-09-01T06:24:08Z</time>
      </trkpt>
      <trkpt lat="44.81161" lon="6.19608">
        <ele>1282</ele>
        <time>2021-09-01T06:24:28Z</time>
      </trkpt>
      <trkpt lat="44.81139" lon="6.19587">
        <ele>1283.5999755859</ele>
        <time>2021-09-01T06:24:53Z</time>
      </trkpt>
      <trkpt lat="44.81128" lon="6.19577">
        <ele>1284</ele>
        <time>2021-09-01T06:25:07Z</time>
      </trkpt>
      <trkpt lat="44.81105" lon="6.19564">
        <ele>1284.4000244141</ele>
        <time>2021-09-01T06:25:29Z</time>
      </trkpt>
      <trkpt lat="44.81092" lon="6.19568">
        <ele>1284.8000488281</ele>
        <time>2021-09-01T06:25:45Z</time>
      </trkpt>
      <trkpt lat="44.81085" lon="6.19567">
        <ele>1284.8000488281</ele>
        <time>2021-09-01T06:25:52Z</time>
      </trkpt>
      <trkpt lat="44.81068" lon="6.19571">
        <ele>1285.4000244141</ele>
        <time>2021-09-01T06:26:08Z</time>
      </trkpt>
      <trkpt lat="44.81044" lon="6.19571">
        <ele>1285.8000488281</ele>
        <time>2021-09-01T06:26:25Z</time>
      </trkpt>
      <trkpt lat="44.81035" lon="6.19574">
        <ele>1286</ele>
        <time>2021-09-01T06:26:34Z</time>
      </trkpt>
      <trkpt lat="44.81026" lon="6.1958">
        <ele>1285.8000488281</ele>
        <time>2021-09-01T06:26:50Z</time>
      </trkpt>
      <trkpt lat="44.81023" lon="6.19573">
        <ele>1286</ele>
        <time>2021-09-01T06:27:07Z</time>
      </trkpt>
      <trkpt lat="44.81029" lon="6.1955">
        <ele>1287.4000244141</ele>
        <time>2021-09-01T06:27:23Z</time>
      </trkpt>
      <trkpt lat="44.81033" lon="6.19532">
        <ele>1290</ele>
        <time>2021-09-01T06:27:45Z</time>
      </trkpt>
      <trkpt lat="44.81038" lon="6.19512">
        <ele>1292.1999511719</ele>
        <time>2021-09-01T06:28:06Z</time>
      </trkpt>
      <trkpt lat="44.81065" lon="6.19517">
        <ele>1293.5999755859</ele>
        <time>2021-09-01T06:28:31Z</time>
      </trkpt>
      <trkpt lat="44.81077" lon="6.19509">
        <ele>1294.8000488281</ele>
        <time>2021-09-01T06:28:53Z</time>
      </trkpt>
      <trkpt lat="44.81089" lon="6.19507">
        <ele>1297.8000488281</ele>
        <time>2021-09-01T06:29:11Z</time>
      </trkpt>
      <trkpt lat="44.811" lon="6.19506">
        <ele>1300.5999755859</ele>
        <time>2021-09-01T06:29:31Z</time>
      </trkpt>
      <trkpt lat="44.81112" lon="6.19509">
        <ele>1303.8000488281</ele>
        <time>2021-09-01T06:29:53Z</time>
      </trkpt>
      <trkpt lat="44.81123" lon="6.19513">
        <ele>1307</ele>
        <time>2021-09-01T06:30:13Z</time>
      </trkpt>
      <trkpt lat="44.81134" lon="6.19518">
        <ele>1309.8000488281</ele>
        <time>2021-09-01T06:30:35Z</time>
      </trkpt>
      <trkpt lat="44.81131" lon="6.19509">
        <ele>1312.5999755859</ele>
        <time>2021-09-01T06:30:56Z</time>
      </trkpt>
      <trkpt lat="44.81121" lon="6.1949">
        <ele>1314</ele>
        <time>2021-09-01T06:31:22Z</time>
      </trkpt>
      <trkpt lat="44.81116" lon="6.19476">
        <ele>1316.8000488281</ele>
        <time>2021-09-01T06:31:45Z</time>
      </trkpt>
      <trkpt lat="44.81115" lon="6.19464">
        <ele>1320</ele>
        <time>2021-09-01T06:32:04Z</time>
      </trkpt>
      <trkpt lat="44.81118" lon="6.19451">
        <ele>1323</ele>
        <time>2021-09-01T06:32:25Z</time>
      </trkpt>
      <trkpt lat="44.81119" lon="6.19439">
        <ele>1326.1999511719</ele>
        <time>2021-09-01T06:32:43Z</time>
      </trkpt>
      <trkpt lat="44.81119" lon="6.19423">
        <ele>1329.1999511719</ele>
        <time>2021-09-01T06:33:06Z</time>
      </trkpt>
      <trkpt lat="44.81124" lon="6.1941">
        <ele>1332.1999511719</ele>
        <time>2021-09-01T06:33:30Z</time>
      </trkpt>
      <trkpt lat="44.81122" lon="6.19396">
        <ele>1335.1999511719</ele>
        <time>2021-09-01T06:33:50Z</time>
      </trkpt>
      <trkpt lat="44.81119" lon="6.19382">
        <ele>1338.4000244141</ele>
        <time>2021-09-01T06:34:11Z</time>
      </trkpt>
      <trkpt lat="44.81117" lon="6.19374">
        <ele>1341.5999755859</ele>
        <time>2021-09-01T06:34:28Z</time>
      </trkpt>
      <trkpt lat="44.8112" lon="6.19362">
        <ele>1344.4000244141</ele>
        <time>2021-09-01T06:34:47Z</time>
      </trkpt>
      <trkpt lat="44.81122" lon="6.19353">
        <ele>1347.5999755859</ele>
        <time>2021-09-01T06:35:05Z</time>
      </trkpt>
      <trkpt lat="44.8113" lon="6.19349">
        <ele>1350.5999755859</ele>
        <time>2021-09-01T06:35:25Z</time>
      </trkpt>
      <trkpt lat="44.81142" lon="6.19346">
        <ele>1353.5999755859</ele>
        <time>2021-09-01T06:35:43Z</time>
      </trkpt>
      <trkpt lat="44.81151" lon="6.1934">
        <ele>1356.4000244141</ele>
        <time>2021-09-01T06:36:10Z</time>
      </trkpt>
      <trkpt lat="44.81151" lon="6.19345">
        <ele>1356.5999755859</ele>
        <time>2021-09-01T06:36:41Z</time>
      </trkpt>
      <trkpt lat="44.81155" lon="6.19332">
        <ele>1359.1999511719</ele>
        <time>2021-09-01T06:37:11Z</time>
      </trkpt>
      <trkpt lat="44.81157" lon="6.19326">
        <ele>1362.1999511719</ele>
        <time>2021-09-01T06:37:26Z</time>
      </trkpt>
      <trkpt lat="44.81164" lon="6.19316">
        <ele>1365.4000244141</ele>
        <time>2021-09-01T06:37:48Z</time>
      </trkpt>
      <trkpt lat="44.81166" lon="6.19314">
        <ele>1366.1999511719</ele>
        <time>2021-09-01T06:37:54Z</time>
      </trkpt>
      <trkpt lat="44.81167" lon="6.19298">
        <ele>1369.4000244141</ele>
        <time>2021-09-01T06:38:19Z</time>
      </trkpt>
      <trkpt lat="44.81173" lon="6.19289">
        <ele>1372.4000244141</ele>
        <time>2021-09-01T06:38:39Z</time>
      </trkpt>
      <trkpt lat="44.81181" lon="6.19281">
        <ele>1375.5999755859</ele>
        <time>2021-09-01T06:38:58Z</time>
      </trkpt>
      <trkpt lat="44.81187" lon="6.1928">
        <ele>1378.5999755859</ele>
        <time>2021-09-01T06:39:14Z</time>
      </trkpt>
      <trkpt lat="44.81193" lon="6.19269">
        <ele>1381</ele>
        <time>2021-09-01T06:39:40Z</time>
      </trkpt>
      <trkpt lat="44.81201" lon="6.19255">
        <ele>1384.1999511719</ele>
        <time>2021-09-01T06:40:04Z</time>
      </trkpt>
      <trkpt lat="44.81213" lon="6.19243">
        <ele>1385.8000488281</ele>
        <time>2021-09-01T06:40:25Z</time>
      </trkpt>
      <trkpt lat="44.81225" lon="6.19228">
        <ele>1388.4000244141</ele>
        <time>2021-09-01T06:40:50Z</time>
      </trkpt>
      <trkpt lat="44.81233" lon="6.19212">
        <ele>1390</ele>
        <time>2021-09-01T06:41:12Z</time>
      </trkpt>
      <trkpt lat="44.81243" lon="6.19199">
        <ele>1392.8000488281</ele>
        <time>2021-09-01T06:41:34Z</time>
      </trkpt>
      <trkpt lat="44.81253" lon="6.19182">
        <ele>1394.5999755859</ele>
        <time>2021-09-01T06:41:56Z</time>
      </trkpt>
      <trkpt lat="44.81262" lon="6.19158">
        <ele>1396</ele>
        <time>2021-09-01T06:42:20Z</time>
      </trkpt>
      <trkpt lat="44.81261" lon="6.19155">
        <ele>1396.4000244141</ele>
        <time>2021-09-01T06:42:23Z</time>
      </trkpt>
      <trkpt lat="44.81264" lon="6.1915">
        <ele>1397</ele>
        <time>2021-09-01T06:42:29Z</time>
      </trkpt>
      <trkpt lat="44.81268" lon="6.19129">
        <ele>1400.1999511719</ele>
        <time>2021-09-01T06:42:53Z</time>
      </trkpt>
      <trkpt lat="44.81269" lon="6.19123">
        <ele>1403.1999511719</ele>
        <time>2021-09-01T06:43:12Z</time>
      </trkpt>
      <trkpt lat="44.81274" lon="6.19123">
        <ele>1403.4000244141</ele>
        <time>2021-09-01T06:43:46Z</time>
      </trkpt>
      <trkpt lat="44.81271" lon="6.19123">
        <ele>1403.4000244141</ele>
        <time>2021-09-01T06:44:31Z</time>
      </trkpt>
      <trkpt lat="44.8127" lon="6.19121">
        <ele>1403.1999511719</ele>
        <time>2021-09-01T06:45:35Z</time>
      </trkpt>
      <trkpt lat="44.8127" lon="6.19127">
        <ele>1403.1999511719</ele>
        <time>2021-09-01T06:46:29Z</time>
      </trkpt>
      <trkpt lat="44.81275" lon="6.19124">
        <ele>1403.4000244141</ele>
        <time>2021-09-01T06:46:55Z</time>
      </trkpt>
      <trkpt lat="44.81272" lon="6.19122">
        <ele>1403.4000244141</ele>
        <time>2021-09-01T06:47:22Z</time>
      </trkpt>
      <trkpt lat="44.81274" lon="6.19114">
        <ele>1406.1999511719</ele>
        <time>2021-09-01T06:47:44Z</time>
      </trkpt>
      <trkpt lat="44.81282" lon="6.191">
        <ele>1409.1999511719</ele>
        <time>2021-09-01T06:48:03Z</time>
      </trkpt>
      <trkpt lat="44.81283" lon="6.19099">
        <ele>1409.4000244141</ele>
        <time>2021-09-01T06:48:04Z</time>
      </trkpt>
      <trkpt lat="44.81289" lon="6.19085">
        <ele>1410.5999755859</ele>
        <time>2021-09-01T06:48:21Z</time>
      </trkpt>
      <trkpt lat="44.81295" lon="6.19061">
        <ele>1412.1999511719</ele>
        <time>2021-09-01T06:48:44Z</time>
      </trkpt>
      <trkpt lat="44.81307" lon="6.19044">
        <ele>1414.5999755859</ele>
        <time>2021-09-01T06:49:06Z</time>
      </trkpt>
      <trkpt lat="44.8131" lon="6.19029">
        <ele>1417.5999755859</ele>
        <time>2021-09-01T06:49:23Z</time>
      </trkpt>
      <trkpt lat="44.81309" lon="6.19017">
        <ele>1420.5999755859</ele>
        <time>2021-09-01T06:49:40Z</time>
      </trkpt>
      <trkpt lat="44.81309" lon="6.19002">
        <ele>1423.8000488281</ele>
        <time>2021-09-01T06:50:00Z</time>
      </trkpt>
      <trkpt lat="44.81308" lon="6.1899">
        <ele>1426.5999755859</ele>
        <time>2021-09-01T06:50:21Z</time>
      </trkpt>
      <trkpt lat="44.81308" lon="6.18978">
        <ele>1429.8000488281</ele>
        <time>2021-09-01T06:50:40Z</time>
      </trkpt>
      <trkpt lat="44.81307" lon="6.18967">
        <ele>1433</ele>
        <time>2021-09-01T06:51:00Z</time>
      </trkpt>
      <trkpt lat="44.81306" lon="6.18953">
        <ele>1436</ele>
        <time>2021-09-01T06:51:20Z</time>
      </trkpt>
      <trkpt lat="44.81304" lon="6.18939">
        <ele>1439.4000244141</ele>
        <time>2021-09-01T06:51:39Z</time>
      </trkpt>
      <trkpt lat="44.813" lon="6.18928">
        <ele>1442.4000244141</ele>
        <time>2021-09-01T06:51:59Z</time>
      </trkpt>
      <trkpt lat="44.81302" lon="6.18918">
        <ele>1445.4000244141</ele>
        <time>2021-09-01T06:52:18Z</time>
      </trkpt>
      <trkpt lat="44.81302" lon="6.18901">
        <ele>1448.4000244141</ele>
        <time>2021-09-01T06:52:41Z</time>
      </trkpt>
      <trkpt lat="44.81297" lon="6.18885">
        <ele>1451.4000244141</ele>
        <time>2021-09-01T06:53:10Z</time>
      </trkpt>
      <trkpt lat="44.81295" lon="6.18877">
        <ele>1454.4000244141</ele>
        <time>2021-09-01T06:53:29Z</time>
      </trkpt>
      <trkpt lat="44.81291" lon="6.18866">
        <ele>1457.5999755859</ele>
        <time>2021-09-01T06:53:50Z</time>
      </trkpt>
      <trkpt lat="44.81289" lon="6.18855">
        <ele>1460.5999755859</ele>
        <time>2021-09-01T06:54:12Z</time>
      </trkpt>
      <trkpt lat="44.81282" lon="6.18858">
        <ele>1463.8000488281</ele>
        <time>2021-09-01T06:54:35Z</time>
      </trkpt>
      <trkpt lat="44.81273" lon="6.18866">
        <ele>1466.5999755859</ele>
        <time>2021-09-01T06:54:54Z</time>
      </trkpt>
      <trkpt lat="44.81269" lon="6.18852">
        <ele>1469.8000488281</ele>
        <time>2021-09-01T06:55:16Z</time>
      </trkpt>
      <trkpt lat="44.81273" lon="6.18833">
        <ele>1472.8000488281</ele>
        <time>2021-09-01T06:55:38Z</time>
      </trkpt>
      <trkpt lat="44.81274" lon="6.18812">
        <ele>1475.5999755859</ele>
        <time>2021-09-01T06:56:00Z</time>
      </trkpt>
      <trkpt lat="44.81265" lon="6.18781">
        <ele>1476.8000488281</ele>
        <time>2021-09-01T06:56:24Z</time>
      </trkpt>
      <trkpt lat="44.81259" lon="6.18755">
        <ele>1478.8000488281</ele>
        <time>2021-09-01T06:56:49Z</time>
      </trkpt>
      <trkpt lat="44.81249" lon="6.18728">
        <ele>1478.4000244141</ele>
        <time>2021-09-01T06:57:12Z</time>
      </trkpt>
      <trkpt lat="44.81237" lon="6.18714">
        <ele>1476.4000244141</ele>
        <time>2021-09-01T06:57:31Z</time>
      </trkpt>
      <trkpt lat="44.81225" lon="6.18694">
        <ele>1473.4000244141</ele>
        <time>2021-09-01T06:57:52Z</time>
      </trkpt>
      <trkpt lat="44.81222" lon="6.18673">
        <ele>1471.8000488281</ele>
        <time>2021-09-01T06:58:12Z</time>
      </trkpt>
      <trkpt lat="44.81225" lon="6.18645">
        <ele>1473</ele>
        <time>2021-09-01T06:58:34Z</time>
      </trkpt>
      <trkpt lat="44.81225" lon="6.18631">
        <ele>1475.1999511719</ele>
        <time>2021-09-01T06:58:53Z</time>
      </trkpt>
      <trkpt lat="44.81218" lon="6.18615">
        <ele>1478.5999755859</ele>
        <time>2021-09-01T06:59:12Z</time>
      </trkpt>
      <trkpt lat="44.81213" lon="6.18601">
        <ele>1481.5999755859</ele>
        <time>2021-09-01T06:59:29Z</time>
      </trkpt>
      <trkpt lat="44.81218" lon="6.18589">
        <ele>1484.8000488281</ele>
        <time>2021-09-01T06:59:51Z</time>
      </trkpt>
      <trkpt lat="44.8122" lon="6.18565">
        <ele>1486.4000244141</ele>
        <time>2021-09-01T07:00:14Z</time>
      </trkpt>
      <trkpt lat="44.81214" lon="6.18544">
        <ele>1487.8000488281</ele>
        <time>2021-09-01T07:00:35Z</time>
      </trkpt>
      <trkpt lat="44.81212" lon="6.18524">
        <ele>1487.1999511719</ele>
        <time>2021-09-01T07:00:55Z</time>
      </trkpt>
      <trkpt lat="44.81214" lon="6.18503">
        <ele>1486.8000488281</ele>
        <time>2021-09-01T07:01:15Z</time>
      </trkpt>
      <trkpt lat="44.81217" lon="6.18485">
        <ele>1484.8000488281</ele>
        <time>2021-09-01T07:01:31Z</time>
      </trkpt>
      <trkpt lat="44.81221" lon="6.1846">
        <ele>1482.5999755859</ele>
        <time>2021-09-01T07:01:52Z</time>
      </trkpt>
      <trkpt lat="44.81226" lon="6.18434">
        <ele>1481.8000488281</ele>
        <time>2021-09-01T07:02:17Z</time>
      </trkpt>
      <trkpt lat="44.81239" lon="6.18406">
        <ele>1483.1999511719</ele>
        <time>2021-09-01T07:02:44Z</time>
      </trkpt>
      <trkpt lat="44.81249" lon="6.18382">
        <ele>1485.8000488281</ele>
        <time>2021-09-01T07:03:11Z</time>
      </trkpt>
      <trkpt lat="44.81256" lon="6.18359">
        <ele>1487</ele>
        <time>2021-09-01T07:03:33Z</time>
      </trkpt>
      <trkpt lat="44.81274" lon="6.18335">
        <ele>1489.4000244141</ele>
        <time>2021-09-01T07:04:00Z</time>
      </trkpt>
      <trkpt lat="44.81283" lon="6.18312">
        <ele>1491</ele>
        <time>2021-09-01T07:04:23Z</time>
      </trkpt>
      <trkpt lat="44.81294" lon="6.18296">
        <ele>1493</ele>
        <time>2021-09-01T07:04:44Z</time>
      </trkpt>
      <trkpt lat="44.81296" lon="6.18284">
        <ele>1496</ele>
        <time>2021-09-01T07:05:10Z</time>
      </trkpt>
      <trkpt lat="44.81299" lon="6.18277">
        <ele>1497.5999755859</ele>
        <time>2021-09-01T07:05:32Z</time>
      </trkpt>
      <trkpt lat="44.813" lon="6.18262">
        <ele>1497.8000488281</ele>
        <time>2021-09-01T07:05:55Z</time>
      </trkpt>
      <trkpt lat="44.81297" lon="6.18252">
        <ele>1498.1999511719</ele>
        <time>2021-09-01T07:06:13Z</time>
      </trkpt>
      <trkpt lat="44.81294" lon="6.18231">
        <ele>1498.5999755859</ele>
        <time>2021-09-01T07:06:35Z</time>
      </trkpt>
      <trkpt lat="44.81309" lon="6.18227">
        <ele>1499.8000488281</ele>
        <time>2021-09-01T07:06:52Z</time>
      </trkpt>
      <trkpt lat="44.81319" lon="6.18204">
        <ele>1499</ele>
        <time>2021-09-01T07:07:12Z</time>
      </trkpt>
      <trkpt lat="44.81333" lon="6.18182">
        <ele>1498.8000488281</ele>
        <time>2021-09-01T07:07:37Z</time>
      </trkpt>
      <trkpt lat="44.81334" lon="6.18181">
        <ele>1498.8000488281</ele>
        <time>2021-09-01T07:07:39Z</time>
      </trkpt>
      <trkpt lat="44.81329" lon="6.18183">
        <ele>1498</ele>
        <time>2021-09-01T07:08:05Z</time>
      </trkpt>
      <trkpt lat="44.81326" lon="6.18182">
        <ele>1498.5999755859</ele>
        <time>2021-09-01T07:08:36Z</time>
      </trkpt>
      <trkpt lat="44.81333" lon="6.18164">
        <ele>1498.8000488281</ele>
        <time>2021-09-01T07:08:55Z</time>
      </trkpt>
      <trkpt lat="44.81336" lon="6.18134">
        <ele>1499.4000244141</ele>
        <time>2021-09-01T07:09:16Z</time>
      </trkpt>
      <trkpt lat="44.81334" lon="6.1811">
        <ele>1500.5999755859</ele>
        <time>2021-09-01T07:09:38Z</time>
      </trkpt>
      <trkpt lat="44.81318" lon="6.18088">
        <ele>1503</ele>
        <time>2021-09-01T07:10:01Z</time>
      </trkpt>
      <trkpt lat="44.81312" lon="6.18081">
        <ele>1504.1999511719</ele>
        <time>2021-09-01T07:10:10Z</time>
      </trkpt>
      <trkpt lat="44.81315" lon="6.1806">
        <ele>1507.4000244141</ele>
        <time>2021-09-01T07:10:35Z</time>
      </trkpt>
      <trkpt lat="44.81314" lon="6.18046">
        <ele>1510.5999755859</ele>
        <time>2021-09-01T07:10:56Z</time>
      </trkpt>
      <trkpt lat="44.81313" lon="6.1802">
        <ele>1513.4000244141</ele>
        <time>2021-09-01T07:11:22Z</time>
      </trkpt>
      <trkpt lat="44.81312" lon="6.17997">
        <ele>1515.5999755859</ele>
        <time>2021-09-01T07:11:43Z</time>
      </trkpt>
      <trkpt lat="44.81302" lon="6.1798">
        <ele>1518.5999755859</ele>
        <time>2021-09-01T07:12:07Z</time>
      </trkpt>
      <trkpt lat="44.81301" lon="6.17971">
        <ele>1521.5999755859</ele>
        <time>2021-09-01T07:12:26Z</time>
      </trkpt>
      <trkpt lat="44.81309" lon="6.17962">
        <ele>1524.8000488281</ele>
        <time>2021-09-01T07:12:42Z</time>
      </trkpt>
      <trkpt lat="44.81313" lon="6.17939">
        <ele>1526.1999511719</ele>
        <time>2021-09-01T07:13:05Z</time>
      </trkpt>
      <trkpt lat="44.81317" lon="6.17921">
        <ele>1527.1999511719</ele>
        <time>2021-09-01T07:13:29Z</time>
      </trkpt>
      <trkpt lat="44.8131" lon="6.17899">
        <ele>1530.4000244141</ele>
        <time>2021-09-01T07:13:53Z</time>
      </trkpt>
      <trkpt lat="44.81314" lon="6.17885">
        <ele>1532</ele>
        <time>2021-09-01T07:14:14Z</time>
      </trkpt>
      <trkpt lat="44.81321" lon="6.17867">
        <ele>1532.8000488281</ele>
        <time>2021-09-01T07:14:36Z</time>
      </trkpt>
      <trkpt lat="44.81329" lon="6.17852">
        <ele>1533</ele>
        <time>2021-09-01T07:14:55Z</time>
      </trkpt>
      <trkpt lat="44.81332" lon="6.17838">
        <ele>1533.4000244141</ele>
        <time>2021-09-01T07:15:10Z</time>
      </trkpt>
      <trkpt lat="44.81337" lon="6.17824">
        <ele>1533.8000488281</ele>
        <time>2021-09-01T07:15:29Z</time>
      </trkpt>
      <trkpt lat="44.81338" lon="6.1782">
        <ele>1535</ele>
        <time>2021-09-01T07:15:38Z</time>
      </trkpt>
      <trkpt lat="44.81336" lon="6.17817">
        <ele>1535.1999511719</ele>
        <time>2021-09-01T07:15:43Z</time>
      </trkpt>
      <trkpt lat="44.81327" lon="6.17807">
        <ele>1536.5999755859</ele>
        <time>2021-09-01T07:16:17Z</time>
      </trkpt>
      <trkpt lat="44.81322" lon="6.17808">
        <ele>1536.8000488281</ele>
        <time>2021-09-01T07:16:37Z</time>
      </trkpt>
      <trkpt lat="44.81323" lon="6.17808">
        <ele>1536.5999755859</ele>
        <time>2021-09-01T07:16:58Z</time>
      </trkpt>
      <trkpt lat="44.81321" lon="6.17807">
        <ele>1536.8000488281</ele>
        <time>2021-09-01T07:17:08Z</time>
      </trkpt>
      <trkpt lat="44.8132" lon="6.17804">
        <ele>1536.8000488281</ele>
        <time>2021-09-01T07:17:26Z</time>
      </trkpt>
      <trkpt lat="44.8132" lon="6.17798">
        <ele>1536.8000488281</ele>
        <time>2021-09-01T07:17:38Z</time>
      </trkpt>
      <trkpt lat="44.81317" lon="6.17793">
        <ele>1539</ele>
        <time>2021-09-01T07:17:56Z</time>
      </trkpt>
      <trkpt lat="44.81311" lon="6.17785">
        <ele>1536.8000488281</ele>
        <time>2021-09-01T07:18:20Z</time>
      </trkpt>
      <trkpt lat="44.81309" lon="6.1777">
        <ele>1534.4000244141</ele>
        <time>2021-09-01T07:18:39Z</time>
      </trkpt>
      <trkpt lat="44.81312" lon="6.17755">
        <ele>1531.8000488281</ele>
        <time>2021-09-01T07:19:01Z</time>
      </trkpt>
      <trkpt lat="44.81318" lon="6.17742">
        <ele>1531.5999755859</ele>
        <time>2021-09-01T07:19:19Z</time>
      </trkpt>
      <trkpt lat="44.81321" lon="6.17723">
        <ele>1534.5999755859</ele>
        <time>2021-09-01T07:19:43Z</time>
      </trkpt>
      <trkpt lat="44.81321" lon="6.17712">
        <ele>1535.4000244141</ele>
        <time>2021-09-01T07:19:56Z</time>
      </trkpt>
      <trkpt lat="44.8132" lon="6.177">
        <ele>1536.5999755859</ele>
        <time>2021-09-01T07:20:12Z</time>
      </trkpt>
      <trkpt lat="44.81323" lon="6.17681">
        <ele>1536.1999511719</ele>
        <time>2021-09-01T07:20:37Z</time>
      </trkpt>
      <trkpt lat="44.81312" lon="6.17669">
        <ele>1535.1999511719</ele>
        <time>2021-09-01T07:20:58Z</time>
      </trkpt>
      <trkpt lat="44.81298" lon="6.17655">
        <ele>1535.4000244141</ele>
        <time>2021-09-01T07:21:20Z</time>
      </trkpt>
      <trkpt lat="44.81298" lon="6.17641">
        <ele>1535.5999755859</ele>
        <time>2021-09-01T07:21:36Z</time>
      </trkpt>
      <trkpt lat="44.81299" lon="6.17636">
        <ele>1535.4000244141</ele>
        <time>2021-09-01T07:21:49Z</time>
      </trkpt>
      <trkpt lat="44.81292" lon="6.17625">
        <ele>1538.5999755859</ele>
        <time>2021-09-01T07:22:07Z</time>
      </trkpt>
      <trkpt lat="44.81305" lon="6.17619">
        <ele>1540.4000244141</ele>
        <time>2021-09-01T07:22:29Z</time>
      </trkpt>
      <trkpt lat="44.81316" lon="6.1761">
        <ele>1543.4000244141</ele>
        <time>2021-09-01T07:22:49Z</time>
      </trkpt>
      <trkpt lat="44.81334" lon="6.17603">
        <ele>1546</ele>
        <time>2021-09-01T07:23:18Z</time>
      </trkpt>
      <trkpt lat="44.81346" lon="6.17587">
        <ele>1547.5999755859</ele>
        <time>2021-09-01T07:23:41Z</time>
      </trkpt>
      <trkpt lat="44.81358" lon="6.17574">
        <ele>1547.8000488281</ele>
        <time>2021-09-01T07:24:02Z</time>
      </trkpt>
      <trkpt lat="44.81359" lon="6.17573">
        <ele>1547.8000488281</ele>
        <time>2021-09-01T07:24:05Z</time>
      </trkpt>
      <trkpt lat="44.81361" lon="6.17557">
        <ele>1545.4000244141</ele>
        <time>2021-09-01T07:24:24Z</time>
      </trkpt>
      <trkpt lat="44.81368" lon="6.1754">
        <ele>1543.4000244141</ele>
        <time>2021-09-01T07:24:43Z</time>
      </trkpt>
      <trkpt lat="44.81384" lon="6.17516">
        <ele>1540.5999755859</ele>
        <time>2021-09-01T07:25:09Z</time>
      </trkpt>
      <trkpt lat="44.81382" lon="6.17502">
        <ele>1540.8000488281</ele>
        <time>2021-09-01T07:25:26Z</time>
      </trkpt>
      <trkpt lat="44.81381" lon="6.17487">
        <ele>1541.8000488281</ele>
        <time>2021-09-01T07:25:44Z</time>
      </trkpt>
      <trkpt lat="44.81393" lon="6.17468">
        <ele>1541.1999511719</ele>
        <time>2021-09-01T07:26:06Z</time>
      </trkpt>
      <trkpt lat="44.81396" lon="6.17448">
        <ele>1538.4000244141</ele>
        <time>2021-09-01T07:26:33Z</time>
      </trkpt>
      <trkpt lat="44.81397" lon="6.17445">
        <ele>1537.5999755859</ele>
        <time>2021-09-01T07:26:37Z</time>
      </trkpt>
      <trkpt lat="44.81404" lon="6.17432">
        <ele>1534.8000488281</ele>
        <time>2021-09-01T07:26:53Z</time>
      </trkpt>
      <trkpt lat="44.81402" lon="6.17427">
        <ele>1535</ele>
        <time>2021-09-01T07:27:11Z</time>
      </trkpt>
      <trkpt lat="44.81382" lon="6.17421">
        <ele>1537.1999511719</ele>
        <time>2021-09-01T07:27:41Z</time>
      </trkpt>
      <trkpt lat="44.81373" lon="6.17403">
        <ele>1537.5999755859</ele>
        <time>2021-09-01T07:28:05Z</time>
      </trkpt>
      <trkpt lat="44.81364" lon="6.17401">
        <ele>1538.8000488281</ele>
        <time>2021-09-01T07:28:19Z</time>
      </trkpt>
      <trkpt lat="44.8136" lon="6.17399">
        <ele>1539.5999755859</ele>
        <time>2021-09-01T07:28:23Z</time>
      </trkpt>
      <trkpt lat="44.81357" lon="6.17396">
        <ele>1539.5999755859</ele>
        <time>2021-09-01T07:28:27Z</time>
      </trkpt>
      <trkpt lat="44.81349" lon="6.17391">
        <ele>1539.1999511719</ele>
        <time>2021-09-01T07:28:37Z</time>
      </trkpt>
      <trkpt lat="44.81337" lon="6.17374">
        <ele>1538</ele>
        <time>2021-09-01T07:28:54Z</time>
      </trkpt>
      <trkpt lat="44.81323" lon="6.17362">
        <ele>1536.4000244141</ele>
        <time>2021-09-01T07:29:13Z</time>
      </trkpt>
      <trkpt lat="44.8132" lon="6.17352">
        <ele>1536.8000488281</ele>
        <time>2021-09-01T07:29:35Z</time>
      </trkpt>
      <trkpt lat="44.81312" lon="6.17336">
        <ele>1539.8000488281</ele>
        <time>2021-09-01T07:30:00Z</time>
      </trkpt>
      <trkpt lat="44.81296" lon="6.17319">
        <ele>1541.5999755859</ele>
        <time>2021-09-01T07:30:24Z</time>
      </trkpt>
      <trkpt lat="44.81289" lon="6.17294">
        <ele>1543.8000488281</ele>
        <time>2021-09-01T07:30:52Z</time>
      </trkpt>
      <trkpt lat="44.81272" lon="6.17269">
        <ele>1544.1999511719</ele>
        <time>2021-09-01T07:31:17Z</time>
      </trkpt>
      <trkpt lat="44.8126" lon="6.17247">
        <ele>1544.1999511719</ele>
        <time>2021-09-01T07:31:39Z</time>
      </trkpt>
      <trkpt lat="44.81259" lon="6.17233">
        <ele>1542.8000488281</ele>
        <time>2021-09-01T07:32:06Z</time>
      </trkpt>
      <trkpt lat="44.81256" lon="6.1723">
        <ele>1543.1999511719</ele>
        <time>2021-09-01T07:32:58Z</time>
      </trkpt>
      <trkpt lat="44.81255" lon="6.17225">
        <ele>1543</ele>
        <time>2021-09-01T07:33:33Z</time>
      </trkpt>
      <trkpt lat="44.81249" lon="6.17208">
        <ele>1544.1999511719</ele>
        <time>2021-09-01T07:33:52Z</time>
      </trkpt>
      <trkpt lat="44.81241" lon="6.17185">
        <ele>1545</ele>
        <time>2021-09-01T07:34:16Z</time>
      </trkpt>
      <trkpt lat="44.81236" lon="6.17176">
        <ele>1546.8000488281</ele>
        <time>2021-09-01T07:34:44Z</time>
      </trkpt>
      <trkpt lat="44.81228" lon="6.17153">
        <ele>1549.8000488281</ele>
        <time>2021-09-01T07:35:07Z</time>
      </trkpt>
      <trkpt lat="44.81222" lon="6.17137">
        <ele>1551.1999511719</ele>
        <time>2021-09-01T07:35:25Z</time>
      </trkpt>
      <trkpt lat="44.81211" lon="6.17124">
        <ele>1551.8000488281</ele>
        <time>2021-09-01T07:35:41Z</time>
      </trkpt>
      <trkpt lat="44.81214" lon="6.1711">
        <ele>1551.5999755859</ele>
        <time>2021-09-01T07:35:54Z</time>
      </trkpt>
      <trkpt lat="44.8121" lon="6.1709">
        <ele>1553.4000244141</ele>
        <time>2021-09-01T07:36:20Z</time>
      </trkpt>
      <trkpt lat="44.81202" lon="6.17069">
        <ele>1553.4000244141</ele>
        <time>2021-09-01T07:36:43Z</time>
      </trkpt>
      <trkpt lat="44.81196" lon="6.17049">
        <ele>1551.4000244141</ele>
        <time>2021-09-01T07:37:01Z</time>
      </trkpt>
      <trkpt lat="44.81186" lon="6.17022">
        <ele>1549</ele>
        <time>2021-09-01T07:37:22Z</time>
      </trkpt>
      <trkpt lat="44.81185" lon="6.17008">
        <ele>1548.8000488281</ele>
        <time>2021-09-01T07:37:41Z</time>
      </trkpt>
      <trkpt lat="44.81179" lon="6.16984">
        <ele>1549.1999511719</ele>
        <time>2021-09-01T07:38:02Z</time>
      </trkpt>
      <trkpt lat="44.81174" lon="6.16967">
        <ele>1550.5999755859</ele>
        <time>2021-09-01T07:38:20Z</time>
      </trkpt>
      <trkpt lat="44.81171" lon="6.16952">
        <ele>1551.4000244141</ele>
        <time>2021-09-01T07:38:45Z</time>
      </trkpt>
      <trkpt lat="44.81163" lon="6.16936">
        <ele>1553.1999511719</ele>
        <time>2021-09-01T07:39:09Z</time>
      </trkpt>
      <trkpt lat="44.81162" lon="6.16917">
        <ele>1552.5999755859</ele>
        <time>2021-09-01T07:39:32Z</time>
      </trkpt>
      <trkpt lat="44.81156" lon="6.16896">
        <ele>1553.4000244141</ele>
        <time>2021-09-01T07:39:58Z</time>
      </trkpt>
      <trkpt lat="44.81152" lon="6.16874">
        <ele>1555</ele>
        <time>2021-09-01T07:40:22Z</time>
      </trkpt>
      <trkpt lat="44.81147" lon="6.16853">
        <ele>1555.1999511719</ele>
        <time>2021-09-01T07:40:47Z</time>
      </trkpt>
      <trkpt lat="44.8114" lon="6.16834">
        <ele>1555.5999755859</ele>
        <time>2021-09-01T07:41:09Z</time>
      </trkpt>
      <trkpt lat="44.81131" lon="6.16814">
        <ele>1554.4000244141</ele>
        <time>2021-09-01T07:41:32Z</time>
      </trkpt>
      <trkpt lat="44.81128" lon="6.1679">
        <ele>1553.8000488281</ele>
        <time>2021-09-01T07:41:54Z</time>
      </trkpt>
      <trkpt lat="44.81133" lon="6.16771">
        <ele>1552.4000244141</ele>
        <time>2021-09-01T07:42:17Z</time>
      </trkpt>
      <trkpt lat="44.81132" lon="6.16758">
        <ele>1551.5999755859</ele>
        <time>2021-09-01T07:42:30Z</time>
      </trkpt>
      <trkpt lat="44.81118" lon="6.16732">
        <ele>1550.4000244141</ele>
        <time>2021-09-01T07:42:54Z</time>
      </trkpt>
      <trkpt lat="44.8112" lon="6.16718">
        <ele>1552.1999511719</ele>
        <time>2021-09-01T07:43:15Z</time>
      </trkpt>
      <trkpt lat="44.81127" lon="6.16707">
        <ele>1553</ele>
        <time>2021-09-01T07:43:40Z</time>
      </trkpt>
      <trkpt lat="44.81139" lon="6.16701">
        <ele>1554</ele>
        <time>2021-09-01T07:44:03Z</time>
      </trkpt>
      <trkpt lat="44.81149" lon="6.16696">
        <ele>1557</ele>
        <time>2021-09-01T07:44:22Z</time>
      </trkpt>
      <trkpt lat="44.81165" lon="6.16686">
        <ele>1559.8000488281</ele>
        <time>2021-09-01T07:44:43Z</time>
      </trkpt>
      <trkpt lat="44.81175" lon="6.16676">
        <ele>1562.5999755859</ele>
        <time>2021-09-01T07:45:06Z</time>
      </trkpt>
      <trkpt lat="44.81181" lon="6.1667">
        <ele>1564.5999755859</ele>
        <time>2021-09-01T07:45:19Z</time>
      </trkpt>
      <trkpt lat="44.81184" lon="6.1667">
        <ele>1565.5999755859</ele>
        <time>2021-09-01T07:45:29Z</time>
      </trkpt>
      <trkpt lat="44.8118" lon="6.16673">
        <ele>1564.8000488281</ele>
        <time>2021-09-01T07:46:19Z</time>
      </trkpt>
      <trkpt lat="44.81181" lon="6.16672">
        <ele>1564.8000488281</ele>
        <time>2021-09-01T07:47:08Z</time>
      </trkpt>
      <trkpt lat="44.81174" lon="6.16663">
        <ele>1565.4000244141</ele>
        <time>2021-09-01T07:47:49Z</time>
      </trkpt>
      <trkpt lat="44.81174" lon="6.16663">
        <ele>1565.4000244141</ele>
        <time>2021-09-01T07:47:50Z</time>
      </trkpt>
      <trkpt lat="44.81165" lon="6.16664">
        <ele>1567.5999755859</ele>
        <time>2021-09-01T07:48:15Z</time>
      </trkpt>
      <trkpt lat="44.81157" lon="6.16655">
        <ele>1570.5999755859</ele>
        <time>2021-09-01T07:48:32Z</time>
      </trkpt>
      <trkpt lat="44.8115" lon="6.16647">
        <ele>1573.5999755859</ele>
        <time>2021-09-01T07:48:50Z</time>
      </trkpt>
      <trkpt lat="44.81145" lon="6.16642">
        <ele>1576.5999755859</ele>
        <time>2021-09-01T07:49:10Z</time>
      </trkpt>
      <trkpt lat="44.81137" lon="6.1663">
        <ele>1579.8000488281</ele>
        <time>2021-09-01T07:49:31Z</time>
      </trkpt>
      <trkpt lat="44.81131" lon="6.16625">
        <ele>1582.8000488281</ele>
        <time>2021-09-01T07:49:45Z</time>
      </trkpt>
      <trkpt lat="44.81118" lon="6.16619">
        <ele>1586</ele>
        <time>2021-09-01T07:50:06Z</time>
      </trkpt>
      <trkpt lat="44.81107" lon="6.16615">
        <ele>1589</ele>
        <time>2021-09-01T07:50:29Z</time>
      </trkpt>
      <trkpt lat="44.81095" lon="6.16614">
        <ele>1592.1999511719</ele>
        <time>2021-09-01T07:50:53Z</time>
      </trkpt>
      <trkpt lat="44.81087" lon="6.16603">
        <ele>1595.1999511719</ele>
        <time>2021-09-01T07:51:16Z</time>
      </trkpt>
      <trkpt lat="44.811" lon="6.16595">
        <ele>1598</ele>
        <time>2021-09-01T07:51:40Z</time>
      </trkpt>
      <trkpt lat="44.81111" lon="6.16587">
        <ele>1601</ele>
        <time>2021-09-01T07:52:05Z</time>
      </trkpt>
      <trkpt lat="44.81129" lon="6.1658">
        <ele>1603</ele>
        <time>2021-09-01T07:52:24Z</time>
      </trkpt>
      <trkpt lat="44.81117" lon="6.16575">
        <ele>1606</ele>
        <time>2021-09-01T07:52:46Z</time>
      </trkpt>
      <trkpt lat="44.81108" lon="6.16564">
        <ele>1608.8000488281</ele>
        <time>2021-09-01T07:53:07Z</time>
      </trkpt>
      <trkpt lat="44.81098" lon="6.16561">
        <ele>1611</ele>
        <time>2021-09-01T07:53:27Z</time>
      </trkpt>
      <trkpt lat="44.81085" lon="6.16554">
        <ele>1614.1999511719</ele>
        <time>2021-09-01T07:53:48Z</time>
      </trkpt>
      <trkpt lat="44.81073" lon="6.16553">
        <ele>1617.1999511719</ele>
        <time>2021-09-01T07:54:09Z</time>
      </trkpt>
      <trkpt lat="44.81067" lon="6.16545">
        <ele>1620.1999511719</ele>
        <time>2021-09-01T07:54:31Z</time>
      </trkpt>
      <trkpt lat="44.81053" lon="6.16538">
        <ele>1623.4000244141</ele>
        <time>2021-09-01T07:54:55Z</time>
      </trkpt>
      <trkpt lat="44.81044" lon="6.16534">
        <ele>1626.4000244141</ele>
        <time>2021-09-01T07:55:13Z</time>
      </trkpt>
      <trkpt lat="44.81044" lon="6.1653">
        <ele>1627.1999511719</ele>
        <time>2021-09-01T07:55:19Z</time>
      </trkpt>
      <trkpt lat="44.8104" lon="6.16533">
        <ele>1628</ele>
        <time>2021-09-01T07:55:25Z</time>
      </trkpt>
      <trkpt lat="44.81037" lon="6.1653">
        <ele>1628.8000488281</ele>
        <time>2021-09-01T07:55:31Z</time>
      </trkpt>
      <trkpt lat="44.81026" lon="6.1653">
        <ele>1631.8000488281</ele>
        <time>2021-09-01T07:55:57Z</time>
      </trkpt>
      <trkpt lat="44.81031" lon="6.16523">
        <ele>1635</ele>
        <time>2021-09-01T07:56:19Z</time>
      </trkpt>
      <trkpt lat="44.81042" lon="6.16515">
        <ele>1637.8000488281</ele>
        <time>2021-09-01T07:56:39Z</time>
      </trkpt>
      <trkpt lat="44.81052" lon="6.16504">
        <ele>1640.4000244141</ele>
        <time>2021-09-01T07:57:02Z</time>
      </trkpt>
      <trkpt lat="44.81043" lon="6.165">
        <ele>1643</ele>
        <time>2021-09-01T07:57:18Z</time>
      </trkpt>
      <trkpt lat="44.8103" lon="6.16495">
        <ele>1646</ele>
        <time>2021-09-01T07:57:38Z</time>
      </trkpt>
      <trkpt lat="44.81021" lon="6.16491">
        <ele>1649</ele>
        <time>2021-09-01T07:58:00Z</time>
      </trkpt>
      <trkpt lat="44.81015" lon="6.16487">
        <ele>1650.1999511719</ele>
        <time>2021-09-01T07:58:10Z</time>
      </trkpt>
      <trkpt lat="44.81018" lon="6.16473">
        <ele>1653.1999511719</ele>
        <time>2021-09-01T07:58:32Z</time>
      </trkpt>
      <trkpt lat="44.81026" lon="6.16463">
        <ele>1654.5999755859</ele>
        <time>2021-09-01T07:58:45Z</time>
      </trkpt>
      <trkpt lat="44.81042" lon="6.16459">
        <ele>1657.1999511719</ele>
        <time>2021-09-01T07:59:06Z</time>
      </trkpt>
      <trkpt lat="44.81058" lon="6.16458">
        <ele>1660.1999511719</ele>
        <time>2021-09-01T07:59:30Z</time>
      </trkpt>
      <trkpt lat="44.81048" lon="6.16449">
        <ele>1662.8000488281</ele>
        <time>2021-09-01T07:59:50Z</time>
      </trkpt>
      <trkpt lat="44.81032" lon="6.16447">
        <ele>1665.8000488281</ele>
        <time>2021-09-01T08:00:12Z</time>
      </trkpt>
      <trkpt lat="44.81025" lon="6.16434">
        <ele>1668.1999511719</ele>
        <time>2021-09-01T08:00:32Z</time>
      </trkpt>
      <trkpt lat="44.81035" lon="6.16425">
        <ele>1670.5999755859</ele>
        <time>2021-09-01T08:01:00Z</time>
      </trkpt>
      <trkpt lat="44.81046" lon="6.16425">
        <ele>1671.4000244141</ele>
        <time>2021-09-01T08:01:24Z</time>
      </trkpt>
      <trkpt lat="44.81062" lon="6.16429">
        <ele>1674.4000244141</ele>
        <time>2021-09-01T08:01:46Z</time>
      </trkpt>
      <trkpt lat="44.81076" lon="6.16425">
        <ele>1677.5999755859</ele>
        <time>2021-09-01T08:02:07Z</time>
      </trkpt>
      <trkpt lat="44.81092" lon="6.16424">
        <ele>1680</ele>
        <time>2021-09-01T08:02:26Z</time>
      </trkpt>
      <trkpt lat="44.81077" lon="6.16418">
        <ele>1682.5999755859</ele>
        <time>2021-09-01T08:02:50Z</time>
      </trkpt>
      <trkpt lat="44.81058" lon="6.1641">
        <ele>1685.5999755859</ele>
        <time>2021-09-01T08:03:12Z</time>
      </trkpt>
      <trkpt lat="44.81045" lon="6.16398">
        <ele>1688.5999755859</ele>
        <time>2021-09-01T08:03:34Z</time>
      </trkpt>
      <trkpt lat="44.81028" lon="6.16391">
        <ele>1691.4000244141</ele>
        <time>2021-09-01T08:03:58Z</time>
      </trkpt>
      <trkpt lat="44.8101" lon="6.16386">
        <ele>1694.1999511719</ele>
        <time>2021-09-01T08:04:21Z</time>
      </trkpt>
      <trkpt lat="44.81005" lon="6.16378">
        <ele>1695.8000488281</ele>
        <time>2021-09-01T08:04:36Z</time>
      </trkpt>
      <trkpt lat="44.81017" lon="6.16374">
        <ele>1698.4000244141</ele>
        <time>2021-09-01T08:04:54Z</time>
      </trkpt>
      <trkpt lat="44.81032" lon="6.1637">
        <ele>1701.1999511719</ele>
        <time>2021-09-01T08:05:19Z</time>
      </trkpt>
      <trkpt lat="44.81043" lon="6.16366">
        <ele>1702.4000244141</ele>
        <time>2021-09-01T08:05:49Z</time>
      </trkpt>
      <trkpt lat="44.81049" lon="6.16372">
        <ele>1702.5999755859</ele>
        <time>2021-09-01T08:06:09Z</time>
      </trkpt>
      <trkpt lat="44.81046" lon="6.16372">
        <ele>1703</ele>
        <time>2021-09-01T08:06:40Z</time>
      </trkpt>
      <trkpt lat="44.8106" lon="6.1637">
        <ele>1706</ele>
        <time>2021-09-01T08:07:03Z</time>
      </trkpt>
      <trkpt lat="44.81075" lon="6.16364">
        <ele>1709</ele>
        <time>2021-09-01T08:07:27Z</time>
      </trkpt>
      <trkpt lat="44.81088" lon="6.16358">
        <ele>1711.4000244141</ele>
        <time>2021-09-01T08:07:48Z</time>
      </trkpt>
      <trkpt lat="44.81074" lon="6.16357">
        <ele>1714.5999755859</ele>
        <time>2021-09-01T08:08:09Z</time>
      </trkpt>
      <trkpt lat="44.81053" lon="6.16353">
        <ele>1717.5999755859</ele>
        <time>2021-09-01T08:08:34Z</time>
      </trkpt>
      <trkpt lat="44.81037" lon="6.16341">
        <ele>1720.5999755859</ele>
        <time>2021-09-01T08:08:59Z</time>
      </trkpt>
      <trkpt lat="44.81022" lon="6.16331">
        <ele>1723.8000488281</ele>
        <time>2021-09-01T08:09:24Z</time>
      </trkpt>
      <trkpt lat="44.81015" lon="6.16327">
        <ele>1725.4000244141</ele>
        <time>2021-09-01T08:09:37Z</time>
      </trkpt>
      <trkpt lat="44.81003" lon="6.16327">
        <ele>1728.4000244141</ele>
        <time>2021-09-01T08:10:02Z</time>
      </trkpt>
      <trkpt lat="44.81003" lon="6.16322">
        <ele>1728.5999755859</ele>
        <time>2021-09-01T08:10:06Z</time>
      </trkpt>
      <trkpt lat="44.81009" lon="6.16317">
        <ele>1731.8000488281</ele>
        <time>2021-09-01T08:10:28Z</time>
      </trkpt>
      <trkpt lat="44.81021" lon="6.16313">
        <ele>1732.1999511719</ele>
        <time>2021-09-01T08:10:51Z</time>
      </trkpt>
      <trkpt lat="44.81038" lon="6.16304">
        <ele>1734.1999511719</ele>
        <time>2021-09-01T08:11:14Z</time>
      </trkpt>
      <trkpt lat="44.81049" lon="6.163">
        <ele>1736</ele>
        <time>2021-09-01T08:11:30Z</time>
      </trkpt>
      <trkpt lat="44.81067" lon="6.16292">
        <ele>1739</ele>
        <time>2021-09-01T08:12:00Z</time>
      </trkpt>
      <trkpt lat="44.81092" lon="6.16281">
        <ele>1741.8000488281</ele>
        <time>2021-09-01T08:12:25Z</time>
      </trkpt>
      <trkpt lat="44.811" lon="6.16269">
        <ele>1744</ele>
        <time>2021-09-01T08:12:46Z</time>
      </trkpt>
      <trkpt lat="44.81099" lon="6.16254">
        <ele>1747</ele>
        <time>2021-09-01T08:13:13Z</time>
      </trkpt>
      <trkpt lat="44.81086" lon="6.16255">
        <ele>1749.4000244141</ele>
        <time>2021-09-01T08:13:35Z</time>
      </trkpt>
      <trkpt lat="44.81074" lon="6.16255">
        <ele>1752</ele>
        <time>2021-09-01T08:13:56Z</time>
      </trkpt>
      <trkpt lat="44.81064" lon="6.16257">
        <ele>1754.1999511719</ele>
        <time>2021-09-01T08:14:18Z</time>
      </trkpt>
      <trkpt lat="44.81051" lon="6.16258">
        <ele>1757.1999511719</ele>
        <time>2021-09-01T08:14:45Z</time>
      </trkpt>
      <trkpt lat="44.81038" lon="6.16257">
        <ele>1760</ele>
        <time>2021-09-01T08:15:09Z</time>
      </trkpt>
      <trkpt lat="44.81028" lon="6.16255">
        <ele>1762.1999511719</ele>
        <time>2021-09-01T08:15:27Z</time>
      </trkpt>
      <trkpt lat="44.81018" lon="6.16254">
        <ele>1764.5999755859</ele>
        <time>2021-09-01T08:15:43Z</time>
      </trkpt>
      <trkpt lat="44.81009" lon="6.16255">
        <ele>1766.8000488281</ele>
        <time>2021-09-01T08:16:00Z</time>
      </trkpt>
      <trkpt lat="44.80998" lon="6.16256">
        <ele>1768.5999755859</ele>
        <time>2021-09-01T08:16:16Z</time>
      </trkpt>
      <trkpt lat="44.80988" lon="6.16258">
        <ele>1770</ele>
        <time>2021-09-01T08:16:28Z</time>
      </trkpt>
      <trkpt lat="44.80981" lon="6.16252">
        <ele>1771.4000244141</ele>
        <time>2021-09-01T08:16:40Z</time>
      </trkpt>
      <trkpt lat="44.80985" lon="6.16252">
        <ele>1773</ele>
        <time>2021-09-01T08:16:55Z</time>
      </trkpt>
      <trkpt lat="44.80985" lon="6.16262">
        <ele>1773.1999511719</ele>
        <time>2021-09-01T08:17:18Z</time>
      </trkpt>
      <trkpt lat="44.80989" lon="6.1624">
        <ele>1773.1999511719</ele>
        <time>2021-09-01T08:17:46Z</time>
      </trkpt>
      <trkpt lat="44.80975" lon="6.16247">
        <ele>1773.8000488281</ele>
        <time>2021-09-01T08:17:57Z</time>
      </trkpt>
      <trkpt lat="44.80961" lon="6.16248">
        <ele>1777</ele>
        <time>2021-09-01T08:18:17Z</time>
      </trkpt>
      <trkpt lat="44.80943" lon="6.16253">
        <ele>1778.8000488281</ele>
        <time>2021-09-01T08:18:30Z</time>
      </trkpt>
      <trkpt lat="44.80942" lon="6.16245">
        <ele>1780.8000488281</ele>
        <time>2021-09-01T08:18:44Z</time>
      </trkpt>
      <trkpt lat="44.80948" lon="6.16233">
        <ele>1783.8000488281</ele>
        <time>2021-09-01T08:19:03Z</time>
      </trkpt>
      <trkpt lat="44.80952" lon="6.16229">
        <ele>1785</ele>
        <time>2021-09-01T08:19:11Z</time>
      </trkpt>
      <trkpt lat="44.80953" lon="6.16234">
        <ele>1785.5999755859</ele>
        <time>2021-09-01T08:19:17Z</time>
      </trkpt>
      <trkpt lat="44.80962" lon="6.16222">
        <ele>1787.4000244141</ele>
        <time>2021-09-01T08:19:44Z</time>
      </trkpt>
      <trkpt lat="44.8098" lon="6.16217">
        <ele>1790.4000244141</ele>
        <time>2021-09-01T08:20:05Z</time>
      </trkpt>
      <trkpt lat="44.80982" lon="6.16216">
        <ele>1790.8000488281</ele>
        <time>2021-09-01T08:20:12Z</time>
      </trkpt>
      <trkpt lat="44.80995" lon="6.16207">
        <ele>1793.4000244141</ele>
        <time>2021-09-01T08:20:34Z</time>
      </trkpt>
      <trkpt lat="44.81008" lon="6.16191">
        <ele>1796.5999755859</ele>
        <time>2021-09-01T08:20:58Z</time>
      </trkpt>
      <trkpt lat="44.81024" lon="6.16173">
        <ele>1799.1999511719</ele>
        <time>2021-09-01T08:21:23Z</time>
      </trkpt>
      <trkpt lat="44.81001" lon="6.16174">
        <ele>1801.8000488281</ele>
        <time>2021-09-01T08:21:44Z</time>
      </trkpt>
      <trkpt lat="44.80999" lon="6.16174">
        <ele>1802</ele>
        <time>2021-09-01T08:21:46Z</time>
      </trkpt>
      <trkpt lat="44.80982" lon="6.16165">
        <ele>1804.4000244141</ele>
        <time>2021-09-01T08:22:09Z</time>
      </trkpt>
      <trkpt lat="44.80966" lon="6.16152">
        <ele>1807.4000244141</ele>
        <time>2021-09-01T08:22:33Z</time>
      </trkpt>
      <trkpt lat="44.80947" lon="6.16153">
        <ele>1810.5999755859</ele>
        <time>2021-09-01T08:22:59Z</time>
      </trkpt>
      <trkpt lat="44.8095" lon="6.16158">
        <ele>1811</ele>
        <time>2021-09-01T08:23:26Z</time>
      </trkpt>
      <trkpt lat="44.80956" lon="6.1617">
        <ele>1812.8000488281</ele>
        <time>2021-09-01T08:23:45Z</time>
      </trkpt>
      <trkpt lat="44.80941" lon="6.16183">
        <ele>1815.1999511719</ele>
        <time>2021-09-01T08:24:10Z</time>
      </trkpt>
      <trkpt lat="44.80924" lon="6.16194">
        <ele>1817.4000244141</ele>
        <time>2021-09-01T08:24:31Z</time>
      </trkpt>
      <trkpt lat="44.80914" lon="6.16209">
        <ele>1820.5999755859</ele>
        <time>2021-09-01T08:24:54Z</time>
      </trkpt>
      <trkpt lat="44.80907" lon="6.16216">
        <ele>1821.8000488281</ele>
        <time>2021-09-01T08:25:04Z</time>
      </trkpt>
      <trkpt lat="44.80899" lon="6.16222">
        <ele>1824.1999511719</ele>
        <time>2021-09-01T08:25:25Z</time>
      </trkpt>
      <trkpt lat="44.80898" lon="6.16223">
        <ele>1824.5999755859</ele>
        <time>2021-09-01T08:25:30Z</time>
      </trkpt>
      <trkpt lat="44.80896" lon="6.16223">
        <ele>1824.8000488281</ele>
        <time>2021-09-01T08:25:32Z</time>
      </trkpt>
      <trkpt lat="44.80882" lon="6.16227">
        <ele>1826</ele>
        <time>2021-09-01T08:25:44Z</time>
      </trkpt>
      <trkpt lat="44.80864" lon="6.16234">
        <ele>1827.8000488281</ele>
        <time>2021-09-01T08:26:01Z</time>
      </trkpt>
      <trkpt lat="44.80849" lon="6.16237">
        <ele>1830.8000488281</ele>
        <time>2021-09-01T08:26:20Z</time>
      </trkpt>
      <trkpt lat="44.80839" lon="6.16244">
        <ele>1832.1999511719</ele>
        <time>2021-09-01T08:26:31Z</time>
      </trkpt>
      <trkpt lat="44.80838" lon="6.16245">
        <ele>1832.4000244141</ele>
        <time>2021-09-01T08:26:33Z</time>
      </trkpt>
      <trkpt lat="44.80836" lon="6.16247">
        <ele>1833</ele>
        <time>2021-09-01T08:26:38Z</time>
      </trkpt>
      <trkpt lat="44.80825" lon="6.16251">
        <ele>1834.8000488281</ele>
        <time>2021-09-01T08:26:59Z</time>
      </trkpt>
      <trkpt lat="44.80818" lon="6.16251">
        <ele>1835.1999511719</ele>
        <time>2021-09-01T08:27:10Z</time>
      </trkpt>
      <trkpt lat="44.80808" lon="6.16254">
        <ele>1836</ele>
        <time>2021-09-01T08:27:29Z</time>
      </trkpt>
      <trkpt lat="44.80793" lon="6.16269">
        <ele>1837.1999511719</ele>
        <time>2021-09-01T08:27:43Z</time>
      </trkpt>
      <trkpt lat="44.80773" lon="6.16275">
        <ele>1838.4000244141</ele>
        <time>2021-09-01T08:28:07Z</time>
      </trkpt>
      <trkpt lat="44.80764" lon="6.16274">
        <ele>1839.5999755859</ele>
        <time>2021-09-01T08:28:29Z</time>
      </trkpt>
      <trkpt lat="44.80756" lon="6.16276">
        <ele>1840.4000244141</ele>
        <time>2021-09-01T08:28:46Z</time>
      </trkpt>
      <trkpt lat="44.80731" lon="6.16313">
        <ele>1842.4000244141</ele>
        <time>2021-09-01T08:29:08Z</time>
      </trkpt>
      <trkpt lat="44.80717" lon="6.16325">
        <ele>1845.1999511719</ele>
        <time>2021-09-01T08:29:29Z</time>
      </trkpt>
      <trkpt lat="44.80703" lon="6.16335">
        <ele>1847.1999511719</ele>
        <time>2021-09-01T08:29:44Z</time>
      </trkpt>
      <trkpt lat="44.80692" lon="6.16344">
        <ele>1849.1999511719</ele>
        <time>2021-09-01T08:30:01Z</time>
      </trkpt>
      <trkpt lat="44.80674" lon="6.16362">
        <ele>1851.1999511719</ele>
        <time>2021-09-01T08:30:23Z</time>
      </trkpt>
      <trkpt lat="44.80668" lon="6.1636">
        <ele>1854</ele>
        <time>2021-09-01T08:30:42Z</time>
      </trkpt>
      <trkpt lat="44.80664" lon="6.16345">
        <ele>1854.8000488281</ele>
        <time>2021-09-01T08:31:03Z</time>
      </trkpt>
      <trkpt lat="44.80671" lon="6.16326">
        <ele>1857.4000244141</ele>
        <time>2021-09-01T08:31:26Z</time>
      </trkpt>
      <trkpt lat="44.8068" lon="6.16308">
        <ele>1859</ele>
        <time>2021-09-01T08:31:47Z</time>
      </trkpt>
      <trkpt lat="44.80686" lon="6.16289">
        <ele>1861.1999511719</ele>
        <time>2021-09-01T08:32:10Z</time>
      </trkpt>
      <trkpt lat="44.80691" lon="6.16283">
        <ele>1863</ele>
        <time>2021-09-01T08:32:29Z</time>
      </trkpt>
      <trkpt lat="44.80683" lon="6.16285">
        <ele>1863.5999755859</ele>
        <time>2021-09-01T08:32:58Z</time>
      </trkpt>
      <trkpt lat="44.80676" lon="6.1629">
        <ele>1864.8000488281</ele>
        <time>2021-09-01T08:33:18Z</time>
      </trkpt>
      <trkpt lat="44.80666" lon="6.16298">
        <ele>1867.4000244141</ele>
        <time>2021-09-01T08:33:39Z</time>
      </trkpt>
      <trkpt lat="44.80648" lon="6.16307">
        <ele>1870.5999755859</ele>
        <time>2021-09-01T08:34:05Z</time>
      </trkpt>
      <trkpt lat="44.80638" lon="6.16316">
        <ele>1872.4000244141</ele>
        <time>2021-09-01T08:34:26Z</time>
      </trkpt>
      <trkpt lat="44.8063" lon="6.16316">
        <ele>1875.4000244141</ele>
        <time>2021-09-01T08:34:49Z</time>
      </trkpt>
      <trkpt lat="44.80631" lon="6.16301">
        <ele>1877.8000488281</ele>
        <time>2021-09-01T08:35:09Z</time>
      </trkpt>
      <trkpt lat="44.80632" lon="6.16288">
        <ele>1880.1999511719</ele>
        <time>2021-09-01T08:35:31Z</time>
      </trkpt>
      <trkpt lat="44.80641" lon="6.1627">
        <ele>1883</ele>
        <time>2021-09-01T08:35:52Z</time>
      </trkpt>
      <trkpt lat="44.80642" lon="6.16267">
        <ele>1883.5999755859</ele>
        <time>2021-09-01T08:35:57Z</time>
      </trkpt>
      <trkpt lat="44.80651" lon="6.16248">
        <ele>1886.8000488281</ele>
        <time>2021-09-01T08:36:18Z</time>
      </trkpt>
      <trkpt lat="44.80652" lon="6.16247">
        <ele>1887</ele>
        <time>2021-09-01T08:36:19Z</time>
      </trkpt>
      <trkpt lat="44.80663" lon="6.16223">
        <ele>1889.8000488281</ele>
        <time>2021-09-01T08:36:41Z</time>
      </trkpt>
      <trkpt lat="44.80655" lon="6.16225">
        <ele>1892.4000244141</ele>
        <time>2021-09-01T08:37:01Z</time>
      </trkpt>
      <trkpt lat="44.80641" lon="6.16251">
        <ele>1895.1999511719</ele>
        <time>2021-09-01T08:37:24Z</time>
      </trkpt>
      <trkpt lat="44.8063" lon="6.16263">
        <ele>1897.8000488281</ele>
        <time>2021-09-01T08:37:49Z</time>
      </trkpt>
      <trkpt lat="44.80629" lon="6.1626">
        <ele>1898.5999755859</ele>
        <time>2021-09-01T08:37:59Z</time>
      </trkpt>
      <trkpt lat="44.80616" lon="6.16268">
        <ele>1901.4000244141</ele>
        <time>2021-09-01T08:38:21Z</time>
      </trkpt>
      <trkpt lat="44.80612" lon="6.16275">
        <ele>1904.1999511719</ele>
        <time>2021-09-01T08:38:42Z</time>
      </trkpt>
      <trkpt lat="44.80611" lon="6.16291">
        <ele>1906.1999511719</ele>
        <time>2021-09-01T08:39:04Z</time>
      </trkpt>
      <trkpt lat="44.80608" lon="6.16305">
        <ele>1908</ele>
        <time>2021-09-01T08:39:26Z</time>
      </trkpt>
      <trkpt lat="44.80609" lon="6.16308">
        <ele>1909.4000244141</ele>
        <time>2021-09-01T08:39:37Z</time>
      </trkpt>
      <trkpt lat="44.80604" lon="6.16323">
        <ele>1912.1999511719</ele>
        <time>2021-09-01T08:40:00Z</time>
      </trkpt>
      <trkpt lat="44.80602" lon="6.16332">
        <ele>1915.4000244141</ele>
        <time>2021-09-01T08:40:22Z</time>
      </trkpt>
      <trkpt lat="44.80607" lon="6.1634">
        <ele>1916.1999511719</ele>
        <time>2021-09-01T08:40:39Z</time>
      </trkpt>
      <trkpt lat="44.80604" lon="6.16359">
        <ele>1916.5999755859</ele>
        <time>2021-09-01T08:41:00Z</time>
      </trkpt>
      <trkpt lat="44.80592" lon="6.16377">
        <ele>1918.1999511719</ele>
        <time>2021-09-01T08:41:26Z</time>
      </trkpt>
      <trkpt lat="44.80587" lon="6.16389">
        <ele>1920.1999511719</ele>
        <time>2021-09-01T08:41:48Z</time>
      </trkpt>
      <trkpt lat="44.80583" lon="6.16409">
        <ele>1922.4000244141</ele>
        <time>2021-09-01T08:42:12Z</time>
      </trkpt>
      <trkpt lat="44.80574" lon="6.16425">
        <ele>1925</ele>
        <time>2021-09-01T08:42:35Z</time>
      </trkpt>
      <trkpt lat="44.80576" lon="6.16438">
        <ele>1927.8000488281</ele>
        <time>2021-09-01T08:42:59Z</time>
      </trkpt>
      <trkpt lat="44.80572" lon="6.16441">
        <ele>1928</ele>
        <time>2021-09-01T08:43:07Z</time>
      </trkpt>
      <trkpt lat="44.80574" lon="6.16437">
        <ele>1928.5999755859</ele>
        <time>2021-09-01T08:43:15Z</time>
      </trkpt>
      <trkpt lat="44.80568" lon="6.16448">
        <ele>1930.5999755859</ele>
        <time>2021-09-01T08:43:34Z</time>
      </trkpt>
      <trkpt lat="44.80566" lon="6.16452">
        <ele>1930.8000488281</ele>
        <time>2021-09-01T08:44:00Z</time>
      </trkpt>
      <trkpt lat="44.80566" lon="6.16453">
        <ele>1932.5999755859</ele>
        <time>2021-09-01T08:44:18Z</time>
      </trkpt>
      <trkpt lat="44.80566" lon="6.16467">
        <ele>1933.1999511719</ele>
        <time>2021-09-01T08:44:38Z</time>
      </trkpt>
      <trkpt lat="44.80563" lon="6.16475">
        <ele>1935.4000244141</ele>
        <time>2021-09-01T08:44:55Z</time>
      </trkpt>
      <trkpt lat="44.80555" lon="6.16485">
        <ele>1938.4000244141</ele>
        <time>2021-09-01T08:45:21Z</time>
      </trkpt>
      <trkpt lat="44.80551" lon="6.16469">
        <ele>1941.4000244141</ele>
        <time>2021-09-01T08:45:46Z</time>
      </trkpt>
      <trkpt lat="44.80546" lon="6.16452">
        <ele>1944.4000244141</ele>
        <time>2021-09-01T08:46:08Z</time>
      </trkpt>
      <trkpt lat="44.80543" lon="6.16437">
        <ele>1947.5999755859</ele>
        <time>2021-09-01T08:46:31Z</time>
      </trkpt>
      <trkpt lat="44.80539" lon="6.16423">
        <ele>1950.4000244141</ele>
        <time>2021-09-01T08:46:54Z</time>
      </trkpt>
      <trkpt lat="44.80535" lon="6.16435">
        <ele>1952.5999755859</ele>
        <time>2021-09-01T08:47:16Z</time>
      </trkpt>
      <trkpt lat="44.80529" lon="6.16435">
        <ele>1955.5999755859</ele>
        <time>2021-09-01T08:47:42Z</time>
      </trkpt>
      <trkpt lat="44.80533" lon="6.16426">
        <ele>1958.1999511719</ele>
        <time>2021-09-01T08:48:04Z</time>
      </trkpt>
      <trkpt lat="44.80528" lon="6.16431">
        <ele>1960.8000488281</ele>
        <time>2021-09-01T08:48:25Z</time>
      </trkpt>
      <trkpt lat="44.80527" lon="6.16421">
        <ele>1964</ele>
        <time>2021-09-01T08:48:47Z</time>
      </trkpt>
      <trkpt lat="44.80522" lon="6.16437">
        <ele>1966</ele>
        <time>2021-09-01T08:49:11Z</time>
      </trkpt>
      <trkpt lat="44.80521" lon="6.16454">
        <ele>1968.5999755859</ele>
        <time>2021-09-01T08:49:35Z</time>
      </trkpt>
      <trkpt lat="44.80517" lon="6.16464">
        <ele>1970.5999755859</ele>
        <time>2021-09-01T08:49:52Z</time>
      </trkpt>
      <trkpt lat="44.80513" lon="6.16477">
        <ele>1972.4000244141</ele>
        <time>2021-09-01T08:50:12Z</time>
      </trkpt>
      <trkpt lat="44.80504" lon="6.16491">
        <ele>1974</ele>
        <time>2021-09-01T08:50:34Z</time>
      </trkpt>
      <trkpt lat="44.80496" lon="6.16501">
        <ele>1976</ele>
        <time>2021-09-01T08:50:54Z</time>
      </trkpt>
      <trkpt lat="44.80492" lon="6.16512">
        <ele>1978.8000488281</ele>
        <time>2021-09-01T08:51:15Z</time>
      </trkpt>
      <trkpt lat="44.80489" lon="6.16503">
        <ele>1981</ele>
        <time>2021-09-01T08:51:37Z</time>
      </trkpt>
      <trkpt lat="44.80488" lon="6.16488">
        <ele>1982.1999511719</ele>
        <time>2021-09-01T08:51:56Z</time>
      </trkpt>
      <trkpt lat="44.80489" lon="6.16471">
        <ele>1984.4000244141</ele>
        <time>2021-09-01T08:52:16Z</time>
      </trkpt>
      <trkpt lat="44.80494" lon="6.16457">
        <ele>1985.5999755859</ele>
        <time>2021-09-01T08:52:37Z</time>
      </trkpt>
      <trkpt lat="44.80491" lon="6.16437">
        <ele>1987.4000244141</ele>
        <time>2021-09-01T08:53:00Z</time>
      </trkpt>
      <trkpt lat="44.80489" lon="6.16418">
        <ele>1990</ele>
        <time>2021-09-01T08:53:20Z</time>
      </trkpt>
      <trkpt lat="44.80486" lon="6.16401">
        <ele>1992</ele>
        <time>2021-09-01T08:53:40Z</time>
      </trkpt>
      <trkpt lat="44.80489" lon="6.1639">
        <ele>1993</ele>
        <time>2021-09-01T08:54:00Z</time>
      </trkpt>
      <trkpt lat="44.80491" lon="6.16382">
        <ele>1994.8000488281</ele>
        <time>2021-09-01T08:54:21Z</time>
      </trkpt>
      <trkpt lat="44.80482" lon="6.16394">
        <ele>1996.4000244141</ele>
        <time>2021-09-01T08:54:39Z</time>
      </trkpt>
      <trkpt lat="44.80475" lon="6.16409">
        <ele>1999.1999511719</ele>
        <time>2021-09-01T08:55:01Z</time>
      </trkpt>
      <trkpt lat="44.80467" lon="6.16422">
        <ele>2001.5999755859</ele>
        <time>2021-09-01T08:55:20Z</time>
      </trkpt>
      <trkpt lat="44.80459" lon="6.16434">
        <ele>2004</ele>
        <time>2021-09-01T08:55:40Z</time>
      </trkpt>
      <trkpt lat="44.80451" lon="6.16444">
        <ele>2006.4000244141</ele>
        <time>2021-09-01T08:56:03Z</time>
      </trkpt>
      <trkpt lat="44.80445" lon="6.16457">
        <ele>2008.1999511719</ele>
        <time>2021-09-01T08:56:24Z</time>
      </trkpt>
      <trkpt lat="44.80446" lon="6.16445">
        <ele>2010.5999755859</ele>
        <time>2021-09-01T08:56:46Z</time>
      </trkpt>
      <trkpt lat="44.80448" lon="6.16427">
        <ele>2011.5999755859</ele>
        <time>2021-09-01T08:57:05Z</time>
      </trkpt>
      <trkpt lat="44.80453" lon="6.16403">
        <ele>2012.4000244141</ele>
        <time>2021-09-01T08:57:25Z</time>
      </trkpt>
      <trkpt lat="44.80457" lon="6.16381">
        <ele>2013.4000244141</ele>
        <time>2021-09-01T08:57:47Z</time>
      </trkpt>
      <trkpt lat="44.80466" lon="6.16367">
        <ele>2015.4000244141</ele>
        <time>2021-09-01T08:58:06Z</time>
      </trkpt>
      <trkpt lat="44.80473" lon="6.16342">
        <ele>2018</ele>
        <time>2021-09-01T08:58:32Z</time>
      </trkpt>
      <trkpt lat="44.80475" lon="6.16325">
        <ele>2019.1999511719</ele>
        <time>2021-09-01T08:58:48Z</time>
      </trkpt>
      <trkpt lat="44.80475" lon="6.1632">
        <ele>2021.4000244141</ele>
        <time>2021-09-01T08:59:09Z</time>
      </trkpt>
      <trkpt lat="44.80474" lon="6.16321">
        <ele>2021.5999755859</ele>
        <time>2021-09-01T08:59:12Z</time>
      </trkpt>
      <trkpt lat="44.80474" lon="6.16321">
        <ele>2021.5999755859</ele>
        <time>2021-09-01T08:59:18Z</time>
      </trkpt>
      <trkpt lat="44.80472" lon="6.16311">
        <ele>2021.5999755859</ele>
        <time>2021-09-01T08:59:31Z</time>
      </trkpt>
      <trkpt lat="44.80476" lon="6.16289">
        <ele>2023.5999755859</ele>
        <time>2021-09-01T08:59:51Z</time>
      </trkpt>
      <trkpt lat="44.80476" lon="6.16266">
        <ele>2025.8000488281</ele>
        <time>2021-09-01T09:00:12Z</time>
      </trkpt>
      <trkpt lat="44.80483" lon="6.16244">
        <ele>2028.1999511719</ele>
        <time>2021-09-01T09:00:34Z</time>
      </trkpt>
      <trkpt lat="44.80485" lon="6.16228">
        <ele>2030.4000244141</ele>
        <time>2021-09-01T09:00:54Z</time>
      </trkpt>
      <trkpt lat="44.80479" lon="6.16215">
        <ele>2031.4000244141</ele>
        <time>2021-09-01T09:01:11Z</time>
      </trkpt>
      <trkpt lat="44.80477" lon="6.16232">
        <ele>2033.5999755859</ele>
        <time>2021-09-01T09:01:32Z</time>
      </trkpt>
      <trkpt lat="44.80474" lon="6.16244">
        <ele>2034.1999511719</ele>
        <time>2021-09-01T09:01:44Z</time>
      </trkpt>
      <trkpt lat="44.80461" lon="6.16261">
        <ele>2035.1999511719</ele>
        <time>2021-09-01T09:02:02Z</time>
      </trkpt>
      <trkpt lat="44.80457" lon="6.16281">
        <ele>2036.4000244141</ele>
        <time>2021-09-01T09:02:20Z</time>
      </trkpt>
      <trkpt lat="44.80449" lon="6.16308">
        <ele>2038</ele>
        <time>2021-09-01T09:02:46Z</time>
      </trkpt>
      <trkpt lat="44.80443" lon="6.16329">
        <ele>2039.8000488281</ele>
        <time>2021-09-01T09:03:10Z</time>
      </trkpt>
      <trkpt lat="44.80434" lon="6.16337">
        <ele>2040.4000244141</ele>
        <time>2021-09-01T09:03:27Z</time>
      </trkpt>
      <trkpt lat="44.80422" lon="6.16351">
        <ele>2042.5999755859</ele>
        <time>2021-09-01T09:03:50Z</time>
      </trkpt>
      <trkpt lat="44.80409" lon="6.16365">
        <ele>2043.5999755859</ele>
        <time>2021-09-01T09:04:14Z</time>
      </trkpt>
      <trkpt lat="44.80399" lon="6.1638">
        <ele>2045</ele>
        <time>2021-09-01T09:04:35Z</time>
      </trkpt>
      <trkpt lat="44.80383" lon="6.16394">
        <ele>2046.5999755859</ele>
        <time>2021-09-01T09:04:57Z</time>
      </trkpt>
      <trkpt lat="44.80374" lon="6.1641">
        <ele>2048</ele>
        <time>2021-09-01T09:05:22Z</time>
      </trkpt>
      <trkpt lat="44.80367" lon="6.16415">
        <ele>2049.1999511719</ele>
        <time>2021-09-01T09:05:43Z</time>
      </trkpt>
      <trkpt lat="44.80366" lon="6.16419">
        <ele>2049.8000488281</ele>
        <time>2021-09-01T09:06:09Z</time>
      </trkpt>
      <trkpt lat="44.80364" lon="6.16419">
        <ele>2049.6000976562</ele>
        <time>2021-09-01T09:06:49Z</time>
      </trkpt>
      <trkpt lat="44.80361" lon="6.16418">
        <ele>2050.1999511719</ele>
        <time>2021-09-01T09:07:30Z</time>
      </trkpt>
      <trkpt lat="44.80357" lon="6.16427">
        <ele>2050.1999511719</ele>
        <time>2021-09-01T09:07:50Z</time>
      </trkpt>
      <trkpt lat="44.8035" lon="6.16445">
        <ele>2051.3999023438</ele>
        <time>2021-09-01T09:08:12Z</time>
      </trkpt>
      <trkpt lat="44.80345" lon="6.16461">
        <ele>2053</ele>
        <time>2021-09-01T09:08:35Z</time>
      </trkpt>
      <trkpt lat="44.80343" lon="6.1647">
        <ele>2053.1999511719</ele>
        <time>2021-09-01T09:08:56Z</time>
      </trkpt>
      <trkpt lat="44.80341" lon="6.16482">
        <ele>2053.3999023438</ele>
        <time>2021-09-01T09:09:15Z</time>
      </trkpt>
      <trkpt lat="44.8034" lon="6.16497">
        <ele>2054.6000976562</ele>
        <time>2021-09-01T09:09:35Z</time>
      </trkpt>
      <trkpt lat="44.80338" lon="6.16516">
        <ele>2056.6000976562</ele>
        <time>2021-09-01T09:09:58Z</time>
      </trkpt>
      <trkpt lat="44.80345" lon="6.16537">
        <ele>2057.6000976562</ele>
        <time>2021-09-01T09:10:20Z</time>
      </trkpt>
      <trkpt lat="44.80352" lon="6.16543">
        <ele>2059.3999023438</ele>
        <time>2021-09-01T09:10:42Z</time>
      </trkpt>
      <trkpt lat="44.80352" lon="6.16557">
        <ele>2059.6000976562</ele>
        <time>2021-09-01T09:10:59Z</time>
      </trkpt>
      <trkpt lat="44.80348" lon="6.1657">
        <ele>2062.1999511719</ele>
        <time>2021-09-01T09:11:19Z</time>
      </trkpt>
      <trkpt lat="44.80346" lon="6.16585">
        <ele>2064.6000976562</ele>
        <time>2021-09-01T09:11:41Z</time>
      </trkpt>
      <trkpt lat="44.80342" lon="6.166">
        <ele>2067</ele>
        <time>2021-09-01T09:12:03Z</time>
      </trkpt>
      <trkpt lat="44.80338" lon="6.16609">
        <ele>2068.1999511719</ele>
        <time>2021-09-01T09:12:24Z</time>
      </trkpt>
      <trkpt lat="44.80328" lon="6.16617">
        <ele>2069.8000488281</ele>
        <time>2021-09-01T09:12:45Z</time>
      </trkpt>
      <trkpt lat="44.80316" lon="6.16618">
        <ele>2071</ele>
        <time>2021-09-01T09:13:06Z</time>
      </trkpt>
      <trkpt lat="44.80309" lon="6.16615">
        <ele>2072.3999023438</ele>
        <time>2021-09-01T09:13:26Z</time>
      </trkpt>
      <trkpt lat="44.80301" lon="6.16615">
        <ele>2073.8000488281</ele>
        <time>2021-09-01T09:13:40Z</time>
      </trkpt>
      <trkpt lat="44.80286" lon="6.16608">
        <ele>2075.1999511719</ele>
        <time>2021-09-01T09:14:06Z</time>
      </trkpt>
      <trkpt lat="44.80279" lon="6.16603">
        <ele>2075</ele>
        <time>2021-09-01T09:14:26Z</time>
      </trkpt>
      <trkpt lat="44.80267" lon="6.16608">
        <ele>2076</ele>
        <time>2021-09-01T09:14:42Z</time>
      </trkpt>
      <trkpt lat="44.80257" lon="6.16624">
        <ele>2077</ele>
        <time>2021-09-01T09:15:03Z</time>
      </trkpt>
      <trkpt lat="44.80249" lon="6.16641">
        <ele>2077.8000488281</ele>
        <time>2021-09-01T09:15:21Z</time>
      </trkpt>
      <trkpt lat="44.80249" lon="6.16648">
        <ele>2078.6000976562</ele>
        <time>2021-09-01T09:15:44Z</time>
      </trkpt>
      <trkpt lat="44.80251" lon="6.16656">
        <ele>2078.8000488281</ele>
        <time>2021-09-01T09:16:05Z</time>
      </trkpt>
      <trkpt lat="44.80247" lon="6.16672">
        <ele>2080</ele>
        <time>2021-09-01T09:16:25Z</time>
      </trkpt>
      <trkpt lat="44.80244" lon="6.16693">
        <ele>2081.8000488281</ele>
        <time>2021-09-01T09:16:48Z</time>
      </trkpt>
      <trkpt lat="44.80242" lon="6.16706">
        <ele>2083.8000488281</ele>
        <time>2021-09-01T09:17:10Z</time>
      </trkpt>
      <trkpt lat="44.80242" lon="6.16708">
        <ele>2084.1999511719</ele>
        <time>2021-09-01T09:17:35Z</time>
      </trkpt>
      <trkpt lat="44.80237" lon="6.1671">
        <ele>2084.1999511719</ele>
        <time>2021-09-01T09:17:49Z</time>
      </trkpt>
      <trkpt lat="44.80227" lon="6.1672">
        <ele>2084.6000976562</ele>
        <time>2021-09-01T09:18:05Z</time>
      </trkpt>
      <trkpt lat="44.80218" lon="6.16726">
        <ele>2084.6000976562</ele>
        <time>2021-09-01T09:18:17Z</time>
      </trkpt>
      <trkpt lat="44.80211" lon="6.16724">
        <ele>2084</ele>
        <time>2021-09-01T09:18:37Z</time>
      </trkpt>
      <trkpt lat="44.80203" lon="6.1672">
        <ele>2083.8000488281</ele>
        <time>2021-09-01T09:18:54Z</time>
      </trkpt>
      <trkpt lat="44.80199" lon="6.16719">
        <ele>2083.3999023438</ele>
        <time>2021-09-01T09:19:17Z</time>
      </trkpt>
      <trkpt lat="44.80205" lon="6.16713">
        <ele>2084.6000976562</ele>
        <time>2021-09-01T09:19:48Z</time>
      </trkpt>
      <trkpt lat="44.80202" lon="6.16709">
        <ele>2086</ele>
        <time>2021-09-01T09:20:18Z</time>
      </trkpt>
      <trkpt lat="44.80203" lon="6.16707">
        <ele>2086.1999511719</ele>
        <time>2021-09-01T09:20:36Z</time>
      </trkpt>
      <trkpt lat="44.80202" lon="6.16711">
        <ele>2086</ele>
        <time>2021-09-01T09:21:11Z</time>
      </trkpt>
      <trkpt lat="44.80204" lon="6.16709">
        <ele>2086.1999511719</ele>
        <time>2021-09-01T09:21:51Z</time>
      </trkpt>
      <trkpt lat="44.80203" lon="6.16709">
        <ele>2086</ele>
        <time>2021-09-01T09:22:18Z</time>
      </trkpt>
      <trkpt lat="44.80202" lon="6.16716">
        <ele>2085.6000976562</ele>
        <time>2021-09-01T09:23:01Z</time>
      </trkpt>
      <trkpt lat="44.802" lon="6.16721">
        <ele>2084</ele>
        <time>2021-09-01T09:23:24Z</time>
      </trkpt>
      <trkpt lat="44.80194" lon="6.16719">
        <ele>2083.1999511719</ele>
        <time>2021-09-01T09:23:42Z</time>
      </trkpt>
      <trkpt lat="44.80181" lon="6.16721">
        <ele>2083</ele>
        <time>2021-09-01T09:23:59Z</time>
      </trkpt>
      <trkpt lat="44.80174" lon="6.16722">
        <ele>2083</ele>
        <time>2021-09-01T09:24:12Z</time>
      </trkpt>
      <trkpt lat="44.80166" lon="6.1673">
        <ele>2082.6000976562</ele>
        <time>2021-09-01T09:24:30Z</time>
      </trkpt>
      <trkpt lat="44.80165" lon="6.16731">
        <ele>2082.3999023438</ele>
        <time>2021-09-01T09:25:10Z</time>
      </trkpt>
      <trkpt lat="44.80163" lon="6.16747">
        <ele>2082.3999023438</ele>
        <time>2021-09-01T09:25:28Z</time>
      </trkpt>
      <trkpt lat="44.80162" lon="6.16762">
        <ele>2082.8000488281</ele>
        <time>2021-09-01T09:25:43Z</time>
      </trkpt>
      <trkpt lat="44.80166" lon="6.1677">
        <ele>2084.1999511719</ele>
        <time>2021-09-01T09:26:00Z</time>
      </trkpt>
      <trkpt lat="44.80168" lon="6.16773">
        <ele>2084.1999511719</ele>
        <time>2021-09-01T09:26:26Z</time>
      </trkpt>
      <trkpt lat="44.8017" lon="6.16774">
        <ele>2084.3999023438</ele>
        <time>2021-09-01T09:27:09Z</time>
      </trkpt>
      <trkpt lat="44.80173" lon="6.16776">
        <ele>2084</ele>
        <time>2021-09-01T09:27:29Z</time>
      </trkpt>
      <trkpt lat="44.80173" lon="6.16776">
        <ele>2083.8000488281</ele>
        <time>2021-09-01T09:27:57Z</time>
      </trkpt>
      <trkpt lat="44.80173" lon="6.16776">
        <ele>2084</ele>
        <time>2021-09-01T09:28:26Z</time>
      </trkpt>
      <trkpt lat="44.80172" lon="6.16776">
        <ele>2084.1999511719</ele>
        <time>2021-09-01T09:28:32Z</time>
      </trkpt>
      <trkpt lat="44.80172" lon="6.16777">
        <ele>2084.1999511719</ele>
        <time>2021-09-01T09:28:39Z</time>
      </trkpt>
      <trkpt lat="44.80172" lon="6.16776">
        <ele>2084</ele>
        <time>2021-09-01T09:29:24Z</time>
      </trkpt>
      <trkpt lat="44.80168" lon="6.16774">
        <ele>2083.8000488281</ele>
        <time>2021-09-01T09:30:31Z</time>
      </trkpt>
      <trkpt lat="44.80167" lon="6.16775">
        <ele>2084.3999023438</ele>
        <time>2021-09-01T09:31:03Z</time>
      </trkpt>
      <trkpt lat="44.80154" lon="6.1677">
        <ele>2084.1999511719</ele>
        <time>2021-09-01T09:31:26Z</time>
      </trkpt>
      <trkpt lat="44.80142" lon="6.1677">
        <ele>2085.1999511719</ele>
        <time>2021-09-01T09:31:47Z</time>
      </trkpt>
      <trkpt lat="44.80133" lon="6.16777">
        <ele>2086</ele>
        <time>2021-09-01T09:32:08Z</time>
      </trkpt>
      <trkpt lat="44.80122" lon="6.16776">
        <ele>2086.3999023438</ele>
        <time>2021-09-01T09:32:33Z</time>
      </trkpt>
      <trkpt lat="44.80117" lon="6.16776">
        <ele>2087</ele>
        <time>2021-09-01T09:32:51Z</time>
      </trkpt>
      <trkpt lat="44.80117" lon="6.16776">
        <ele>2086.8000488281</ele>
        <time>2021-09-01T09:33:47Z</time>
      </trkpt>
      <trkpt lat="44.80117" lon="6.16776">
        <ele>2086.8000488281</ele>
        <time>2021-09-01T09:34:20Z</time>
      </trkpt>
      <trkpt lat="44.80123" lon="6.16776">
        <ele>2086.3999023438</ele>
        <time>2021-09-01T09:34:43Z</time>
      </trkpt>
      <trkpt lat="44.80138" lon="6.16778">
        <ele>2086</ele>
        <time>2021-09-01T09:35:00Z</time>
      </trkpt>
      <trkpt lat="44.80148" lon="6.16778">
        <ele>2084.3999023438</ele>
        <time>2021-09-01T09:35:16Z</time>
      </trkpt>
      <trkpt lat="44.80161" lon="6.16782">
        <ele>2083.1999511719</ele>
        <time>2021-09-01T09:35:39Z</time>
      </trkpt>
      <trkpt lat="44.80164" lon="6.16797">
        <ele>2082.8000488281</ele>
        <time>2021-09-01T09:35:55Z</time>
      </trkpt>
      <trkpt lat="44.80164" lon="6.16818">
        <ele>2080.3999023438</ele>
        <time>2021-09-01T09:36:12Z</time>
      </trkpt>
      <trkpt lat="44.80166" lon="6.16821">
        <ele>2080.1999511719</ele>
        <time>2021-09-01T09:36:14Z</time>
      </trkpt>
      <trkpt lat="44.80166" lon="6.16836">
        <ele>2080</ele>
        <time>2021-09-01T09:36:29Z</time>
      </trkpt>
      <trkpt lat="44.80167" lon="6.16843">
        <ele>2078.3999023438</ele>
        <time>2021-09-01T09:36:46Z</time>
      </trkpt>
      <trkpt lat="44.80166" lon="6.1685">
        <ele>2078.3999023438</ele>
        <time>2021-09-01T09:37:22Z</time>
      </trkpt>
      <trkpt lat="44.80166" lon="6.16863">
        <ele>2078.8000488281</ele>
        <time>2021-09-01T09:37:40Z</time>
      </trkpt>
      <trkpt lat="44.80162" lon="6.16874">
        <ele>2079.3999023438</ele>
        <time>2021-09-01T09:37:58Z</time>
      </trkpt>
      <trkpt lat="44.8016" lon="6.1689">
        <ele>2079.6000976562</ele>
        <time>2021-09-01T09:38:15Z</time>
      </trkpt>
      <trkpt lat="44.80158" lon="6.169">
        <ele>2080.8000488281</ele>
        <time>2021-09-01T09:38:38Z</time>
      </trkpt>
      <trkpt lat="44.80154" lon="6.16908">
        <ele>2081.1999511719</ele>
        <time>2021-09-01T09:39:07Z</time>
      </trkpt>
      <trkpt lat="44.8015" lon="6.16919">
        <ele>2083.3999023438</ele>
        <time>2021-09-01T09:39:23Z</time>
      </trkpt>
      <trkpt lat="44.80148" lon="6.16923">
        <ele>2084.6000976562</ele>
        <time>2021-09-01T09:39:48Z</time>
      </trkpt>
      <trkpt lat="44.80149" lon="6.16924">
        <ele>2084.8000488281</ele>
        <time>2021-09-01T09:40:33Z</time>
      </trkpt>
      <trkpt lat="44.80147" lon="6.16933">
        <ele>2085.6000976562</ele>
        <time>2021-09-01T09:40:58Z</time>
      </trkpt>
      <trkpt lat="44.8015" lon="6.16935">
        <ele>2086.6000976562</ele>
        <time>2021-09-01T09:41:12Z</time>
      </trkpt>
      <trkpt lat="44.80146" lon="6.16932">
        <ele>2086.1999511719</ele>
        <time>2021-09-01T09:42:45Z</time>
      </trkpt>
      <trkpt lat="44.80148" lon="6.16934">
        <ele>2085.6000976562</ele>
        <time>2021-09-01T09:44:54Z</time>
      </trkpt>
      <trkpt lat="44.80149" lon="6.16933">
        <ele>2085.6000976562</ele>
        <time>2021-09-01T09:46:10Z</time>
      </trkpt>
      <trkpt lat="44.80148" lon="6.16935">
        <ele>2085.6000976562</ele>
        <time>2021-09-01T09:47:38Z</time>
      </trkpt>
      <trkpt lat="44.80148" lon="6.16932">
        <ele>2085.6000976562</ele>
        <time>2021-09-01T09:48:30Z</time>
      </trkpt>
      <trkpt lat="44.80149" lon="6.16932">
        <ele>2085.3999023438</ele>
        <time>2021-09-01T09:49:19Z</time>
      </trkpt>
      <trkpt lat="44.80149" lon="6.16933">
        <ele>2084.1999511719</ele>
        <time>2021-09-01T09:59:48Z</time>
      </trkpt>
      <trkpt lat="44.80149" lon="6.16933">
        <ele>2084.1999511719</ele>
        <time>2021-09-01T10:02:58Z</time>
      </trkpt>
      <trkpt lat="44.80149" lon="6.16932">
        <ele>2083.6000976562</ele>
        <time>2021-09-01T10:08:07Z</time>
      </trkpt>
      <trkpt lat="44.80149" lon="6.16933">
        <ele>2083.3999023438</ele>
        <time>2021-09-01T10:11:48Z</time>
      </trkpt>
      <trkpt lat="44.8015" lon="6.16934">
        <ele>2083.3999023438</ele>
        <time>2021-09-01T10:14:26Z</time>
      </trkpt>
      <trkpt lat="44.80149" lon="6.16932">
        <ele>2083.3999023438</ele>
        <time>2021-09-01T10:17:04Z</time>
      </trkpt>
      <trkpt lat="44.80148" lon="6.16932">
        <ele>2083.1999511719</ele>
        <time>2021-09-01T10:18:59Z</time>
      </trkpt>
      <trkpt lat="44.80149" lon="6.16933">
        <ele>2083.1999511719</ele>
        <time>2021-09-01T10:21:41Z</time>
      </trkpt>
      <trkpt lat="44.8015" lon="6.16932">
        <ele>2083.3999023438</ele>
        <time>2021-09-01T10:24:20Z</time>
      </trkpt>
      <trkpt lat="44.8015" lon="6.16932">
        <ele>2084</ele>
        <time>2021-09-01T10:28:00Z</time>
      </trkpt>
      <trkpt lat="44.80151" lon="6.16933">
        <ele>2083.1999511719</ele>
        <time>2021-09-01T10:31:43Z</time>
      </trkpt>
      <trkpt lat="44.80151" lon="6.16932">
        <ele>2083.3999023438</ele>
        <time>2021-09-01T10:35:35Z</time>
      </trkpt>
      <trkpt lat="44.80151" lon="6.16932">
        <ele>2083.1999511719</ele>
        <time>2021-09-01T10:36:06Z</time>
      </trkpt>
      <trkpt lat="44.80154" lon="6.1693">
        <ele>2083.6000976562</ele>
        <time>2021-09-01T10:36:41Z</time>
      </trkpt>
      <trkpt lat="44.80151" lon="6.16937">
        <ele>2084</ele>
        <time>2021-09-01T10:37:12Z</time>
      </trkpt>
      <trkpt lat="44.80147" lon="6.16955">
        <ele>2082.1999511719</ele>
        <time>2021-09-01T10:37:32Z</time>
      </trkpt>
      <trkpt lat="44.80135" lon="6.16958">
        <ele>2081.1999511719</ele>
        <time>2021-09-01T10:37:53Z</time>
      </trkpt>
      <trkpt lat="44.80123" lon="6.16961">
        <ele>2079.1999511719</ele>
        <time>2021-09-01T10:38:13Z</time>
      </trkpt>
      <trkpt lat="44.80111" lon="6.16961">
        <ele>2079.1999511719</ele>
        <time>2021-09-01T10:38:33Z</time>
      </trkpt>
      <trkpt lat="44.80105" lon="6.16955">
        <ele>2080.1999511719</ele>
        <time>2021-09-01T10:38:57Z</time>
      </trkpt>
      <trkpt lat="44.80097" lon="6.16955">
        <ele>2079.3999023438</ele>
        <time>2021-09-01T10:39:20Z</time>
      </trkpt>
      <trkpt lat="44.8009" lon="6.16955">
        <ele>2077.3999023438</ele>
        <time>2021-09-01T10:39:42Z</time>
      </trkpt>
      <trkpt lat="44.80081" lon="6.16964">
        <ele>2076.6000976562</ele>
        <time>2021-09-01T10:40:02Z</time>
      </trkpt>
      <trkpt lat="44.80068" lon="6.16971">
        <ele>2077</ele>
        <time>2021-09-01T10:40:20Z</time>
      </trkpt>
      <trkpt lat="44.80058" lon="6.16966">
        <ele>2077.1999511719</ele>
        <time>2021-09-01T10:40:36Z</time>
      </trkpt>
      <trkpt lat="44.80045" lon="6.16961">
        <ele>2078.8000488281</ele>
        <time>2021-09-01T10:41:01Z</time>
      </trkpt>
      <trkpt lat="44.80035" lon="6.16962">
        <ele>2080.1999511719</ele>
        <time>2021-09-01T10:41:31Z</time>
      </trkpt>
      <trkpt lat="44.80029" lon="6.1696">
        <ele>2081.1999511719</ele>
        <time>2021-09-01T10:41:55Z</time>
      </trkpt>
      <trkpt lat="44.80036" lon="6.16963">
        <ele>2081.3999023438</ele>
        <time>2021-09-01T10:42:14Z</time>
      </trkpt>
      <trkpt lat="44.80042" lon="6.16963">
        <ele>2079.6000976562</ele>
        <time>2021-09-01T10:42:33Z</time>
      </trkpt>
      <trkpt lat="44.80053" lon="6.16967">
        <ele>2078.6000976562</ele>
        <time>2021-09-01T10:42:54Z</time>
      </trkpt>
      <trkpt lat="44.80061" lon="6.16964">
        <ele>2077.1999511719</ele>
        <time>2021-09-01T10:43:14Z</time>
      </trkpt>
      <trkpt lat="44.80064" lon="6.16948">
        <ele>2076.8000488281</ele>
        <time>2021-09-01T10:43:33Z</time>
      </trkpt>
      <trkpt lat="44.80063" lon="6.1694">
        <ele>2076.6000976562</ele>
        <time>2021-09-01T10:43:54Z</time>
      </trkpt>
      <trkpt lat="44.80062" lon="6.16924">
        <ele>2076.8000488281</ele>
        <time>2021-09-01T10:44:17Z</time>
      </trkpt>
      <trkpt lat="44.80061" lon="6.16912">
        <ele>2076.6000976562</ele>
        <time>2021-09-01T10:44:35Z</time>
      </trkpt>
      <trkpt lat="44.80056" lon="6.16905">
        <ele>2076.8000488281</ele>
        <time>2021-09-01T10:44:51Z</time>
      </trkpt>
      <trkpt lat="44.80055" lon="6.1689">
        <ele>2077</ele>
        <time>2021-09-01T10:45:09Z</time>
      </trkpt>
      <trkpt lat="44.80052" lon="6.16881">
        <ele>2079</ele>
        <time>2021-09-01T10:45:37Z</time>
      </trkpt>
      <trkpt lat="44.80055" lon="6.16881">
        <ele>2079</ele>
        <time>2021-09-01T10:45:54Z</time>
      </trkpt>
      <trkpt lat="44.80059" lon="6.16875">
        <ele>2078.1999511719</ele>
        <time>2021-09-01T10:46:16Z</time>
      </trkpt>
      <trkpt lat="44.80059" lon="6.16874">
        <ele>2078</ele>
        <time>2021-09-01T10:46:40Z</time>
      </trkpt>
      <trkpt lat="44.80061" lon="6.16873">
        <ele>2078</ele>
        <time>2021-09-01T10:47:17Z</time>
      </trkpt>
      <trkpt lat="44.8006" lon="6.16877">
        <ele>2077.3999023438</ele>
        <time>2021-09-01T10:47:38Z</time>
      </trkpt>
      <trkpt lat="44.80053" lon="6.16866">
        <ele>2078.6000976562</ele>
        <time>2021-09-01T10:48:02Z</time>
      </trkpt>
      <trkpt lat="44.8005" lon="6.16849">
        <ele>2077.8000488281</ele>
        <time>2021-09-01T10:48:22Z</time>
      </trkpt>
      <trkpt lat="44.80058" lon="6.16837">
        <ele>2076.6000976562</ele>
        <time>2021-09-01T10:48:44Z</time>
      </trkpt>
      <trkpt lat="44.80059" lon="6.16838">
        <ele>2076</ele>
        <time>2021-09-01T10:49:08Z</time>
      </trkpt>
      <trkpt lat="44.80057" lon="6.16833">
        <ele>2076</ele>
        <time>2021-09-01T10:49:43Z</time>
      </trkpt>
      <trkpt lat="44.80058" lon="6.16831">
        <ele>2076</ele>
        <time>2021-09-01T10:50:24Z</time>
      </trkpt>
      <trkpt lat="44.80059" lon="6.16829">
        <ele>2076.1999511719</ele>
        <time>2021-09-01T10:51:13Z</time>
      </trkpt>
      <trkpt lat="44.80056" lon="6.16828">
        <ele>2076.3999023438</ele>
        <time>2021-09-01T10:51:55Z</time>
      </trkpt>
      <trkpt lat="44.8006" lon="6.16815">
        <ele>2076.6000976562</ele>
        <time>2021-09-01T10:52:13Z</time>
      </trkpt>
      <trkpt lat="44.8006" lon="6.1681">
        <ele>2076.3999023438</ele>
        <time>2021-09-01T10:52:44Z</time>
      </trkpt>
      <trkpt lat="44.80058" lon="6.16808">
        <ele>2076.3999023438</ele>
        <time>2021-09-01T10:53:05Z</time>
      </trkpt>
      <trkpt lat="44.80064" lon="6.16799">
        <ele>2076.6000976562</ele>
        <time>2021-09-01T10:53:34Z</time>
      </trkpt>
      <trkpt lat="44.80071" lon="6.16793">
        <ele>2076.8000488281</ele>
        <time>2021-09-01T10:53:59Z</time>
      </trkpt>
      <trkpt lat="44.80078" lon="6.16791">
        <ele>2076.6000976562</ele>
        <time>2021-09-01T10:54:30Z</time>
      </trkpt>
      <trkpt lat="44.80089" lon="6.16792">
        <ele>2077</ele>
        <time>2021-09-01T10:54:52Z</time>
      </trkpt>
      <trkpt lat="44.80099" lon="6.1679">
        <ele>2076.8000488281</ele>
        <time>2021-09-01T10:55:14Z</time>
      </trkpt>
      <trkpt lat="44.80106" lon="6.16787">
        <ele>2077.1999511719</ele>
        <time>2021-09-01T10:55:37Z</time>
      </trkpt>
      <trkpt lat="44.80108" lon="6.16787">
        <ele>2077.3999023438</ele>
        <time>2021-09-01T10:55:47Z</time>
      </trkpt>
      <trkpt lat="44.80122" lon="6.16795">
        <ele>2077.8000488281</ele>
        <time>2021-09-01T10:56:16Z</time>
      </trkpt>
      <trkpt lat="44.80139" lon="6.16797">
        <ele>2077</ele>
        <time>2021-09-01T10:56:36Z</time>
      </trkpt>
      <trkpt lat="44.80146" lon="6.16803">
        <ele>2076.6000976562</ele>
        <time>2021-09-01T10:56:53Z</time>
      </trkpt>
      <trkpt lat="44.80152" lon="6.16805">
        <ele>2076.6000976562</ele>
        <time>2021-09-01T10:57:13Z</time>
      </trkpt>
      <trkpt lat="44.80165" lon="6.16805">
        <ele>2076.8000488281</ele>
        <time>2021-09-01T10:57:35Z</time>
      </trkpt>
      <trkpt lat="44.80171" lon="6.1679">
        <ele>2078.3999023438</ele>
        <time>2021-09-01T10:57:55Z</time>
      </trkpt>
      <trkpt lat="44.80167" lon="6.16771">
        <ele>2080</ele>
        <time>2021-09-01T10:58:13Z</time>
      </trkpt>
      <trkpt lat="44.80166" lon="6.16759">
        <ele>2080.8000488281</ele>
        <time>2021-09-01T10:58:32Z</time>
      </trkpt>
      <trkpt lat="44.80166" lon="6.16741">
        <ele>2079.1999511719</ele>
        <time>2021-09-01T10:58:52Z</time>
      </trkpt>
      <trkpt lat="44.80173" lon="6.16725">
        <ele>2079</ele>
        <time>2021-09-01T10:59:12Z</time>
      </trkpt>
      <trkpt lat="44.80182" lon="6.16721">
        <ele>2079.1999511719</ele>
        <time>2021-09-01T10:59:32Z</time>
      </trkpt>
      <trkpt lat="44.80193" lon="6.16718">
        <ele>2079.1999511719</ele>
        <time>2021-09-01T10:59:51Z</time>
      </trkpt>
      <trkpt lat="44.802" lon="6.16721">
        <ele>2079</ele>
        <time>2021-09-01T11:00:10Z</time>
      </trkpt>
      <trkpt lat="44.80211" lon="6.16724">
        <ele>2078.6000976562</ele>
        <time>2021-09-01T11:00:27Z</time>
      </trkpt>
      <trkpt lat="44.80223" lon="6.16724">
        <ele>2079.1999511719</ele>
        <time>2021-09-01T11:00:48Z</time>
      </trkpt>
      <trkpt lat="44.80231" lon="6.16718">
        <ele>2079.8000488281</ele>
        <time>2021-09-01T11:01:20Z</time>
      </trkpt>
      <trkpt lat="44.80243" lon="6.16709">
        <ele>2080</ele>
        <time>2021-09-01T11:01:38Z</time>
      </trkpt>
      <trkpt lat="44.8025" lon="6.16702">
        <ele>2079.3999023438</ele>
        <time>2021-09-01T11:01:53Z</time>
      </trkpt>
      <trkpt lat="44.80249" lon="6.16689">
        <ele>2078.3999023438</ele>
        <time>2021-09-01T11:02:09Z</time>
      </trkpt>
      <trkpt lat="44.8025" lon="6.16673">
        <ele>2077.1999511719</ele>
        <time>2021-09-01T11:02:26Z</time>
      </trkpt>
      <trkpt lat="44.80255" lon="6.16663">
        <ele>2076.3999023438</ele>
        <time>2021-09-01T11:02:47Z</time>
      </trkpt>
      <trkpt lat="44.80256" lon="6.16645">
        <ele>2075</ele>
        <time>2021-09-01T11:03:08Z</time>
      </trkpt>
      <trkpt lat="44.8026" lon="6.16635">
        <ele>2073.8000488281</ele>
        <time>2021-09-01T11:03:28Z</time>
      </trkpt>
      <trkpt lat="44.80256" lon="6.16637">
        <ele>2073.8000488281</ele>
        <time>2021-09-01T11:03:41Z</time>
      </trkpt>
      <trkpt lat="44.80261" lon="6.16631">
        <ele>2073.8000488281</ele>
        <time>2021-09-01T11:04:18Z</time>
      </trkpt>
      <trkpt lat="44.80265" lon="6.16624">
        <ele>2073.3999023438</ele>
        <time>2021-09-01T11:04:24Z</time>
      </trkpt>
      <trkpt lat="44.80275" lon="6.16614">
        <ele>2072.6000976562</ele>
        <time>2021-09-01T11:04:40Z</time>
      </trkpt>
      <trkpt lat="44.80283" lon="6.16612">
        <ele>2071.6000976562</ele>
        <time>2021-09-01T11:04:57Z</time>
      </trkpt>
      <trkpt lat="44.80294" lon="6.16623">
        <ele>2070.3999023438</ele>
        <time>2021-09-01T11:05:19Z</time>
      </trkpt>
      <trkpt lat="44.80298" lon="6.16626">
        <ele>2070.3999023438</ele>
        <time>2021-09-01T11:05:31Z</time>
      </trkpt>
      <trkpt lat="44.8031" lon="6.16623">
        <ele>2070.3999023438</ele>
        <time>2021-09-01T11:05:53Z</time>
      </trkpt>
      <trkpt lat="44.80323" lon="6.16618">
        <ele>2068.1999511719</ele>
        <time>2021-09-01T11:06:16Z</time>
      </trkpt>
      <trkpt lat="44.80334" lon="6.16619">
        <ele>2067</ele>
        <time>2021-09-01T11:06:37Z</time>
      </trkpt>
      <trkpt lat="44.80343" lon="6.16606">
        <ele>2065.8000488281</ele>
        <time>2021-09-01T11:06:59Z</time>
      </trkpt>
      <trkpt lat="44.80347" lon="6.16603">
        <ele>2064.6000976562</ele>
        <time>2021-09-01T11:07:18Z</time>
      </trkpt>
      <trkpt lat="44.80349" lon="6.1659">
        <ele>2063.6000976562</ele>
        <time>2021-09-01T11:07:34Z</time>
      </trkpt>
      <trkpt lat="44.8035" lon="6.16579">
        <ele>2062.8000488281</ele>
        <time>2021-09-01T11:07:47Z</time>
      </trkpt>
      <trkpt lat="44.80352" lon="6.16572">
        <ele>2061</ele>
        <time>2021-09-01T11:08:05Z</time>
      </trkpt>
      <trkpt lat="44.80354" lon="6.16565">
        <ele>2059.1999511719</ele>
        <time>2021-09-01T11:08:23Z</time>
      </trkpt>
      <trkpt lat="44.80356" lon="6.16555">
        <ele>2058</ele>
        <time>2021-09-01T11:08:57Z</time>
      </trkpt>
      <trkpt lat="44.80354" lon="6.16543">
        <ele>2056.1999511719</ele>
        <time>2021-09-01T11:09:14Z</time>
      </trkpt>
      <trkpt lat="44.8035" lon="6.16534">
        <ele>2055</ele>
        <time>2021-09-01T11:09:39Z</time>
      </trkpt>
      <trkpt lat="44.80349" lon="6.16532">
        <ele>2055</ele>
        <time>2021-09-01T11:09:41Z</time>
      </trkpt>
      <trkpt lat="44.80345" lon="6.16519">
        <ele>2054</ele>
        <time>2021-09-01T11:09:56Z</time>
      </trkpt>
      <trkpt lat="44.80346" lon="6.16503">
        <ele>2053</ele>
        <time>2021-09-01T11:10:10Z</time>
      </trkpt>
      <trkpt lat="44.80348" lon="6.16493">
        <ele>2052.1999511719</ele>
        <time>2021-09-01T11:10:26Z</time>
      </trkpt>
      <trkpt lat="44.8035" lon="6.16477">
        <ele>2051</ele>
        <time>2021-09-01T11:10:49Z</time>
      </trkpt>
      <trkpt lat="44.80354" lon="6.16467">
        <ele>2050</ele>
        <time>2021-09-01T11:11:07Z</time>
      </trkpt>
      <trkpt lat="44.80354" lon="6.16461">
        <ele>2049.6000976562</ele>
        <time>2021-09-01T11:11:22Z</time>
      </trkpt>
      <trkpt lat="44.80356" lon="6.16452">
        <ele>2049.8000488281</ele>
        <time>2021-09-01T11:11:40Z</time>
      </trkpt>
      <trkpt lat="44.80359" lon="6.16442">
        <ele>2049.1999511719</ele>
        <time>2021-09-01T11:12:10Z</time>
      </trkpt>
      <trkpt lat="44.80363" lon="6.16429">
        <ele>2048</ele>
        <time>2021-09-01T11:12:28Z</time>
      </trkpt>
      <trkpt lat="44.80369" lon="6.16421">
        <ele>2047</ele>
        <time>2021-09-01T11:12:42Z</time>
      </trkpt>
      <trkpt lat="44.80369" lon="6.16419">
        <ele>2046</ele>
        <time>2021-09-01T11:13:00Z</time>
      </trkpt>
      <trkpt lat="44.80368" lon="6.16418">
        <ele>2046.4000244141</ele>
        <time>2021-09-01T11:13:45Z</time>
      </trkpt>
      <trkpt lat="44.80375" lon="6.16414">
        <ele>2046.4000244141</ele>
        <time>2021-09-01T11:14:06Z</time>
      </trkpt>
      <trkpt lat="44.80385" lon="6.16402">
        <ele>2044.4000244141</ele>
        <time>2021-09-01T11:14:24Z</time>
      </trkpt>
      <trkpt lat="44.80394" lon="6.16391">
        <ele>2043.1999511719</ele>
        <time>2021-09-01T11:14:41Z</time>
      </trkpt>
      <trkpt lat="44.80395" lon="6.1639">
        <ele>2043.1999511719</ele>
        <time>2021-09-01T11:14:42Z</time>
      </trkpt>
      <trkpt lat="44.80396" lon="6.16388">
        <ele>2043</ele>
        <time>2021-09-01T11:14:44Z</time>
      </trkpt>
      <trkpt lat="44.80405" lon="6.16377">
        <ele>2042.1999511719</ele>
        <time>2021-09-01T11:14:59Z</time>
      </trkpt>
      <trkpt lat="44.80416" lon="6.16365">
        <ele>2040.5999755859</ele>
        <time>2021-09-01T11:15:17Z</time>
      </trkpt>
      <trkpt lat="44.80419" lon="6.16362">
        <ele>2040.1999511719</ele>
        <time>2021-09-01T11:15:32Z</time>
      </trkpt>
      <trkpt lat="44.80423" lon="6.16354">
        <ele>2039.8000488281</ele>
        <time>2021-09-01T11:16:09Z</time>
      </trkpt>
      <trkpt lat="44.80431" lon="6.16347">
        <ele>2039.1999511719</ele>
        <time>2021-09-01T11:16:26Z</time>
      </trkpt>
      <trkpt lat="44.8044" lon="6.16335">
        <ele>2038</ele>
        <time>2021-09-01T11:16:40Z</time>
      </trkpt>
      <trkpt lat="44.80448" lon="6.16324">
        <ele>2037</ele>
        <time>2021-09-01T11:16:55Z</time>
      </trkpt>
      <trkpt lat="44.80449" lon="6.16322">
        <ele>2036.8000488281</ele>
        <time>2021-09-01T11:16:57Z</time>
      </trkpt>
      <trkpt lat="44.80457" lon="6.16309">
        <ele>2035.5999755859</ele>
        <time>2021-09-01T11:17:13Z</time>
      </trkpt>
      <trkpt lat="44.80459" lon="6.16302">
        <ele>2035</ele>
        <time>2021-09-01T11:17:20Z</time>
      </trkpt>
      <trkpt lat="44.80465" lon="6.16279">
        <ele>2033.5999755859</ele>
        <time>2021-09-01T11:17:37Z</time>
      </trkpt>
      <trkpt lat="44.80468" lon="6.16266">
        <ele>2033</ele>
        <time>2021-09-01T11:17:48Z</time>
      </trkpt>
      <trkpt lat="44.80472" lon="6.1626">
        <ele>2032.5999755859</ele>
        <time>2021-09-01T11:17:53Z</time>
      </trkpt>
      <trkpt lat="44.80484" lon="6.16246">
        <ele>2031.4000244141</ele>
        <time>2021-09-01T11:18:09Z</time>
      </trkpt>
      <trkpt lat="44.80485" lon="6.16243">
        <ele>2031</ele>
        <time>2021-09-01T11:18:13Z</time>
      </trkpt>
      <trkpt lat="44.80488" lon="6.16238">
        <ele>2030.5999755859</ele>
        <time>2021-09-01T11:18:18Z</time>
      </trkpt>
      <trkpt lat="44.8049" lon="6.16219">
        <ele>2029.1999511719</ele>
        <time>2021-09-01T11:18:35Z</time>
      </trkpt>
      <trkpt lat="44.80494" lon="6.16216">
        <ele>2027.5999755859</ele>
        <time>2021-09-01T11:18:54Z</time>
      </trkpt>
      <trkpt lat="44.80496" lon="6.16234">
        <ele>2026</ele>
        <time>2021-09-01T11:19:12Z</time>
      </trkpt>
      <trkpt lat="44.80495" lon="6.16257">
        <ele>2024.1999511719</ele>
        <time>2021-09-01T11:19:32Z</time>
      </trkpt>
      <trkpt lat="44.80488" lon="6.16279">
        <ele>2021.4000244141</ele>
        <time>2021-09-01T11:19:54Z</time>
      </trkpt>
      <trkpt lat="44.80487" lon="6.16302">
        <ele>2019.4000244141</ele>
        <time>2021-09-01T11:20:14Z</time>
      </trkpt>
      <trkpt lat="44.80486" lon="6.16332">
        <ele>2016.5999755859</ele>
        <time>2021-09-01T11:20:35Z</time>
      </trkpt>
      <trkpt lat="44.80488" lon="6.16343">
        <ele>2015.4000244141</ele>
        <time>2021-09-01T11:20:44Z</time>
      </trkpt>
      <trkpt lat="44.80484" lon="6.1636">
        <ele>2013.5999755859</ele>
        <time>2021-09-01T11:21:01Z</time>
      </trkpt>
      <trkpt lat="44.80477" lon="6.16373">
        <ele>2011.4000244141</ele>
        <time>2021-09-01T11:21:19Z</time>
      </trkpt>
      <trkpt lat="44.80475" lon="6.1639">
        <ele>2009</ele>
        <time>2021-09-01T11:21:38Z</time>
      </trkpt>
      <trkpt lat="44.80465" lon="6.16411">
        <ele>2007.5999755859</ele>
        <time>2021-09-01T11:21:56Z</time>
      </trkpt>
      <trkpt lat="44.80459" lon="6.16436">
        <ele>2007</ele>
        <time>2021-09-01T11:22:19Z</time>
      </trkpt>
      <trkpt lat="44.80457" lon="6.16451">
        <ele>2006</ele>
        <time>2021-09-01T11:22:39Z</time>
      </trkpt>
      <trkpt lat="44.80463" lon="6.16447">
        <ele>2004.1999511719</ele>
        <time>2021-09-01T11:22:56Z</time>
      </trkpt>
      <trkpt lat="44.80469" lon="6.16439">
        <ele>2003</ele>
        <time>2021-09-01T11:23:10Z</time>
      </trkpt>
      <trkpt lat="44.80476" lon="6.16427">
        <ele>2001</ele>
        <time>2021-09-01T11:23:24Z</time>
      </trkpt>
      <trkpt lat="44.80481" lon="6.16422">
        <ele>2000.1999511719</ele>
        <time>2021-09-01T11:23:31Z</time>
      </trkpt>
      <trkpt lat="44.80492" lon="6.16412">
        <ele>1997.4000244141</ele>
        <time>2021-09-01T11:23:48Z</time>
      </trkpt>
      <trkpt lat="44.80493" lon="6.16412">
        <ele>1997.4000244141</ele>
        <time>2021-09-01T11:23:49Z</time>
      </trkpt>
      <trkpt lat="44.80494" lon="6.16404">
        <ele>1996.8000488281</ele>
        <time>2021-09-01T11:23:55Z</time>
      </trkpt>
      <trkpt lat="44.80497" lon="6.16395">
        <ele>1995.1999511719</ele>
        <time>2021-09-01T11:24:03Z</time>
      </trkpt>
      <trkpt lat="44.80511" lon="6.16381">
        <ele>1992.1999511719</ele>
        <time>2021-09-01T11:24:23Z</time>
      </trkpt>
      <trkpt lat="44.80512" lon="6.16381">
        <ele>1992.1999511719</ele>
        <time>2021-09-01T11:24:24Z</time>
      </trkpt>
      <trkpt lat="44.80515" lon="6.16382">
        <ele>1990.4000244141</ele>
        <time>2021-09-01T11:24:40Z</time>
      </trkpt>
      <trkpt lat="44.8051" lon="6.16405">
        <ele>1988.1999511719</ele>
        <time>2021-09-01T11:25:02Z</time>
      </trkpt>
      <trkpt lat="44.80511" lon="6.1641">
        <ele>1988</ele>
        <time>2021-09-01T11:25:06Z</time>
      </trkpt>
      <trkpt lat="44.80515" lon="6.16425">
        <ele>1986.1999511719</ele>
        <time>2021-09-01T11:25:22Z</time>
      </trkpt>
      <trkpt lat="44.80514" lon="6.16428">
        <ele>1985.8000488281</ele>
        <time>2021-09-01T11:25:25Z</time>
      </trkpt>
      <trkpt lat="44.80515" lon="6.16439">
        <ele>1984.4000244141</ele>
        <time>2021-09-01T11:25:41Z</time>
      </trkpt>
      <trkpt lat="44.80512" lon="6.16452">
        <ele>1982.1999511719</ele>
        <time>2021-09-01T11:26:01Z</time>
      </trkpt>
      <trkpt lat="44.8051" lon="6.16463">
        <ele>1981.1999511719</ele>
        <time>2021-09-01T11:26:20Z</time>
      </trkpt>
      <trkpt lat="44.80506" lon="6.16483">
        <ele>1979.5999755859</ele>
        <time>2021-09-01T11:26:39Z</time>
      </trkpt>
      <trkpt lat="44.80504" lon="6.16496">
        <ele>1977.8000488281</ele>
        <time>2021-09-01T11:26:55Z</time>
      </trkpt>
      <trkpt lat="44.80502" lon="6.16502">
        <ele>1977</ele>
        <time>2021-09-01T11:27:00Z</time>
      </trkpt>
      <trkpt lat="44.80508" lon="6.16514">
        <ele>1975.8000488281</ele>
        <time>2021-09-01T11:27:19Z</time>
      </trkpt>
      <trkpt lat="44.80511" lon="6.16509">
        <ele>1974.8000488281</ele>
        <time>2021-09-01T11:27:27Z</time>
      </trkpt>
      <trkpt lat="44.80515" lon="6.16503">
        <ele>1973.8000488281</ele>
        <time>2021-09-01T11:27:35Z</time>
      </trkpt>
      <trkpt lat="44.80522" lon="6.16494">
        <ele>1972.1999511719</ele>
        <time>2021-09-01T11:27:48Z</time>
      </trkpt>
      <trkpt lat="44.8053" lon="6.16485">
        <ele>1969.8000488281</ele>
        <time>2021-09-01T11:28:08Z</time>
      </trkpt>
      <trkpt lat="44.80528" lon="6.16484">
        <ele>1969.4000244141</ele>
        <time>2021-09-01T11:28:39Z</time>
      </trkpt>
      <trkpt lat="44.80531" lon="6.1648">
        <ele>1968.1999511719</ele>
        <time>2021-09-01T11:29:08Z</time>
      </trkpt>
      <trkpt lat="44.80535" lon="6.16468">
        <ele>1967</ele>
        <time>2021-09-01T11:29:22Z</time>
      </trkpt>
      <trkpt lat="44.80541" lon="6.16458">
        <ele>1965.4000244141</ele>
        <time>2021-09-01T11:29:41Z</time>
      </trkpt>
      <trkpt lat="44.80543" lon="6.16446">
        <ele>1963.1999511719</ele>
        <time>2021-09-01T11:30:01Z</time>
      </trkpt>
      <trkpt lat="44.80547" lon="6.16429">
        <ele>1961.4000244141</ele>
        <time>2021-09-01T11:30:21Z</time>
      </trkpt>
      <trkpt lat="44.80548" lon="6.16436">
        <ele>1959.4000244141</ele>
        <time>2021-09-01T11:30:40Z</time>
      </trkpt>
      <trkpt lat="44.80553" lon="6.16438">
        <ele>1957.5999755859</ele>
        <time>2021-09-01T11:30:55Z</time>
      </trkpt>
      <trkpt lat="44.80556" lon="6.16431">
        <ele>1955</ele>
        <time>2021-09-01T11:31:14Z</time>
      </trkpt>
      <trkpt lat="44.80555" lon="6.16441">
        <ele>1952.5999755859</ele>
        <time>2021-09-01T11:31:30Z</time>
      </trkpt>
      <trkpt lat="44.80563" lon="6.16433">
        <ele>1950</ele>
        <time>2021-09-01T11:31:47Z</time>
      </trkpt>
      <trkpt lat="44.80566" lon="6.16425">
        <ele>1947.8000488281</ele>
        <time>2021-09-01T11:32:06Z</time>
      </trkpt>
      <trkpt lat="44.8057" lon="6.16439">
        <ele>1946</ele>
        <time>2021-09-01T11:32:23Z</time>
      </trkpt>
      <trkpt lat="44.80568" lon="6.16456">
        <ele>1943.1999511719</ele>
        <time>2021-09-01T11:32:44Z</time>
      </trkpt>
      <trkpt lat="44.8057" lon="6.16469">
        <ele>1940.4000244141</ele>
        <time>2021-09-01T11:33:03Z</time>
      </trkpt>
      <trkpt lat="44.80573" lon="6.16479">
        <ele>1938.5999755859</ele>
        <time>2021-09-01T11:33:18Z</time>
      </trkpt>
      <trkpt lat="44.80576" lon="6.16487">
        <ele>1936.8000488281</ele>
        <time>2021-09-01T11:33:35Z</time>
      </trkpt>
      <trkpt lat="44.8058" lon="6.16486">
        <ele>1934.5999755859</ele>
        <time>2021-09-01T11:33:54Z</time>
      </trkpt>
      <trkpt lat="44.80586" lon="6.16475">
        <ele>1932.8000488281</ele>
        <time>2021-09-01T11:34:14Z</time>
      </trkpt>
      <trkpt lat="44.80592" lon="6.16465">
        <ele>1930.1999511719</ele>
        <time>2021-09-01T11:34:36Z</time>
      </trkpt>
      <trkpt lat="44.80591" lon="6.16457">
        <ele>1928.5999755859</ele>
        <time>2021-09-01T11:34:50Z</time>
      </trkpt>
      <trkpt lat="44.80596" lon="6.1645">
        <ele>1928</ele>
        <time>2021-09-01T11:35:13Z</time>
      </trkpt>
      <trkpt lat="44.80595" lon="6.16442">
        <ele>1926.4000244141</ele>
        <time>2021-09-01T11:35:32Z</time>
      </trkpt>
      <trkpt lat="44.806" lon="6.16442">
        <ele>1924.5999755859</ele>
        <time>2021-09-01T11:35:52Z</time>
      </trkpt>
      <trkpt lat="44.806" lon="6.1643">
        <ele>1923.8000488281</ele>
        <time>2021-09-01T11:36:08Z</time>
      </trkpt>
      <trkpt lat="44.80608" lon="6.16419">
        <ele>1921.8000488281</ele>
        <time>2021-09-01T11:36:30Z</time>
      </trkpt>
      <trkpt lat="44.80616" lon="6.164">
        <ele>1918.8000488281</ele>
        <time>2021-09-01T11:36:51Z</time>
      </trkpt>
      <trkpt lat="44.8062" lon="6.16388">
        <ele>1916.5999755859</ele>
        <time>2021-09-01T11:37:09Z</time>
      </trkpt>
      <trkpt lat="44.80624" lon="6.16381">
        <ele>1915.4000244141</ele>
        <time>2021-09-01T11:37:32Z</time>
      </trkpt>
      <trkpt lat="44.80632" lon="6.16366">
        <ele>1914</ele>
        <time>2021-09-01T11:37:51Z</time>
      </trkpt>
      <trkpt lat="44.80642" lon="6.16353">
        <ele>1913.1999511719</ele>
        <time>2021-09-01T11:38:10Z</time>
      </trkpt>
      <trkpt lat="44.80642" lon="6.16336">
        <ele>1912.4000244141</ele>
        <time>2021-09-01T11:38:31Z</time>
      </trkpt>
      <trkpt lat="44.80641" lon="6.16329">
        <ele>1912</ele>
        <time>2021-09-01T11:38:45Z</time>
      </trkpt>
      <trkpt lat="44.80643" lon="6.16326">
        <ele>1911.8000488281</ele>
        <time>2021-09-01T11:38:55Z</time>
      </trkpt>
      <trkpt lat="44.80646" lon="6.1632">
        <ele>1909.8000488281</ele>
        <time>2021-09-01T11:39:22Z</time>
      </trkpt>
      <trkpt lat="44.80647" lon="6.16313">
        <ele>1907.5999755859</ele>
        <time>2021-09-01T11:39:40Z</time>
      </trkpt>
      <trkpt lat="44.80648" lon="6.16299">
        <ele>1905.1999511719</ele>
        <time>2021-09-01T11:40:02Z</time>
      </trkpt>
      <trkpt lat="44.80648" lon="6.16283">
        <ele>1902.1999511719</ele>
        <time>2021-09-01T11:40:30Z</time>
      </trkpt>
      <trkpt lat="44.8065" lon="6.16275">
        <ele>1901</ele>
        <time>2021-09-01T11:40:48Z</time>
      </trkpt>
      <trkpt lat="44.80663" lon="6.16266">
        <ele>1898.8000488281</ele>
        <time>2021-09-01T11:41:10Z</time>
      </trkpt>
      <trkpt lat="44.80676" lon="6.16262">
        <ele>1896.1999511719</ele>
        <time>2021-09-01T11:41:31Z</time>
      </trkpt>
      <trkpt lat="44.80686" lon="6.16254">
        <ele>1893.8000488281</ele>
        <time>2021-09-01T11:41:52Z</time>
      </trkpt>
      <trkpt lat="44.80698" lon="6.16248">
        <ele>1892</ele>
        <time>2021-09-01T11:42:10Z</time>
      </trkpt>
      <trkpt lat="44.80703" lon="6.16243">
        <ele>1890.4000244141</ele>
        <time>2021-09-01T11:42:32Z</time>
      </trkpt>
      <trkpt lat="44.80713" lon="6.16239">
        <ele>1888</ele>
        <time>2021-09-01T11:42:55Z</time>
      </trkpt>
      <trkpt lat="44.80714" lon="6.16243">
        <ele>1885.8000488281</ele>
        <time>2021-09-01T11:43:12Z</time>
      </trkpt>
      <trkpt lat="44.80701" lon="6.1626">
        <ele>1883.1999511719</ele>
        <time>2021-09-01T11:43:33Z</time>
      </trkpt>
      <trkpt lat="44.80694" lon="6.16277">
        <ele>1880.1999511719</ele>
        <time>2021-09-01T11:43:49Z</time>
      </trkpt>
      <trkpt lat="44.80687" lon="6.16292">
        <ele>1877</ele>
        <time>2021-09-01T11:44:08Z</time>
      </trkpt>
      <trkpt lat="44.80682" lon="6.16304">
        <ele>1874</ele>
        <time>2021-09-01T11:44:33Z</time>
      </trkpt>
      <trkpt lat="44.80678" lon="6.16314">
        <ele>1872</ele>
        <time>2021-09-01T11:44:52Z</time>
      </trkpt>
      <trkpt lat="44.80679" lon="6.16318">
        <ele>1871.1999511719</ele>
        <time>2021-09-01T11:45:01Z</time>
      </trkpt>
      <trkpt lat="44.80689" lon="6.16313">
        <ele>1869.1999511719</ele>
        <time>2021-09-01T11:45:18Z</time>
      </trkpt>
      <trkpt lat="44.80697" lon="6.16307">
        <ele>1867.5999755859</ele>
        <time>2021-09-01T11:45:35Z</time>
      </trkpt>
      <trkpt lat="44.80705" lon="6.16302">
        <ele>1866</ele>
        <time>2021-09-01T11:45:53Z</time>
      </trkpt>
      <trkpt lat="44.80714" lon="6.16295">
        <ele>1864.1999511719</ele>
        <time>2021-09-01T11:46:12Z</time>
      </trkpt>
      <trkpt lat="44.80724" lon="6.16285">
        <ele>1861.5999755859</ele>
        <time>2021-09-01T11:46:34Z</time>
      </trkpt>
      <trkpt lat="44.80731" lon="6.16282">
        <ele>1859</ele>
        <time>2021-09-01T11:46:55Z</time>
      </trkpt>
      <trkpt lat="44.80724" lon="6.16293">
        <ele>1857.1999511719</ele>
        <time>2021-09-01T11:47:11Z</time>
      </trkpt>
      <trkpt lat="44.80723" lon="6.16293">
        <ele>1857.1999511719</ele>
        <time>2021-09-01T11:47:12Z</time>
      </trkpt>
      <trkpt lat="44.80714" lon="6.16308">
        <ele>1855.1999511719</ele>
        <time>2021-09-01T11:47:28Z</time>
      </trkpt>
      <trkpt lat="44.80706" lon="6.16317">
        <ele>1853.4000244141</ele>
        <time>2021-09-01T11:47:49Z</time>
      </trkpt>
      <trkpt lat="44.807" lon="6.16334">
        <ele>1852.4000244141</ele>
        <time>2021-09-01T11:48:09Z</time>
      </trkpt>
      <trkpt lat="44.80698" lon="6.16348">
        <ele>1850.5999755859</ele>
        <time>2021-09-01T11:48:27Z</time>
      </trkpt>
      <trkpt lat="44.80693" lon="6.16359">
        <ele>1850.1999511719</ele>
        <time>2021-09-01T11:48:46Z</time>
      </trkpt>
      <trkpt lat="44.80704" lon="6.16353">
        <ele>1848.5999755859</ele>
        <time>2021-09-01T11:49:03Z</time>
      </trkpt>
      <trkpt lat="44.80714" lon="6.16341">
        <ele>1846.5999755859</ele>
        <time>2021-09-01T11:49:17Z</time>
      </trkpt>
      <trkpt lat="44.80723" lon="6.16332">
        <ele>1844.8000488281</ele>
        <time>2021-09-01T11:49:30Z</time>
      </trkpt>
      <trkpt lat="44.80734" lon="6.16325">
        <ele>1843</ele>
        <time>2021-09-01T11:49:47Z</time>
      </trkpt>
      <trkpt lat="44.80741" lon="6.1632">
        <ele>1842</ele>
        <time>2021-09-01T11:49:57Z</time>
      </trkpt>
      <trkpt lat="44.80751" lon="6.16308">
        <ele>1839.8000488281</ele>
        <time>2021-09-01T11:50:13Z</time>
      </trkpt>
      <trkpt lat="44.80761" lon="6.16295">
        <ele>1838</ele>
        <time>2021-09-01T11:50:30Z</time>
      </trkpt>
      <trkpt lat="44.80767" lon="6.16285">
        <ele>1836.5999755859</ele>
        <time>2021-09-01T11:50:46Z</time>
      </trkpt>
      <trkpt lat="44.80776" lon="6.16283">
        <ele>1835.5999755859</ele>
        <time>2021-09-01T11:51:03Z</time>
      </trkpt>
      <trkpt lat="44.80789" lon="6.16281">
        <ele>1834.8000488281</ele>
        <time>2021-09-01T11:51:24Z</time>
      </trkpt>
      <trkpt lat="44.80799" lon="6.16275">
        <ele>1833.4000244141</ele>
        <time>2021-09-01T11:51:47Z</time>
      </trkpt>
      <trkpt lat="44.80812" lon="6.16271">
        <ele>1833</ele>
        <time>2021-09-01T11:52:08Z</time>
      </trkpt>
      <trkpt lat="44.80827" lon="6.16262">
        <ele>1831.5999755859</ele>
        <time>2021-09-01T11:52:30Z</time>
      </trkpt>
      <trkpt lat="44.80842" lon="6.16253">
        <ele>1831</ele>
        <time>2021-09-01T11:52:56Z</time>
      </trkpt>
      <trkpt lat="44.80861" lon="6.16248">
        <ele>1829.4000244141</ele>
        <time>2021-09-01T11:53:20Z</time>
      </trkpt>
      <trkpt lat="44.80889" lon="6.16236">
        <ele>1826.4000244141</ele>
        <time>2021-09-01T11:53:47Z</time>
      </trkpt>
      <trkpt lat="44.80903" lon="6.16231">
        <ele>1823.4000244141</ele>
        <time>2021-09-01T11:54:08Z</time>
      </trkpt>
      <trkpt lat="44.80923" lon="6.16226">
        <ele>1821</ele>
        <time>2021-09-01T11:54:34Z</time>
      </trkpt>
      <trkpt lat="44.80929" lon="6.16222">
        <ele>1819.4000244141</ele>
        <time>2021-09-01T11:54:47Z</time>
      </trkpt>
      <trkpt lat="44.80942" lon="6.16216">
        <ele>1818.4000244141</ele>
        <time>2021-09-01T11:54:58Z</time>
      </trkpt>
      <trkpt lat="44.80944" lon="6.16215">
        <ele>1818.1999511719</ele>
        <time>2021-09-01T11:55:01Z</time>
      </trkpt>
      <trkpt lat="44.80958" lon="6.16196">
        <ele>1815.1999511719</ele>
        <time>2021-09-01T11:55:22Z</time>
      </trkpt>
      <trkpt lat="44.80978" lon="6.16177">
        <ele>1812.4000244141</ele>
        <time>2021-09-01T11:55:47Z</time>
      </trkpt>
      <trkpt lat="44.80991" lon="6.16162">
        <ele>1809.1999511719</ele>
        <time>2021-09-01T11:56:10Z</time>
      </trkpt>
      <trkpt lat="44.80971" lon="6.16143">
        <ele>1807.4000244141</ele>
        <time>2021-09-01T11:56:33Z</time>
      </trkpt>
      <trkpt lat="44.80971" lon="6.16141">
        <ele>1807</ele>
        <time>2021-09-01T11:56:36Z</time>
      </trkpt>
      <trkpt lat="44.80993" lon="6.1615">
        <ele>1804.5999755859</ele>
        <time>2021-09-01T11:56:57Z</time>
      </trkpt>
      <trkpt lat="44.81009" lon="6.16167">
        <ele>1802.1999511719</ele>
        <time>2021-09-01T11:57:19Z</time>
      </trkpt>
      <trkpt lat="44.81027" lon="6.16174">
        <ele>1799</ele>
        <time>2021-09-01T11:57:43Z</time>
      </trkpt>
      <trkpt lat="44.81042" lon="6.16184">
        <ele>1796.4000244141</ele>
        <time>2021-09-01T11:58:05Z</time>
      </trkpt>
      <trkpt lat="44.81032" lon="6.16201">
        <ele>1794.1999511719</ele>
        <time>2021-09-01T11:58:27Z</time>
      </trkpt>
      <trkpt lat="44.8102" lon="6.16212">
        <ele>1791.1999511719</ele>
        <time>2021-09-01T11:58:46Z</time>
      </trkpt>
      <trkpt lat="44.81011" lon="6.16224">
        <ele>1788.5999755859</ele>
        <time>2021-09-01T11:59:09Z</time>
      </trkpt>
      <trkpt lat="44.80994" lon="6.16235">
        <ele>1786</ele>
        <time>2021-09-01T11:59:34Z</time>
      </trkpt>
      <trkpt lat="44.80992" lon="6.16237">
        <ele>1785.8000488281</ele>
        <time>2021-09-01T11:59:36Z</time>
      </trkpt>
      <trkpt lat="44.80978" lon="6.16251">
        <ele>1782.5999755859</ele>
        <time>2021-09-01T11:59:52Z</time>
      </trkpt>
      <trkpt lat="44.8097" lon="6.16261">
        <ele>1779.4000244141</ele>
        <time>2021-09-01T12:00:10Z</time>
      </trkpt>
      <trkpt lat="44.80972" lon="6.16269">
        <ele>1778</ele>
        <time>2021-09-01T12:00:21Z</time>
      </trkpt>
      <trkpt lat="44.80984" lon="6.16267">
        <ele>1776.4000244141</ele>
        <time>2021-09-01T12:00:30Z</time>
      </trkpt>
      <trkpt lat="44.8099" lon="6.16266">
        <ele>1776.1999511719</ele>
        <time>2021-09-01T12:00:34Z</time>
      </trkpt>
      <trkpt lat="44.80997" lon="6.16261">
        <ele>1774.1999511719</ele>
        <time>2021-09-01T12:00:58Z</time>
      </trkpt>
      <trkpt lat="44.80999" lon="6.1626">
        <ele>1773</ele>
        <time>2021-09-01T12:01:05Z</time>
      </trkpt>
      <trkpt lat="44.81007" lon="6.16262">
        <ele>1769.5999755859</ele>
        <time>2021-09-01T12:01:25Z</time>
      </trkpt>
      <trkpt lat="44.81018" lon="6.16267">
        <ele>1766.4000244141</ele>
        <time>2021-09-01T12:01:45Z</time>
      </trkpt>
      <trkpt lat="44.81034" lon="6.16269">
        <ele>1763.8000488281</ele>
        <time>2021-09-01T12:02:03Z</time>
      </trkpt>
      <trkpt lat="44.81048" lon="6.16272">
        <ele>1760.5999755859</ele>
        <time>2021-09-01T12:02:20Z</time>
      </trkpt>
      <trkpt lat="44.81055" lon="6.1627">
        <ele>1757.8000488281</ele>
        <time>2021-09-01T12:02:41Z</time>
      </trkpt>
      <trkpt lat="44.81069" lon="6.16268">
        <ele>1754.8000488281</ele>
        <time>2021-09-01T12:03:04Z</time>
      </trkpt>
      <trkpt lat="44.81081" lon="6.16268">
        <ele>1751.5999755859</ele>
        <time>2021-09-01T12:03:26Z</time>
      </trkpt>
      <trkpt lat="44.81089" lon="6.16264">
        <ele>1749</ele>
        <time>2021-09-01T12:03:48Z</time>
      </trkpt>
      <trkpt lat="44.81102" lon="6.16261">
        <ele>1745.8000488281</ele>
        <time>2021-09-01T12:04:10Z</time>
      </trkpt>
      <trkpt lat="44.81105" lon="6.16258">
        <ele>1745</ele>
        <time>2021-09-01T12:04:18Z</time>
      </trkpt>
      <trkpt lat="44.81096" lon="6.16249">
        <ele>1744.1999511719</ele>
        <time>2021-09-01T12:04:39Z</time>
      </trkpt>
      <trkpt lat="44.81101" lon="6.16247">
        <ele>1744</ele>
        <time>2021-09-01T12:05:16Z</time>
      </trkpt>
      <trkpt lat="44.8111" lon="6.16266">
        <ele>1742.8000488281</ele>
        <time>2021-09-01T12:05:36Z</time>
      </trkpt>
      <trkpt lat="44.81108" lon="6.16273">
        <ele>1741.1999511719</ele>
        <time>2021-09-01T12:06:04Z</time>
      </trkpt>
      <trkpt lat="44.81095" lon="6.16285">
        <ele>1739.4000244141</ele>
        <time>2021-09-01T12:06:25Z</time>
      </trkpt>
      <trkpt lat="44.8108" lon="6.16298">
        <ele>1736.5999755859</ele>
        <time>2021-09-01T12:06:49Z</time>
      </trkpt>
      <trkpt lat="44.8106" lon="6.1631">
        <ele>1733.4000244141</ele>
        <time>2021-09-01T12:07:15Z</time>
      </trkpt>
      <trkpt lat="44.81048" lon="6.16315">
        <ele>1730.5999755859</ele>
        <time>2021-09-01T12:07:35Z</time>
      </trkpt>
      <trkpt lat="44.81037" lon="6.16322">
        <ele>1728.8000488281</ele>
        <time>2021-09-01T12:07:58Z</time>
      </trkpt>
      <trkpt lat="44.81017" lon="6.16323">
        <ele>1727.8000488281</ele>
        <time>2021-09-01T12:08:24Z</time>
      </trkpt>
      <trkpt lat="44.81008" lon="6.16336">
        <ele>1725.8000488281</ele>
        <time>2021-09-01T12:08:45Z</time>
      </trkpt>
      <trkpt lat="44.81013" lon="6.16334">
        <ele>1724</ele>
        <time>2021-09-01T12:08:58Z</time>
      </trkpt>
      <trkpt lat="44.81018" lon="6.16334">
        <ele>1723.1999511719</ele>
        <time>2021-09-01T12:09:02Z</time>
      </trkpt>
      <trkpt lat="44.8102" lon="6.16333">
        <ele>1723</ele>
        <time>2021-09-01T12:09:04Z</time>
      </trkpt>
      <trkpt lat="44.81037" lon="6.16339">
        <ele>1719.8000488281</ele>
        <time>2021-09-01T12:09:27Z</time>
      </trkpt>
      <trkpt lat="44.81055" lon="6.16347">
        <ele>1716.8000488281</ele>
        <time>2021-09-01T12:09:47Z</time>
      </trkpt>
      <trkpt lat="44.81071" lon="6.16358">
        <ele>1713.5999755859</ele>
        <time>2021-09-01T12:10:08Z</time>
      </trkpt>
      <trkpt lat="44.81082" lon="6.16361">
        <ele>1711.5999755859</ele>
        <time>2021-09-01T12:10:22Z</time>
      </trkpt>
      <trkpt lat="44.81092" lon="6.16368">
        <ele>1708.5999755859</ele>
        <time>2021-09-01T12:10:46Z</time>
      </trkpt>
      <trkpt lat="44.81071" lon="6.16378">
        <ele>1705.4000244141</ele>
        <time>2021-09-01T12:11:06Z</time>
      </trkpt>
      <trkpt lat="44.81053" lon="6.1638">
        <ele>1702.4000244141</ele>
        <time>2021-09-01T12:11:26Z</time>
      </trkpt>
      <trkpt lat="44.8105" lon="6.16382">
        <ele>1702</ele>
        <time>2021-09-01T12:11:30Z</time>
      </trkpt>
      <trkpt lat="44.81035" lon="6.16381">
        <ele>1698.5999755859</ele>
        <time>2021-09-01T12:11:49Z</time>
      </trkpt>
      <trkpt lat="44.81019" lon="6.16389">
        <ele>1696</ele>
        <time>2021-09-01T12:12:08Z</time>
      </trkpt>
      <trkpt lat="44.81009" lon="6.164">
        <ele>1692.8000488281</ele>
        <time>2021-09-01T12:12:29Z</time>
      </trkpt>
      <trkpt lat="44.8101" lon="6.164">
        <ele>1692.1999511719</ele>
        <time>2021-09-01T12:12:32Z</time>
      </trkpt>
      <trkpt lat="44.81032" lon="6.16401">
        <ele>1689.8000488281</ele>
        <time>2021-09-01T12:12:52Z</time>
      </trkpt>
      <trkpt lat="44.81049" lon="6.16402">
        <ele>1686.5999755859</ele>
        <time>2021-09-01T12:13:10Z</time>
      </trkpt>
      <trkpt lat="44.81066" lon="6.16415">
        <ele>1683.4000244141</ele>
        <time>2021-09-01T12:13:31Z</time>
      </trkpt>
      <trkpt lat="44.8108" lon="6.16427">
        <ele>1680.4000244141</ele>
        <time>2021-09-01T12:13:51Z</time>
      </trkpt>
      <trkpt lat="44.81098" lon="6.16434">
        <ele>1677.4000244141</ele>
        <time>2021-09-01T12:14:12Z</time>
      </trkpt>
      <trkpt lat="44.81099" lon="6.16435">
        <ele>1677</ele>
        <time>2021-09-01T12:14:18Z</time>
      </trkpt>
      <trkpt lat="44.81079" lon="6.16439">
        <ele>1674</ele>
        <time>2021-09-01T12:14:42Z</time>
      </trkpt>
      <trkpt lat="44.81064" lon="6.16446">
        <ele>1670.8000488281</ele>
        <time>2021-09-01T12:15:00Z</time>
      </trkpt>
      <trkpt lat="44.81042" lon="6.16445">
        <ele>1667.8000488281</ele>
        <time>2021-09-01T12:15:21Z</time>
      </trkpt>
      <trkpt lat="44.81029" lon="6.1645">
        <ele>1665</ele>
        <time>2021-09-01T12:15:42Z</time>
      </trkpt>
      <trkpt lat="44.81034" lon="6.16453">
        <ele>1663</ele>
        <time>2021-09-01T12:16:00Z</time>
      </trkpt>
      <trkpt lat="44.8105" lon="6.16468">
        <ele>1659.8000488281</ele>
        <time>2021-09-01T12:16:23Z</time>
      </trkpt>
      <trkpt lat="44.8106" lon="6.16472">
        <ele>1656.8000488281</ele>
        <time>2021-09-01T12:16:40Z</time>
      </trkpt>
      <trkpt lat="44.81039" lon="6.16473">
        <ele>1653.8000488281</ele>
        <time>2021-09-01T12:17:00Z</time>
      </trkpt>
      <trkpt lat="44.8103" lon="6.16485">
        <ele>1650.5999755859</ele>
        <time>2021-09-01T12:17:19Z</time>
      </trkpt>
      <trkpt lat="44.81019" lon="6.16496">
        <ele>1647.8000488281</ele>
        <time>2021-09-01T12:17:40Z</time>
      </trkpt>
      <trkpt lat="44.81022" lon="6.16502">
        <ele>1645</ele>
        <time>2021-09-01T12:17:58Z</time>
      </trkpt>
      <trkpt lat="44.81038" lon="6.16511">
        <ele>1641.8000488281</ele>
        <time>2021-09-01T12:18:20Z</time>
      </trkpt>
      <trkpt lat="44.81053" lon="6.1652">
        <ele>1638.5999755859</ele>
        <time>2021-09-01T12:18:39Z</time>
      </trkpt>
      <trkpt lat="44.81052" lon="6.16523">
        <ele>1635.5999755859</ele>
        <time>2021-09-01T12:19:01Z</time>
      </trkpt>
      <trkpt lat="44.8105" lon="6.16524">
        <ele>1635.1999511719</ele>
        <time>2021-09-01T12:19:04Z</time>
      </trkpt>
      <trkpt lat="44.81036" lon="6.16535">
        <ele>1632</ele>
        <time>2021-09-01T12:19:24Z</time>
      </trkpt>
      <trkpt lat="44.81029" lon="6.16549">
        <ele>1629</ele>
        <time>2021-09-01T12:19:43Z</time>
      </trkpt>
      <trkpt lat="44.81031" lon="6.16559">
        <ele>1626.5999755859</ele>
        <time>2021-09-01T12:20:02Z</time>
      </trkpt>
      <trkpt lat="44.81039" lon="6.16561">
        <ele>1624.4000244141</ele>
        <time>2021-09-01T12:20:17Z</time>
      </trkpt>
      <trkpt lat="44.81047" lon="6.16561">
        <ele>1621.8000488281</ele>
        <time>2021-09-01T12:20:31Z</time>
      </trkpt>
      <trkpt lat="44.8105" lon="6.16562">
        <ele>1620.5999755859</ele>
        <time>2021-09-01T12:20:37Z</time>
      </trkpt>
      <trkpt lat="44.81068" lon="6.16565">
        <ele>1617.4000244141</ele>
        <time>2021-09-01T12:20:57Z</time>
      </trkpt>
      <trkpt lat="44.8108" lon="6.16572">
        <ele>1614.4000244141</ele>
        <time>2021-09-01T12:21:16Z</time>
      </trkpt>
      <trkpt lat="44.81089" lon="6.16582">
        <ele>1611.1999511719</ele>
        <time>2021-09-01T12:21:35Z</time>
      </trkpt>
      <trkpt lat="44.81095" lon="6.16587">
        <ele>1609.4000244141</ele>
        <time>2021-09-01T12:21:45Z</time>
      </trkpt>
      <trkpt lat="44.81109" lon="6.16594">
        <ele>1606.4000244141</ele>
        <time>2021-09-01T12:22:06Z</time>
      </trkpt>
      <trkpt lat="44.81122" lon="6.16601">
        <ele>1603.4000244141</ele>
        <time>2021-09-01T12:22:28Z</time>
      </trkpt>
      <trkpt lat="44.81133" lon="6.1661">
        <ele>1600.1999511719</ele>
        <time>2021-09-01T12:22:49Z</time>
      </trkpt>
      <trkpt lat="44.8113" lon="6.16612">
        <ele>1598.1999511719</ele>
        <time>2021-09-01T12:23:03Z</time>
      </trkpt>
      <trkpt lat="44.81113" lon="6.1662">
        <ele>1595.1999511719</ele>
        <time>2021-09-01T12:23:26Z</time>
      </trkpt>
      <trkpt lat="44.81095" lon="6.16631">
        <ele>1592</ele>
        <time>2021-09-01T12:23:53Z</time>
      </trkpt>
      <trkpt lat="44.81097" lon="6.16631">
        <ele>1591.5999755859</ele>
        <time>2021-09-01T12:23:58Z</time>
      </trkpt>
      <trkpt lat="44.81096" lon="6.16635">
        <ele>1589</ele>
        <time>2021-09-01T12:24:29Z</time>
      </trkpt>
      <trkpt lat="44.81105" lon="6.16628">
        <ele>1588.4000244141</ele>
        <time>2021-09-01T12:24:55Z</time>
      </trkpt>
      <trkpt lat="44.81117" lon="6.16639">
        <ele>1585.4000244141</ele>
        <time>2021-09-01T12:25:19Z</time>
      </trkpt>
      <trkpt lat="44.81129" lon="6.16648">
        <ele>1582.1999511719</ele>
        <time>2021-09-01T12:25:39Z</time>
      </trkpt>
      <trkpt lat="44.81139" lon="6.16652">
        <ele>1579</ele>
        <time>2021-09-01T12:25:56Z</time>
      </trkpt>
      <trkpt lat="44.81146" lon="6.16661">
        <ele>1576</ele>
        <time>2021-09-01T12:26:12Z</time>
      </trkpt>
      <trkpt lat="44.81157" lon="6.1667">
        <ele>1572.8000488281</ele>
        <time>2021-09-01T12:26:26Z</time>
      </trkpt>
      <trkpt lat="44.81163" lon="6.1668">
        <ele>1569.8000488281</ele>
        <time>2021-09-01T12:26:43Z</time>
      </trkpt>
      <trkpt lat="44.81173" lon="6.16691">
        <ele>1566.5999755859</ele>
        <time>2021-09-01T12:27:03Z</time>
      </trkpt>
      <trkpt lat="44.81183" lon="6.167">
        <ele>1563.5999755859</ele>
        <time>2021-09-01T12:27:21Z</time>
      </trkpt>
      <trkpt lat="44.81187" lon="6.16701">
        <ele>1561.4000244141</ele>
        <time>2021-09-01T12:27:31Z</time>
      </trkpt>
      <trkpt lat="44.81169" lon="6.16707">
        <ele>1558.5999755859</ele>
        <time>2021-09-01T12:27:51Z</time>
      </trkpt>
      <trkpt lat="44.81157" lon="6.16711">
        <ele>1555.5999755859</ele>
        <time>2021-09-01T12:28:08Z</time>
      </trkpt>
      <trkpt lat="44.81142" lon="6.16722">
        <ele>1552.5999755859</ele>
        <time>2021-09-01T12:28:31Z</time>
      </trkpt>
      <trkpt lat="44.81131" lon="6.16724">
        <ele>1549.4000244141</ele>
        <time>2021-09-01T12:28:49Z</time>
      </trkpt>
      <trkpt lat="44.81124" lon="6.16731">
        <ele>1548</ele>
        <time>2021-09-01T12:29:07Z</time>
      </trkpt>
      <trkpt lat="44.81124" lon="6.1673">
        <ele>1547.4000244141</ele>
        <time>2021-09-01T12:29:28Z</time>
      </trkpt>
      <trkpt lat="44.81125" lon="6.16739">
        <ele>1546.4000244141</ele>
        <time>2021-09-01T12:29:44Z</time>
      </trkpt>
      <trkpt lat="44.81136" lon="6.1676">
        <ele>1545.4000244141</ele>
        <time>2021-09-01T12:30:06Z</time>
      </trkpt>
      <trkpt lat="44.81135" lon="6.16779">
        <ele>1546.8000488281</ele>
        <time>2021-09-01T12:30:27Z</time>
      </trkpt>
      <trkpt lat="44.81136" lon="6.16795">
        <ele>1548</ele>
        <time>2021-09-01T12:30:45Z</time>
      </trkpt>
      <trkpt lat="44.81137" lon="6.16812">
        <ele>1548.5999755859</ele>
        <time>2021-09-01T12:31:01Z</time>
      </trkpt>
      <trkpt lat="44.81146" lon="6.16828">
        <ele>1549.1999511719</ele>
        <time>2021-09-01T12:31:23Z</time>
      </trkpt>
      <trkpt lat="44.81154" lon="6.16849">
        <ele>1550.1999511719</ele>
        <time>2021-09-01T12:31:49Z</time>
      </trkpt>
      <trkpt lat="44.81159" lon="6.16868">
        <ele>1550.1999511719</ele>
        <time>2021-09-01T12:32:11Z</time>
      </trkpt>
      <trkpt lat="44.81163" lon="6.16885">
        <ele>1549.5999755859</ele>
        <time>2021-09-01T12:32:29Z</time>
      </trkpt>
      <trkpt lat="44.81163" lon="6.16898">
        <ele>1549.1999511719</ele>
        <time>2021-09-01T12:32:45Z</time>
      </trkpt>
      <trkpt lat="44.81168" lon="6.16915">
        <ele>1547.1999511719</ele>
        <time>2021-09-01T12:33:06Z</time>
      </trkpt>
      <trkpt lat="44.81169" lon="6.16931">
        <ele>1548</ele>
        <time>2021-09-01T12:33:30Z</time>
      </trkpt>
      <trkpt lat="44.81175" lon="6.16946">
        <ele>1547.8000488281</ele>
        <time>2021-09-01T12:33:50Z</time>
      </trkpt>
      <trkpt lat="44.81184" lon="6.16962">
        <ele>1546.5999755859</ele>
        <time>2021-09-01T12:34:09Z</time>
      </trkpt>
      <trkpt lat="44.81187" lon="6.16987">
        <ele>1545.1999511719</ele>
        <time>2021-09-01T12:34:30Z</time>
      </trkpt>
      <trkpt lat="44.81189" lon="6.17008">
        <ele>1543.8000488281</ele>
        <time>2021-09-01T12:34:46Z</time>
      </trkpt>
      <trkpt lat="44.81197" lon="6.17042">
        <ele>1542.8000488281</ele>
        <time>2021-09-01T12:35:11Z</time>
      </trkpt>
      <trkpt lat="44.81207" lon="6.17068">
        <ele>1544.1999511719</ele>
        <time>2021-09-01T12:35:35Z</time>
      </trkpt>
      <trkpt lat="44.81212" lon="6.17086">
        <ele>1547.4000244141</ele>
        <time>2021-09-01T12:35:53Z</time>
      </trkpt>
      <trkpt lat="44.81214" lon="6.171">
        <ele>1547.4000244141</ele>
        <time>2021-09-01T12:36:09Z</time>
      </trkpt>
      <trkpt lat="44.81223" lon="6.17124">
        <ele>1546.4000244141</ele>
        <time>2021-09-01T12:36:39Z</time>
      </trkpt>
      <trkpt lat="44.81226" lon="6.17133">
        <ele>1545.8000488281</ele>
        <time>2021-09-01T12:36:55Z</time>
      </trkpt>
      <trkpt lat="44.81233" lon="6.1714">
        <ele>1545.5999755859</ele>
        <time>2021-09-01T12:37:11Z</time>
      </trkpt>
      <trkpt lat="44.81241" lon="6.17168">
        <ele>1543.8000488281</ele>
        <time>2021-09-01T12:37:34Z</time>
      </trkpt>
      <trkpt lat="44.8125" lon="6.1719">
        <ele>1541</ele>
        <time>2021-09-01T12:37:56Z</time>
      </trkpt>
      <trkpt lat="44.81258" lon="6.17208">
        <ele>1539.1999511719</ele>
        <time>2021-09-01T12:38:20Z</time>
      </trkpt>
      <trkpt lat="44.81263" lon="6.17222">
        <ele>1538.1999511719</ele>
        <time>2021-09-01T12:38:35Z</time>
      </trkpt>
      <trkpt lat="44.81271" lon="6.1724">
        <ele>1537.4000244141</ele>
        <time>2021-09-01T12:38:56Z</time>
      </trkpt>
      <trkpt lat="44.81273" lon="6.17263">
        <ele>1537.4000244141</ele>
        <time>2021-09-01T12:39:18Z</time>
      </trkpt>
      <trkpt lat="44.81284" lon="6.17281">
        <ele>1538</ele>
        <time>2021-09-01T12:39:43Z</time>
      </trkpt>
      <trkpt lat="44.81301" lon="6.17307">
        <ele>1537.4000244141</ele>
        <time>2021-09-01T12:40:11Z</time>
      </trkpt>
      <trkpt lat="44.81307" lon="6.17321">
        <ele>1536.5999755859</ele>
        <time>2021-09-01T12:40:34Z</time>
      </trkpt>
      <trkpt lat="44.8132" lon="6.17339">
        <ele>1535.1999511719</ele>
        <time>2021-09-01T12:40:59Z</time>
      </trkpt>
      <trkpt lat="44.8132" lon="6.17343">
        <ele>1534.4000244141</ele>
        <time>2021-09-01T12:41:04Z</time>
      </trkpt>
      <trkpt lat="44.81331" lon="6.17364">
        <ele>1531.4000244141</ele>
        <time>2021-09-01T12:41:28Z</time>
      </trkpt>
      <trkpt lat="44.81342" lon="6.17376">
        <ele>1530.5999755859</ele>
        <time>2021-09-01T12:41:48Z</time>
      </trkpt>
      <trkpt lat="44.81354" lon="6.17384">
        <ele>1531.4000244141</ele>
        <time>2021-09-01T12:42:14Z</time>
      </trkpt>
      <trkpt lat="44.81362" lon="6.17398">
        <ele>1533</ele>
        <time>2021-09-01T12:42:36Z</time>
      </trkpt>
      <trkpt lat="44.81367" lon="6.174">
        <ele>1533.1999511719</ele>
        <time>2021-09-01T12:42:48Z</time>
      </trkpt>
      <trkpt lat="44.81378" lon="6.17408">
        <ele>1531.8000488281</ele>
        <time>2021-09-01T12:43:09Z</time>
      </trkpt>
      <trkpt lat="44.81388" lon="6.17417">
        <ele>1531.4000244141</ele>
        <time>2021-09-01T12:43:28Z</time>
      </trkpt>
      <trkpt lat="44.81389" lon="6.17419">
        <ele>1531.1999511719</ele>
        <time>2021-09-01T12:43:31Z</time>
      </trkpt>
      <trkpt lat="44.81388" lon="6.17425">
        <ele>1531</ele>
        <time>2021-09-01T12:43:51Z</time>
      </trkpt>
      <trkpt lat="44.81389" lon="6.17428">
        <ele>1529.8000488281</ele>
        <time>2021-09-01T12:44:08Z</time>
      </trkpt>
      <trkpt lat="44.81393" lon="6.17429">
        <ele>1529.4000244141</ele>
        <time>2021-09-01T12:44:17Z</time>
      </trkpt>
      <trkpt lat="44.8139" lon="6.17446">
        <ele>1528.5999755859</ele>
        <time>2021-09-01T12:44:39Z</time>
      </trkpt>
      <trkpt lat="44.81386" lon="6.17457">
        <ele>1531.1999511719</ele>
        <time>2021-09-01T12:44:53Z</time>
      </trkpt>
      <trkpt lat="44.81385" lon="6.17478">
        <ele>1533.4000244141</ele>
        <time>2021-09-01T12:45:11Z</time>
      </trkpt>
      <trkpt lat="44.8138" lon="6.17489">
        <ele>1534.4000244141</ele>
        <time>2021-09-01T12:45:27Z</time>
      </trkpt>
      <trkpt lat="44.81378" lon="6.17508">
        <ele>1534</ele>
        <time>2021-09-01T12:45:54Z</time>
      </trkpt>
      <trkpt lat="44.81377" lon="6.17512">
        <ele>1533.8000488281</ele>
        <time>2021-09-01T12:46:02Z</time>
      </trkpt>
      <trkpt lat="44.81368" lon="6.17532">
        <ele>1533.8000488281</ele>
        <time>2021-09-01T12:46:19Z</time>
      </trkpt>
      <trkpt lat="44.81364" lon="6.17546">
        <ele>1534.5999755859</ele>
        <time>2021-09-01T12:46:33Z</time>
      </trkpt>
      <trkpt lat="44.81361" lon="6.17559">
        <ele>1536.4000244141</ele>
        <time>2021-09-01T12:46:46Z</time>
      </trkpt>
      <trkpt lat="44.81357" lon="6.17579">
        <ele>1538.8000488281</ele>
        <time>2021-09-01T12:47:09Z</time>
      </trkpt>
      <trkpt lat="44.81347" lon="6.17597">
        <ele>1540.4000244141</ele>
        <time>2021-09-01T12:47:32Z</time>
      </trkpt>
      <trkpt lat="44.81331" lon="6.17605">
        <ele>1538.4000244141</ele>
        <time>2021-09-01T12:47:55Z</time>
      </trkpt>
      <trkpt lat="44.81325" lon="6.17612">
        <ele>1538.1999511719</ele>
        <time>2021-09-01T12:48:04Z</time>
      </trkpt>
      <trkpt lat="44.81322" lon="6.17615">
        <ele>1537.5999755859</ele>
        <time>2021-09-01T12:48:07Z</time>
      </trkpt>
      <trkpt lat="44.81311" lon="6.17624">
        <ele>1535.5999755859</ele>
        <time>2021-09-01T12:48:24Z</time>
      </trkpt>
      <trkpt lat="44.81306" lon="6.17625">
        <ele>1534.4000244141</ele>
        <time>2021-09-01T12:48:34Z</time>
      </trkpt>
      <trkpt lat="44.81301" lon="6.17629">
        <ele>1533.8000488281</ele>
        <time>2021-09-01T12:48:39Z</time>
      </trkpt>
      <trkpt lat="44.81297" lon="6.1764">
        <ele>1532.8000488281</ele>
        <time>2021-09-01T12:48:44Z</time>
      </trkpt>
      <trkpt lat="44.81294" lon="6.1765">
        <ele>1532.4000244141</ele>
        <time>2021-09-01T12:48:52Z</time>
      </trkpt>
      <trkpt lat="44.81296" lon="6.17655">
        <ele>1530.5999755859</ele>
        <time>2021-09-01T12:49:08Z</time>
      </trkpt>
      <trkpt lat="44.81305" lon="6.17656">
        <ele>1528.5999755859</ele>
        <time>2021-09-01T12:49:22Z</time>
      </trkpt>
      <trkpt lat="44.81299" lon="6.17657">
        <ele>1528.8000488281</ele>
        <time>2021-09-01T12:49:39Z</time>
      </trkpt>
      <trkpt lat="44.81304" lon="6.17659">
        <ele>1529</ele>
        <time>2021-09-01T12:49:43Z</time>
      </trkpt>
      <trkpt lat="44.81307" lon="6.17661">
        <ele>1529</ele>
        <time>2021-09-01T12:49:49Z</time>
      </trkpt>
      <trkpt lat="44.81314" lon="6.17668">
        <ele>1528.4000244141</ele>
        <time>2021-09-01T12:50:05Z</time>
      </trkpt>
      <trkpt lat="44.81317" lon="6.17688">
        <ele>1528.5999755859</ele>
        <time>2021-09-01T12:50:27Z</time>
      </trkpt>
      <trkpt lat="44.81319" lon="6.17706">
        <ele>1529.5999755859</ele>
        <time>2021-09-01T12:50:44Z</time>
      </trkpt>
      <trkpt lat="44.81323" lon="6.17723">
        <ele>1528.4000244141</ele>
        <time>2021-09-01T12:51:02Z</time>
      </trkpt>
      <trkpt lat="44.81323" lon="6.17744">
        <ele>1525.8000488281</ele>
        <time>2021-09-01T12:51:25Z</time>
      </trkpt>
      <trkpt lat="44.8132" lon="6.1776">
        <ele>1523.8000488281</ele>
        <time>2021-09-01T12:51:38Z</time>
      </trkpt>
      <trkpt lat="44.81319" lon="6.17777">
        <ele>1525</ele>
        <time>2021-09-01T12:51:59Z</time>
      </trkpt>
      <trkpt lat="44.81325" lon="6.17787">
        <ele>1528.4000244141</ele>
        <time>2021-09-01T12:52:19Z</time>
      </trkpt>
      <trkpt lat="44.81332" lon="6.17792">
        <ele>1531.1999511719</ele>
        <time>2021-09-01T12:52:39Z</time>
      </trkpt>
      <trkpt lat="44.81336" lon="6.17811">
        <ele>1530</ele>
        <time>2021-09-01T12:53:05Z</time>
      </trkpt>
      <trkpt lat="44.81336" lon="6.17826">
        <ele>1527.5999755859</ele>
        <time>2021-09-01T12:53:23Z</time>
      </trkpt>
      <trkpt lat="44.81335" lon="6.17829">
        <ele>1527.1999511719</ele>
        <time>2021-09-01T12:53:25Z</time>
      </trkpt>
      <trkpt lat="44.81328" lon="6.1785">
        <ele>1525.5999755859</ele>
        <time>2021-09-01T12:53:46Z</time>
      </trkpt>
      <trkpt lat="44.81321" lon="6.17874">
        <ele>1524.8000488281</ele>
        <time>2021-09-01T12:54:10Z</time>
      </trkpt>
      <trkpt lat="44.81317" lon="6.1789">
        <ele>1525</ele>
        <time>2021-09-01T12:54:25Z</time>
      </trkpt>
      <trkpt lat="44.81314" lon="6.17909">
        <ele>1523</ele>
        <time>2021-09-01T12:54:49Z</time>
      </trkpt>
      <trkpt lat="44.81317" lon="6.17925">
        <ele>1520</ele>
        <time>2021-09-01T12:55:08Z</time>
      </trkpt>
      <trkpt lat="44.81313" lon="6.17951">
        <ele>1519.1999511719</ele>
        <time>2021-09-01T12:55:38Z</time>
      </trkpt>
      <trkpt lat="44.8131" lon="6.17968">
        <ele>1518.1999511719</ele>
        <time>2021-09-01T12:55:58Z</time>
      </trkpt>
      <trkpt lat="44.81309" lon="6.17974">
        <ele>1517.1999511719</ele>
        <time>2021-09-01T12:56:06Z</time>
      </trkpt>
      <trkpt lat="44.8131" lon="6.17977">
        <ele>1516.8000488281</ele>
        <time>2021-09-01T12:56:09Z</time>
      </trkpt>
      <trkpt lat="44.81319" lon="6.17984">
        <ele>1513.5999755859</ele>
        <time>2021-09-01T12:56:29Z</time>
      </trkpt>
      <trkpt lat="44.81325" lon="6.18">
        <ele>1510.5999755859</ele>
        <time>2021-09-01T12:56:51Z</time>
      </trkpt>
      <trkpt lat="44.81324" lon="6.18024">
        <ele>1508</ele>
        <time>2021-09-01T12:57:15Z</time>
      </trkpt>
      <trkpt lat="44.81323" lon="6.18048">
        <ele>1505</ele>
        <time>2021-09-01T12:57:40Z</time>
      </trkpt>
      <trkpt lat="44.81323" lon="6.18049">
        <ele>1504.8000488281</ele>
        <time>2021-09-01T12:57:42Z</time>
      </trkpt>
      <trkpt lat="44.81319" lon="6.18075">
        <ele>1501.5999755859</ele>
        <time>2021-09-01T12:58:01Z</time>
      </trkpt>
      <trkpt lat="44.81327" lon="6.18091">
        <ele>1498.5999755859</ele>
        <time>2021-09-01T12:58:22Z</time>
      </trkpt>
      <trkpt lat="44.81335" lon="6.181">
        <ele>1497.1999511719</ele>
        <time>2021-09-01T12:58:45Z</time>
      </trkpt>
      <trkpt lat="44.81338" lon="6.18106">
        <ele>1496.8000488281</ele>
        <time>2021-09-01T12:58:50Z</time>
      </trkpt>
      <trkpt lat="44.81343" lon="6.18132">
        <ele>1494.1999511719</ele>
        <time>2021-09-01T12:59:11Z</time>
      </trkpt>
      <trkpt lat="44.81333" lon="6.18166">
        <ele>1492.5999755859</ele>
        <time>2021-09-01T12:59:37Z</time>
      </trkpt>
      <trkpt lat="44.81333" lon="6.18168">
        <ele>1492.5999755859</ele>
        <time>2021-09-01T12:59:38Z</time>
      </trkpt>
      <trkpt lat="44.81325" lon="6.18193">
        <ele>1492.5999755859</ele>
        <time>2021-09-01T12:59:57Z</time>
      </trkpt>
      <trkpt lat="44.81316" lon="6.18211">
        <ele>1492.1999511719</ele>
        <time>2021-09-01T13:00:13Z</time>
      </trkpt>
      <trkpt lat="44.81308" lon="6.18222">
        <ele>1492.8000488281</ele>
        <time>2021-09-01T13:00:29Z</time>
      </trkpt>
      <trkpt lat="44.81299" lon="6.18236">
        <ele>1492.4000244141</ele>
        <time>2021-09-01T13:00:51Z</time>
      </trkpt>
      <trkpt lat="44.81303" lon="6.18263">
        <ele>1491.8000488281</ele>
        <time>2021-09-01T13:01:12Z</time>
      </trkpt>
      <trkpt lat="44.81301" lon="6.1828">
        <ele>1491</ele>
        <time>2021-09-01T13:01:31Z</time>
      </trkpt>
      <trkpt lat="44.81295" lon="6.18297">
        <ele>1489</ele>
        <time>2021-09-01T13:01:45Z</time>
      </trkpt>
      <trkpt lat="44.81283" lon="6.18316">
        <ele>1486</ele>
        <time>2021-09-01T13:02:06Z</time>
      </trkpt>
      <trkpt lat="44.8127" lon="6.18338">
        <ele>1485</ele>
        <time>2021-09-01T13:02:29Z</time>
      </trkpt>
      <trkpt lat="44.81257" lon="6.18359">
        <ele>1482</ele>
        <time>2021-09-01T13:02:47Z</time>
      </trkpt>
      <trkpt lat="44.81246" lon="6.1838">
        <ele>1481</ele>
        <time>2021-09-01T13:03:09Z</time>
      </trkpt>
      <trkpt lat="44.81237" lon="6.18397">
        <ele>1479</ele>
        <time>2021-09-01T13:03:28Z</time>
      </trkpt>
      <trkpt lat="44.81234" lon="6.18405">
        <ele>1478.1999511719</ele>
        <time>2021-09-01T13:03:34Z</time>
      </trkpt>
      <trkpt lat="44.81225" lon="6.18426">
        <ele>1476.8000488281</ele>
        <time>2021-09-01T13:03:50Z</time>
      </trkpt>
      <trkpt lat="44.81215" lon="6.18454">
        <ele>1475.4000244141</ele>
        <time>2021-09-01T13:04:14Z</time>
      </trkpt>
      <trkpt lat="44.81215" lon="6.18468">
        <ele>1476</ele>
        <time>2021-09-01T13:04:27Z</time>
      </trkpt>
      <trkpt lat="44.81207" lon="6.18478">
        <ele>1477</ele>
        <time>2021-09-01T13:04:50Z</time>
      </trkpt>
      <trkpt lat="44.81213" lon="6.18476">
        <ele>1477</ele>
        <time>2021-09-01T13:05:36Z</time>
      </trkpt>
      <trkpt lat="44.81208" lon="6.18479">
        <ele>1477</ele>
        <time>2021-09-01T13:05:59Z</time>
      </trkpt>
      <trkpt lat="44.81209" lon="6.18492">
        <ele>1477.5999755859</ele>
        <time>2021-09-01T13:06:19Z</time>
      </trkpt>
      <trkpt lat="44.81207" lon="6.18517">
        <ele>1480</ele>
        <time>2021-09-01T13:06:40Z</time>
      </trkpt>
      <trkpt lat="44.81212" lon="6.1854">
        <ele>1481.5999755859</ele>
        <time>2021-09-01T13:07:04Z</time>
      </trkpt>
      <trkpt lat="44.8122" lon="6.18569">
        <ele>1481.4000244141</ele>
        <time>2021-09-01T13:07:31Z</time>
      </trkpt>
      <trkpt lat="44.81216" lon="6.18593">
        <ele>1478.8000488281</ele>
        <time>2021-09-01T13:07:51Z</time>
      </trkpt>
      <trkpt lat="44.81221" lon="6.18615">
        <ele>1475.5999755859</ele>
        <time>2021-09-01T13:08:13Z</time>
      </trkpt>
      <trkpt lat="44.81225" lon="6.1863">
        <ele>1472.5999755859</ele>
        <time>2021-09-01T13:08:28Z</time>
      </trkpt>
      <trkpt lat="44.81226" lon="6.18644">
        <ele>1469.5999755859</ele>
        <time>2021-09-01T13:08:41Z</time>
      </trkpt>
      <trkpt lat="44.81224" lon="6.1866">
        <ele>1467.1999511719</ele>
        <time>2021-09-01T13:09:04Z</time>
      </trkpt>
      <trkpt lat="44.81224" lon="6.18686">
        <ele>1466.1999511719</ele>
        <time>2021-09-01T13:09:25Z</time>
      </trkpt>
      <trkpt lat="44.81235" lon="6.18716">
        <ele>1468</ele>
        <time>2021-09-01T13:09:55Z</time>
      </trkpt>
      <trkpt lat="44.81253" lon="6.1873">
        <ele>1471.1999511719</ele>
        <time>2021-09-01T13:10:19Z</time>
      </trkpt>
      <trkpt lat="44.81262" lon="6.18759">
        <ele>1472.4000244141</ele>
        <time>2021-09-01T13:10:42Z</time>
      </trkpt>
      <trkpt lat="44.81264" lon="6.18768">
        <ele>1472.4000244141</ele>
        <time>2021-09-01T13:10:48Z</time>
      </trkpt>
      <trkpt lat="44.81271" lon="6.18789">
        <ele>1471.1999511719</ele>
        <time>2021-09-01T13:11:03Z</time>
      </trkpt>
      <trkpt lat="44.81275" lon="6.18806">
        <ele>1470.8000488281</ele>
        <time>2021-09-01T13:11:15Z</time>
      </trkpt>
      <trkpt lat="44.81276" lon="6.18826">
        <ele>1469.8000488281</ele>
        <time>2021-09-01T13:11:31Z</time>
      </trkpt>
      <trkpt lat="44.81274" lon="6.18847">
        <ele>1466.5999755859</ele>
        <time>2021-09-01T13:11:55Z</time>
      </trkpt>
      <trkpt lat="44.8128" lon="6.18863">
        <ele>1463.5999755859</ele>
        <time>2021-09-01T13:12:14Z</time>
      </trkpt>
      <trkpt lat="44.81288" lon="6.18852">
        <ele>1460.4000244141</ele>
        <time>2021-09-01T13:12:32Z</time>
      </trkpt>
      <trkpt lat="44.81291" lon="6.18854">
        <ele>1457.4000244141</ele>
        <time>2021-09-01T13:12:48Z</time>
      </trkpt>
      <trkpt lat="44.81296" lon="6.18872">
        <ele>1454.4000244141</ele>
        <time>2021-09-01T13:13:06Z</time>
      </trkpt>
      <trkpt lat="44.81302" lon="6.18885">
        <ele>1451.4000244141</ele>
        <time>2021-09-01T13:13:24Z</time>
      </trkpt>
      <trkpt lat="44.81302" lon="6.18897">
        <ele>1448.8000488281</ele>
        <time>2021-09-01T13:13:39Z</time>
      </trkpt>
      <trkpt lat="44.81303" lon="6.18913">
        <ele>1445.5999755859</ele>
        <time>2021-09-01T13:13:54Z</time>
      </trkpt>
      <trkpt lat="44.81306" lon="6.18929">
        <ele>1442.5999755859</ele>
        <time>2021-09-01T13:14:11Z</time>
      </trkpt>
      <trkpt lat="44.81308" lon="6.18942">
        <ele>1439.5999755859</ele>
        <time>2021-09-01T13:14:29Z</time>
      </trkpt>
      <trkpt lat="44.81314" lon="6.18953">
        <ele>1436.4000244141</ele>
        <time>2021-09-01T13:14:46Z</time>
      </trkpt>
      <trkpt lat="44.81316" lon="6.18963">
        <ele>1433.4000244141</ele>
        <time>2021-09-01T13:15:03Z</time>
      </trkpt>
      <trkpt lat="44.81314" lon="6.18977">
        <ele>1430.1999511719</ele>
        <time>2021-09-01T13:15:29Z</time>
      </trkpt>
      <trkpt lat="44.81315" lon="6.18989">
        <ele>1427</ele>
        <time>2021-09-01T13:15:45Z</time>
      </trkpt>
      <trkpt lat="44.81317" lon="6.18999">
        <ele>1424</ele>
        <time>2021-09-01T13:16:00Z</time>
      </trkpt>
      <trkpt lat="44.81314" lon="6.19011">
        <ele>1421</ele>
        <time>2021-09-01T13:16:17Z</time>
      </trkpt>
      <trkpt lat="44.81313" lon="6.19026">
        <ele>1418</ele>
        <time>2021-09-01T13:16:39Z</time>
      </trkpt>
      <trkpt lat="44.8131" lon="6.19044">
        <ele>1415</ele>
        <time>2021-09-01T13:16:57Z</time>
      </trkpt>
      <trkpt lat="44.81306" lon="6.19058">
        <ele>1411.8000488281</ele>
        <time>2021-09-01T13:17:14Z</time>
      </trkpt>
      <trkpt lat="44.81296" lon="6.19074">
        <ele>1408.5999755859</ele>
        <time>2021-09-01T13:17:34Z</time>
      </trkpt>
      <trkpt lat="44.81283" lon="6.19099">
        <ele>1406.5999755859</ele>
        <time>2021-09-01T13:17:57Z</time>
      </trkpt>
      <trkpt lat="44.81279" lon="6.19104">
        <ele>1406.4000244141</ele>
        <time>2021-09-01T13:18:06Z</time>
      </trkpt>
      <trkpt lat="44.81272" lon="6.19124">
        <ele>1404</ele>
        <time>2021-09-01T13:18:30Z</time>
      </trkpt>
      <trkpt lat="44.8127" lon="6.19137">
        <ele>1400.8000488281</ele>
        <time>2021-09-01T13:18:53Z</time>
      </trkpt>
      <trkpt lat="44.81267" lon="6.19146">
        <ele>1397.8000488281</ele>
        <time>2021-09-01T13:19:14Z</time>
      </trkpt>
      <trkpt lat="44.81264" lon="6.19155">
        <ele>1395.5999755859</ele>
        <time>2021-09-01T13:19:31Z</time>
      </trkpt>
      <trkpt lat="44.81258" lon="6.19175">
        <ele>1392.5999755859</ele>
        <time>2021-09-01T13:19:48Z</time>
      </trkpt>
      <trkpt lat="44.81244" lon="6.19197">
        <ele>1391</ele>
        <time>2021-09-01T13:20:10Z</time>
      </trkpt>
      <trkpt lat="44.81236" lon="6.19215">
        <ele>1388.5999755859</ele>
        <time>2021-09-01T13:20:33Z</time>
      </trkpt>
      <trkpt lat="44.81233" lon="6.19219">
        <ele>1388.1999511719</ele>
        <time>2021-09-01T13:20:37Z</time>
      </trkpt>
      <trkpt lat="44.81223" lon="6.19233">
        <ele>1386.1999511719</ele>
        <time>2021-09-01T13:20:53Z</time>
      </trkpt>
      <trkpt lat="44.81213" lon="6.19245">
        <ele>1384.1999511719</ele>
        <time>2021-09-01T13:21:14Z</time>
      </trkpt>
      <trkpt lat="44.812" lon="6.19259">
        <ele>1381.4000244141</ele>
        <time>2021-09-01T13:21:36Z</time>
      </trkpt>
      <trkpt lat="44.81193" lon="6.19273">
        <ele>1379</ele>
        <time>2021-09-01T13:22:00Z</time>
      </trkpt>
      <trkpt lat="44.81189" lon="6.19278">
        <ele>1376.1999511719</ele>
        <time>2021-09-01T13:22:21Z</time>
      </trkpt>
      <trkpt lat="44.81178" lon="6.19282">
        <ele>1374</ele>
        <time>2021-09-01T13:22:44Z</time>
      </trkpt>
      <trkpt lat="44.81171" lon="6.19293">
        <ele>1370.8000488281</ele>
        <time>2021-09-01T13:23:01Z</time>
      </trkpt>
      <trkpt lat="44.81167" lon="6.19307">
        <ele>1367.8000488281</ele>
        <time>2021-09-01T13:23:21Z</time>
      </trkpt>
      <trkpt lat="44.81165" lon="6.19314">
        <ele>1364.8000488281</ele>
        <time>2021-09-01T13:23:42Z</time>
      </trkpt>
      <trkpt lat="44.81157" lon="6.19321">
        <ele>1361.4000244141</ele>
        <time>2021-09-01T13:24:00Z</time>
      </trkpt>
      <trkpt lat="44.81154" lon="6.19332">
        <ele>1358.4000244141</ele>
        <time>2021-09-01T13:24:20Z</time>
      </trkpt>
      <trkpt lat="44.81146" lon="6.19341">
        <ele>1355.4000244141</ele>
        <time>2021-09-01T13:24:41Z</time>
      </trkpt>
      <trkpt lat="44.81134" lon="6.19346">
        <ele>1352</ele>
        <time>2021-09-01T13:25:01Z</time>
      </trkpt>
      <trkpt lat="44.81124" lon="6.19353">
        <ele>1349</ele>
        <time>2021-09-01T13:25:21Z</time>
      </trkpt>
      <trkpt lat="44.81122" lon="6.19365">
        <ele>1345.8000488281</ele>
        <time>2021-09-01T13:25:44Z</time>
      </trkpt>
      <trkpt lat="44.81119" lon="6.19372">
        <ele>1343.4000244141</ele>
        <time>2021-09-01T13:26:04Z</time>
      </trkpt>
      <trkpt lat="44.8112" lon="6.19384">
        <ele>1340.4000244141</ele>
        <time>2021-09-01T13:26:20Z</time>
      </trkpt>
      <trkpt lat="44.81122" lon="6.19395">
        <ele>1337.4000244141</ele>
        <time>2021-09-01T13:26:39Z</time>
      </trkpt>
      <trkpt lat="44.81126" lon="6.19408">
        <ele>1334.1999511719</ele>
        <time>2021-09-01T13:26:58Z</time>
      </trkpt>
      <trkpt lat="44.81123" lon="6.19418">
        <ele>1331.1999511719</ele>
        <time>2021-09-01T13:27:17Z</time>
      </trkpt>
      <trkpt lat="44.81122" lon="6.19432">
        <ele>1328</ele>
        <time>2021-09-01T13:27:38Z</time>
      </trkpt>
      <trkpt lat="44.81121" lon="6.19443">
        <ele>1325</ele>
        <time>2021-09-01T13:27:59Z</time>
      </trkpt>
      <trkpt lat="44.8112" lon="6.19454">
        <ele>1322</ele>
        <time>2021-09-01T13:28:21Z</time>
      </trkpt>
      <trkpt lat="44.81116" lon="6.19466">
        <ele>1318.8000488281</ele>
        <time>2021-09-01T13:28:44Z</time>
      </trkpt>
      <trkpt lat="44.81124" lon="6.19482">
        <ele>1315.5999755859</ele>
        <time>2021-09-01T13:29:06Z</time>
      </trkpt>
      <trkpt lat="44.81132" lon="6.19506">
        <ele>1312.5999755859</ele>
        <time>2021-09-01T13:29:31Z</time>
      </trkpt>
      <trkpt lat="44.81123" lon="6.19501">
        <ele>1309.5999755859</ele>
        <time>2021-09-01T13:29:51Z</time>
      </trkpt>
      <trkpt lat="44.81112" lon="6.19495">
        <ele>1306.5999755859</ele>
        <time>2021-09-01T13:30:06Z</time>
      </trkpt>
      <trkpt lat="44.81108" lon="6.19494">
        <ele>1305.8000488281</ele>
        <time>2021-09-01T13:30:10Z</time>
      </trkpt>
      <trkpt lat="44.81106" lon="6.19492">
        <ele>1305.4000244141</ele>
        <time>2021-09-01T13:30:13Z</time>
      </trkpt>
      <trkpt lat="44.81101" lon="6.19489">
        <ele>1304.5999755859</ele>
        <time>2021-09-01T13:30:17Z</time>
      </trkpt>
      <trkpt lat="44.81091" lon="6.19487">
        <ele>1301.1999511719</ele>
        <time>2021-09-01T13:30:30Z</time>
      </trkpt>
      <trkpt lat="44.8109" lon="6.19488">
        <ele>1300.8000488281</ele>
        <time>2021-09-01T13:30:32Z</time>
      </trkpt>
      <trkpt lat="44.81074" lon="6.19495">
        <ele>1297.5999755859</ele>
        <time>2021-09-01T13:30:53Z</time>
      </trkpt>
      <trkpt lat="44.81064" lon="6.19503">
        <ele>1294.5999755859</ele>
        <time>2021-09-01T13:31:10Z</time>
      </trkpt>
      <trkpt lat="44.81045" lon="6.19501">
        <ele>1293.4000244141</ele>
        <time>2021-09-01T13:31:33Z</time>
      </trkpt>
      <trkpt lat="44.81035" lon="6.19522">
        <ele>1292.8000488281</ele>
        <time>2021-09-01T13:31:55Z</time>
      </trkpt>
      <trkpt lat="44.81032" lon="6.19545">
        <ele>1289.8000488281</ele>
        <time>2021-09-01T13:32:16Z</time>
      </trkpt>
      <trkpt lat="44.81029" lon="6.19558">
        <ele>1287.1999511719</ele>
        <time>2021-09-01T13:32:41Z</time>
      </trkpt>
      <trkpt lat="44.8103" lon="6.19562">
        <ele>1286.8000488281</ele>
        <time>2021-09-01T13:33:09Z</time>
      </trkpt>
      <trkpt lat="44.81026" lon="6.1956">
        <ele>1286.8000488281</ele>
        <time>2021-09-01T13:33:40Z</time>
      </trkpt>
      <trkpt lat="44.81025" lon="6.1956">
        <ele>1286.8000488281</ele>
        <time>2021-09-01T13:33:45Z</time>
      </trkpt>
      <trkpt lat="44.81031" lon="6.19561">
        <ele>1286.5999755859</ele>
        <time>2021-09-01T13:34:05Z</time>
      </trkpt>
      <trkpt lat="44.81027" lon="6.19564">
        <ele>1286.5999755859</ele>
        <time>2021-09-01T13:34:08Z</time>
      </trkpt>
      <trkpt lat="44.81008" lon="6.19561">
        <ele>1286.8000488281</ele>
        <time>2021-09-01T13:34:28Z</time>
      </trkpt>
      <trkpt lat="44.80989" lon="6.19562">
        <ele>1286.5999755859</ele>
        <time>2021-09-01T13:34:51Z</time>
      </trkpt>
      <trkpt lat="44.80978" lon="6.19566">
        <ele>1286.5999755859</ele>
        <time>2021-09-01T13:35:11Z</time>
      </trkpt>
      <trkpt lat="44.80973" lon="6.19566">
        <ele>1286.5999755859</ele>
        <time>2021-09-01T13:35:16Z</time>
      </trkpt>
      <trkpt lat="44.80959" lon="6.19562">
        <ele>1286.8000488281</ele>
        <time>2021-09-01T13:35:33Z</time>
      </trkpt>
      <trkpt lat="44.80953" lon="6.19558">
        <ele>1286.8000488281</ele>
        <time>2021-09-01T13:35:39Z</time>
      </trkpt>
      <trkpt lat="44.80942" lon="6.19552">
        <ele>1286.8000488281</ele>
        <time>2021-09-01T13:35:56Z</time>
      </trkpt>
      <trkpt lat="44.80926" lon="6.1954">
        <ele>1286.5999755859</ele>
        <time>2021-09-01T13:36:16Z</time>
      </trkpt>
      <trkpt lat="44.80914" lon="6.19532">
        <ele>1286.8000488281</ele>
        <time>2021-09-01T13:36:33Z</time>
      </trkpt>
      <trkpt lat="44.80896" lon="6.19522">
        <ele>1286.8000488281</ele>
        <time>2021-09-01T13:36:54Z</time>
      </trkpt>
      <trkpt lat="44.8088" lon="6.19512">
        <ele>1287</ele>
        <time>2021-09-01T13:37:18Z</time>
      </trkpt>
      <trkpt lat="44.80877" lon="6.19512">
        <ele>1287.1999511719</ele>
        <time>2021-09-01T13:37:32Z</time>
      </trkpt>
      <trkpt lat="44.80866" lon="6.19502">
        <ele>1284.1999511719</ele>
        <time>2021-09-01T13:37:51Z</time>
      </trkpt>
      <trkpt lat="44.80857" lon="6.19494">
        <ele>1282.4000244141</ele>
        <time>2021-09-01T13:38:15Z</time>
      </trkpt>
      <trkpt lat="44.80853" lon="6.19494">
        <ele>1280.4000244141</ele>
        <time>2021-09-01T13:38:35Z</time>
      </trkpt>
      <trkpt lat="44.80857" lon="6.195">
        <ele>1280</ele>
        <time>2021-09-01T13:38:41Z</time>
      </trkpt>
      <trkpt lat="44.8086" lon="6.19515">
        <ele>1276.8000488281</ele>
        <time>2021-09-01T13:38:57Z</time>
      </trkpt>
      <trkpt lat="44.80866" lon="6.19525">
        <ele>1274.1999511719</ele>
        <time>2021-09-01T13:39:12Z</time>
      </trkpt>
      <trkpt lat="44.8087" lon="6.19529">
        <ele>1273.1999511719</ele>
        <time>2021-09-01T13:39:20Z</time>
      </trkpt>
      <trkpt lat="44.80866" lon="6.19534">
        <ele>1271.4000244141</ele>
        <time>2021-09-01T13:39:45Z</time>
      </trkpt>
      <trkpt lat="44.8086" lon="6.19541">
        <ele>1270.4000244141</ele>
        <time>2021-09-01T13:40:05Z</time>
      </trkpt>
      <trkpt lat="44.80862" lon="6.19553">
        <ele>1267.4000244141</ele>
        <time>2021-09-01T13:40:21Z</time>
      </trkpt>
      <trkpt lat="44.80849" lon="6.19544">
        <ele>1265.5999755859</ele>
        <time>2021-09-01T13:40:40Z</time>
      </trkpt>
      <trkpt lat="44.80845" lon="6.19547">
        <ele>1266.4000244141</ele>
        <time>2021-09-01T13:40:58Z</time>
      </trkpt>
      <trkpt lat="44.80846" lon="6.19547">
        <ele>1266.4000244141</ele>
        <time>2021-09-01T13:41:05Z</time>
      </trkpt>
      <trkpt lat="44.80854" lon="6.19554">
        <ele>1266.1999511719</ele>
        <time>2021-09-01T13:41:25Z</time>
      </trkpt>
      <trkpt lat="44.80865" lon="6.19566">
        <ele>1265.5999755859</ele>
        <time>2021-09-01T13:41:47Z</time>
      </trkpt>
      <trkpt lat="44.80874" lon="6.19575">
        <ele>1265.1999511719</ele>
        <time>2021-09-01T13:42:12Z</time>
      </trkpt>
      <trkpt lat="44.80878" lon="6.19583">
        <ele>1266</ele>
        <time>2021-09-01T13:42:33Z</time>
      </trkpt>
      <trkpt lat="44.80875" lon="6.19587">
        <ele>1267</ele>
        <time>2021-09-01T13:42:57Z</time>
      </trkpt>
      <trkpt lat="44.80879" lon="6.19584">
        <ele>1266.5999755859</ele>
        <time>2021-09-01T13:43:42Z</time>
      </trkpt>
      <trkpt lat="44.80875" lon="6.19589">
        <ele>1266.5999755859</ele>
        <time>2021-09-01T13:43:51Z</time>
      </trkpt>
      <trkpt lat="44.80865" lon="6.19595">
        <ele>1266.5999755859</ele>
        <time>2021-09-01T13:44:14Z</time>
      </trkpt>
      <trkpt lat="44.80852" lon="6.19587">
        <ele>1266.8000488281</ele>
        <time>2021-09-01T13:44:31Z</time>
      </trkpt>
      <trkpt lat="44.80849" lon="6.19586">
        <ele>1268.1999511719</ele>
        <time>2021-09-01T13:44:54Z</time>
      </trkpt>
      <trkpt lat="44.80854" lon="6.19585">
        <ele>1268.1999511719</ele>
        <time>2021-09-01T13:45:37Z</time>
      </trkpt>
      <trkpt lat="44.80866" lon="6.19588">
        <ele>1266.4000244141</ele>
        <time>2021-09-01T13:45:57Z</time>
      </trkpt>
      <trkpt lat="44.80876" lon="6.19578">
        <ele>1266.4000244141</ele>
        <time>2021-09-01T13:46:20Z</time>
      </trkpt>
      <trkpt lat="44.80865" lon="6.19562">
        <ele>1264.5999755859</ele>
        <time>2021-09-01T13:46:40Z</time>
      </trkpt>
      <trkpt lat="44.80855" lon="6.19549">
        <ele>1265.1999511719</ele>
        <time>2021-09-01T13:47:03Z</time>
      </trkpt>
      <trkpt lat="44.80849" lon="6.19557">
        <ele>1265.1999511719</ele>
        <time>2021-09-01T13:47:14Z</time>
      </trkpt>
      <trkpt lat="44.80847" lon="6.19571">
        <ele>1265.1999511719</ele>
        <time>2021-09-01T13:47:40Z</time>
      </trkpt>
      <trkpt lat="44.8085" lon="6.19568">
        <ele>1265.5999755859</ele>
        <time>2021-09-01T13:48:16Z</time>
      </trkpt>
      <trkpt lat="44.8085" lon="6.19577">
        <ele>1265.5999755859</ele>
        <time>2021-09-01T13:48:39Z</time>
      </trkpt>
      <trkpt lat="44.80848" lon="6.1955">
        <ele>1266</ele>
        <time>2021-09-01T13:48:57Z</time>
      </trkpt>
      <trkpt lat="44.80841" lon="6.19535">
        <ele>1267</ele>
        <time>2021-09-01T13:49:15Z</time>
      </trkpt>
      <trkpt lat="44.80843" lon="6.19533">
        <ele>1267.8000488281</ele>
        <time>2021-09-01T13:49:42Z</time>
      </trkpt>
      <trkpt lat="44.80845" lon="6.19538">
        <ele>1267.8000488281</ele>
        <time>2021-09-01T13:49:46Z</time>
      </trkpt>
      <trkpt lat="44.80859" lon="6.19555">
        <ele>1266.1999511719</ele>
        <time>2021-09-01T13:50:15Z</time>
      </trkpt>
      <trkpt lat="44.80861" lon="6.19554">
        <ele>1266.4000244141</ele>
        <time>2021-09-01T13:50:33Z</time>
      </trkpt>
      <trkpt lat="44.80864" lon="6.19562">
        <ele>1266</ele>
        <time>2021-09-01T13:50:59Z</time>
      </trkpt>
      <trkpt lat="44.80862" lon="6.19555">
        <ele>1266</ele>
        <time>2021-09-01T13:51:32Z</time>
      </trkpt>
      <trkpt lat="44.80861" lon="6.19559">
        <ele>1266.1999511719</ele>
        <time>2021-09-01T13:52:03Z</time>
      </trkpt>
      <trkpt lat="44.80865" lon="6.19559">
        <ele>1266.4000244141</ele>
        <time>2021-09-01T13:52:24Z</time>
      </trkpt>
      <trkpt lat="44.80864" lon="6.19562">
        <ele>1266.1999511719</ele>
        <time>2021-09-01T13:52:49Z</time>
      </trkpt>
      <trkpt lat="44.80864" lon="6.19561">
        <ele>1266.1999511719</ele>
        <time>2021-09-01T13:53:31Z</time>
      </trkpt>
      <trkpt lat="44.80856" lon="6.19562">
        <ele>1266</ele>
        <time>2021-09-01T13:54:06Z</time>
      </trkpt>
      <trkpt lat="44.80864" lon="6.19569">
        <ele>1265.8000488281</ele>
        <time>2021-09-01T13:54:26Z</time>
      </trkpt>
      <trkpt lat="44.80875" lon="6.19582">
        <ele>1266</ele>
        <time>2021-09-01T13:54:50Z</time>
      </trkpt>
      <trkpt lat="44.80891" lon="6.1959">
        <ele>1265.4000244141</ele>
        <time>2021-09-01T13:55:12Z</time>
      </trkpt>
      <trkpt lat="44.8091" lon="6.19596">
        <ele>1266.4000244141</ele>
        <time>2021-09-01T13:55:38Z</time>
      </trkpt>
      <trkpt lat="44.80913" lon="6.19608">
        <ele>1265.5999755859</ele>
        <time>2021-09-01T13:55:59Z</time>
      </trkpt>
      <trkpt lat="44.80911" lon="6.19602">
        <ele>1264.8000488281</ele>
        <time>2021-09-01T13:56:30Z</time>
      </trkpt>
      <trkpt lat="44.80902" lon="6.19609">
        <ele>1264.8000488281</ele>
        <time>2021-09-01T13:57:17Z</time>
      </trkpt>
      <trkpt lat="44.80906" lon="6.19616">
        <ele>1264.5999755859</ele>
        <time>2021-09-01T13:57:51Z</time>
      </trkpt>
      <trkpt lat="44.80908" lon="6.19603">
        <ele>1264.5999755859</ele>
        <time>2021-09-01T13:58:14Z</time>
      </trkpt>
      <trkpt lat="44.80913" lon="6.19615">
        <ele>1264.5999755859</ele>
        <time>2021-09-01T13:58:48Z</time>
      </trkpt>
      <trkpt lat="44.80933" lon="6.19624">
        <ele>1263.8000488281</ele>
        <time>2021-09-01T13:59:12Z</time>
      </trkpt>
      <trkpt lat="44.80951" lon="6.19634">
        <ele>1263.5999755859</ele>
        <time>2021-09-01T13:59:36Z</time>
      </trkpt>
      <trkpt lat="44.80963" lon="6.19629">
        <ele>1264.1999511719</ele>
        <time>2021-09-01T13:59:56Z</time>
      </trkpt>
      <trkpt lat="44.80967" lon="6.19634">
        <ele>1264</ele>
        <time>2021-09-01T14:00:02Z</time>
      </trkpt>
      <trkpt lat="44.80978" lon="6.19643">
        <ele>1262.5999755859</ele>
        <time>2021-09-01T14:00:13Z</time>
      </trkpt>
      <trkpt lat="44.80985" lon="6.19654">
        <ele>1261.1999511719</ele>
        <time>2021-09-01T14:00:31Z</time>
      </trkpt>
      <trkpt lat="44.80986" lon="6.19656">
        <ele>1260.8000488281</ele>
        <time>2021-09-01T14:00:35Z</time>
      </trkpt>
      <trkpt lat="44.80986" lon="6.19667">
        <ele>1259.1999511719</ele>
        <time>2021-09-01T14:00:55Z</time>
      </trkpt>
      <trkpt lat="44.80985" lon="6.19667">
        <ele>1259</ele>
        <time>2021-09-01T14:00:56Z</time>
      </trkpt>
      <trkpt lat="44.80981" lon="6.19666">
        <ele>1257.8000488281</ele>
        <time>2021-09-01T14:01:02Z</time>
      </trkpt>
      <trkpt lat="44.80972" lon="6.19666">
        <ele>1255.5999755859</ele>
        <time>2021-09-01T14:01:21Z</time>
      </trkpt>
      <trkpt lat="44.8097" lon="6.1966">
        <ele>1255.1999511719</ele>
        <time>2021-09-01T14:01:48Z</time>
      </trkpt>
      <trkpt lat="44.80974" lon="6.19657">
        <ele>1255.4000244141</ele>
        <time>2021-09-01T14:01:56Z</time>
      </trkpt>
      <trkpt lat="44.80975" lon="6.19653">
        <ele>1255.1999511719</ele>
        <time>2021-09-01T14:02:16Z</time>
      </trkpt>
      <trkpt lat="44.80968" lon="6.19659">
        <ele>1255.4000244141</ele>
        <time>2021-09-01T14:02:34Z</time>
      </trkpt>
      <trkpt lat="44.80968" lon="6.19656">
        <ele>1255.4000244141</ele>
        <time>2021-09-01T14:02:50Z</time>
      </trkpt>
      <trkpt lat="44.80962" lon="6.19655">
        <ele>1257.5999755859</ele>
        <time>2021-09-01T14:03:03Z</time>
      </trkpt>
      <trkpt lat="44.80948" lon="6.19651">
        <ele>1259.8000488281</ele>
        <time>2021-09-01T14:03:21Z</time>
      </trkpt>
      <trkpt lat="44.8094" lon="6.19653">
        <ele>1261.5999755859</ele>
        <time>2021-09-01T14:03:42Z</time>
      </trkpt>
      <trkpt lat="44.80943" lon="6.19649">
        <ele>1262.1999511719</ele>
        <time>2021-09-01T14:03:54Z</time>
      </trkpt>
      <trkpt lat="44.80942" lon="6.19645">
        <ele>1262.4000244141</ele>
        <time>2021-09-01T14:04:15Z</time>
      </trkpt>
      <trkpt lat="44.80941" lon="6.19645">
        <ele>1262.4000244141</ele>
        <time>2021-09-01T14:04:18Z</time>
      </trkpt>
      <trkpt lat="44.8093" lon="6.19637">
        <ele>1261.5999755859</ele>
        <time>2021-09-01T14:04:38Z</time>
      </trkpt>
      <trkpt lat="44.80923" lon="6.1963">
        <ele>1261.8000488281</ele>
        <time>2021-09-01T14:04:55Z</time>
      </trkpt>
      <trkpt lat="44.80918" lon="6.19617">
        <ele>1262.1999511719</ele>
        <time>2021-09-01T14:05:20Z</time>
      </trkpt>
      <trkpt lat="44.80918" lon="6.19621">
        <ele>1262.1999511719</ele>
        <time>2021-09-01T14:06:04Z</time>
      </trkpt>
      <trkpt lat="44.80913" lon="6.19631">
        <ele>1262</ele>
        <time>2021-09-01T14:06:45Z</time>
      </trkpt>
      <trkpt lat="44.80919" lon="6.19637">
        <ele>1262.1999511719</ele>
        <time>2021-09-01T14:07:26Z</time>
      </trkpt>
      <trkpt lat="44.80915" lon="6.19641">
        <ele>1262.1999511719</ele>
        <time>2021-09-01T14:07:53Z</time>
      </trkpt>
      <trkpt lat="44.80913" lon="6.19634">
        <ele>1262.5999755859</ele>
        <time>2021-09-01T14:08:18Z</time>
      </trkpt>
      <trkpt lat="44.80908" lon="6.19623">
        <ele>1262.5999755859</ele>
        <time>2021-09-01T14:08:35Z</time>
      </trkpt>
      <trkpt lat="44.80903" lon="6.19616">
        <ele>1263.4000244141</ele>
        <time>2021-09-01T14:08:56Z</time>
      </trkpt>
      <trkpt lat="44.809" lon="6.19615">
        <ele>1263.4000244141</ele>
        <time>2021-09-01T14:09:03Z</time>
      </trkpt>
      <trkpt lat="44.80884" lon="6.19609">
        <ele>1264</ele>
        <time>2021-09-01T14:09:24Z</time>
      </trkpt>
      <trkpt lat="44.80879" lon="6.19604">
        <ele>1264.1999511719</ele>
        <time>2021-09-01T14:09:38Z</time>
      </trkpt>
      <trkpt lat="44.80873" lon="6.19594">
        <ele>1265.4000244141</ele>
        <time>2021-09-01T14:09:54Z</time>
      </trkpt>
      <trkpt lat="44.80875" lon="6.19589">
        <ele>1266.5999755859</ele>
        <time>2021-09-01T14:10:06Z</time>
      </trkpt>
      <trkpt lat="44.80874" lon="6.19577">
        <ele>1266.1999511719</ele>
        <time>2021-09-01T14:10:17Z</time>
      </trkpt>
      <trkpt lat="44.80866" lon="6.1957">
        <ele>1265.1999511719</ele>
        <time>2021-09-01T14:10:27Z</time>
      </trkpt>
      <trkpt lat="44.8086" lon="6.19563">
        <ele>1265.1999511719</ele>
        <time>2021-09-01T14:10:43Z</time>
      </trkpt>
      <trkpt lat="44.8086" lon="6.19553">
        <ele>1266</ele>
        <time>2021-09-01T14:10:56Z</time>
      </trkpt>
      <trkpt lat="44.80861" lon="6.19541">
        <ele>1268.4000244141</ele>
        <time>2021-09-01T14:11:10Z</time>
      </trkpt>
      <trkpt lat="44.80867" lon="6.19536">
        <ele>1270.8000488281</ele>
        <time>2021-09-01T14:11:25Z</time>
      </trkpt>
      <trkpt lat="44.80861" lon="6.19527">
        <ele>1273.5999755859</ele>
        <time>2021-09-01T14:11:43Z</time>
      </trkpt>
      <trkpt lat="44.80853" lon="6.1952">
        <ele>1275.4000244141</ele>
        <time>2021-09-01T14:11:56Z</time>
      </trkpt>
      <trkpt lat="44.80848" lon="6.1951">
        <ele>1277</ele>
        <time>2021-09-01T14:12:08Z</time>
      </trkpt>
      <trkpt lat="44.80845" lon="6.195">
        <ele>1278.8000488281</ele>
        <time>2021-09-01T14:12:21Z</time>
      </trkpt>
      <trkpt lat="44.80844" lon="6.19493">
        <ele>1280.8000488281</ele>
        <time>2021-09-01T14:12:34Z</time>
      </trkpt>
      <trkpt lat="44.80859" lon="6.19499">
        <ele>1282.8000488281</ele>
        <time>2021-09-01T14:12:50Z</time>
      </trkpt>
      <trkpt lat="44.8087" lon="6.19509">
        <ele>1284.1999511719</ele>
        <time>2021-09-01T14:13:01Z</time>
      </trkpt>
      <trkpt lat="44.80875" lon="6.19514">
        <ele>1286</ele>
        <time>2021-09-01T14:13:13Z</time>
      </trkpt>
      <trkpt lat="44.80887" lon="6.19523">
        <ele>1288.1999511719</ele>
        <time>2021-09-01T14:13:34Z</time>
      </trkpt>
      <trkpt lat="44.80904" lon="6.19528">
        <ele>1288</ele>
        <time>2021-09-01T14:13:55Z</time>
      </trkpt>
      <trkpt lat="44.80914" lon="6.19536">
        <ele>1287.8000488281</ele>
        <time>2021-09-01T14:14:06Z</time>
      </trkpt>
      <trkpt lat="44.80927" lon="6.19544">
        <ele>1287.8000488281</ele>
        <time>2021-09-01T14:14:19Z</time>
      </trkpt>
      <trkpt lat="44.80942" lon="6.19554">
        <ele>1288</ele>
        <time>2021-09-01T14:14:39Z</time>
      </trkpt>
      <trkpt lat="44.80956" lon="6.19562">
        <ele>1288</ele>
        <time>2021-09-01T14:14:52Z</time>
      </trkpt>
      <trkpt lat="44.80977" lon="6.19571">
        <ele>1288</ele>
        <time>2021-09-01T14:15:01Z</time>
      </trkpt>
      <trkpt lat="44.80984" lon="6.19574">
        <ele>1288</ele>
        <time>2021-09-01T14:15:03Z</time>
      </trkpt>
      <trkpt lat="44.80991" lon="6.19576">
        <ele>1288</ele>
        <time>2021-09-01T14:15:07Z</time>
      </trkpt>
      <trkpt lat="44.81005" lon="6.1957">
        <ele>1288</ele>
        <time>2021-09-01T14:15:24Z</time>
      </trkpt>
      <trkpt lat="44.81019" lon="6.19567">
        <ele>1288.1999511719</ele>
        <time>2021-09-01T14:15:40Z</time>
      </trkpt>
      <trkpt lat="44.81025" lon="6.19564">
        <ele>1288.1999511719</ele>
        <time>2021-09-01T14:15:55Z</time>
      </trkpt>
      <trkpt lat="44.81037" lon="6.19561">
        <ele>1288.1999511719</ele>
        <time>2021-09-01T14:16:14Z</time>
      </trkpt>
      <trkpt lat="44.81053" lon="6.19561">
        <ele>1288</ele>
        <time>2021-09-01T14:16:31Z</time>
      </trkpt>
      <trkpt lat="44.81063" lon="6.19562">
        <ele>1287.8000488281</ele>
        <time>2021-09-01T14:16:41Z</time>
      </trkpt>
      <trkpt lat="44.81074" lon="6.19565">
        <ele>1287.8000488281</ele>
        <time>2021-09-01T14:16:45Z</time>
      </trkpt>
      <trkpt lat="44.81104" lon="6.19562">
        <ele>1287</ele>
        <time>2021-09-01T14:17:12Z</time>
      </trkpt>
      <trkpt lat="44.81108" lon="6.19563">
        <ele>1287</ele>
        <time>2021-09-01T14:17:17Z</time>
      </trkpt>
      <trkpt lat="44.81111" lon="6.19564">
        <ele>1287</ele>
        <time>2021-09-01T14:17:20Z</time>
      </trkpt>
      <trkpt lat="44.81117" lon="6.19569">
        <ele>1286.8000488281</ele>
        <time>2021-09-01T14:17:27Z</time>
      </trkpt>
      <trkpt lat="44.81126" lon="6.19577">
        <ele>1286.8000488281</ele>
        <time>2021-09-01T14:17:38Z</time>
      </trkpt>
      <trkpt lat="44.81132" lon="6.19587">
        <ele>1286.5999755859</ele>
        <time>2021-09-01T14:17:52Z</time>
      </trkpt>
      <trkpt lat="44.81159" lon="6.19609">
        <ele>1286.1999511719</ele>
        <time>2021-09-01T14:18:13Z</time>
      </trkpt>
      <trkpt lat="44.81164" lon="6.19613">
        <ele>1285.4000244141</ele>
        <time>2021-09-01T14:18:24Z</time>
      </trkpt>
      <trkpt lat="44.81157" lon="6.19609">
        <ele>1285</ele>
        <time>2021-09-01T14:18:30Z</time>
      </trkpt>
      <trkpt lat="44.81158" lon="6.19612">
        <ele>1285</ele>
        <time>2021-09-01T14:18:38Z</time>
      </trkpt>
      <trkpt lat="44.81175" lon="6.19625">
        <ele>1284</ele>
        <time>2021-09-01T14:18:52Z</time>
      </trkpt>
      <trkpt lat="44.81183" lon="6.19647">
        <ele>1282.4000244141</ele>
        <time>2021-09-01T14:19:13Z</time>
      </trkpt>
      <trkpt lat="44.81189" lon="6.19652">
        <ele>1282.4000244141</ele>
        <time>2021-09-01T14:19:17Z</time>
      </trkpt>
      <trkpt lat="44.812" lon="6.19658">
        <ele>1282.4000244141</ele>
        <time>2021-09-01T14:19:23Z</time>
      </trkpt>
      <trkpt lat="44.81208" lon="6.19658">
        <ele>1283.1999511719</ele>
        <time>2021-09-01T14:19:41Z</time>
      </trkpt>
      <trkpt lat="44.8121" lon="6.19657">
        <ele>1283.1999511719</ele>
        <time>2021-09-01T14:19:47Z</time>
      </trkpt>
      <trkpt lat="44.8121" lon="6.19657">
        <ele>1283.4000244141</ele>
        <time>2021-09-01T14:19:56Z</time>
      </trkpt>
    </trkseg>
  </trk>
</gpx>